Provisional Data: Sterling Run near Sterling Run, PA


Please select a monitoring station.
Please select start date.
Please select start date.

Toggle Unit: C/F Toggle Unit: C/F
Sample Time Temperature (C) Temperature (F) Specific Conductivity (mS/cm) pH   Turbidity (NTU+) DO (mg/L)
3/23/2021 12:00:00 AM 5.97 42.746 0.055 6.3 2.06 12.37
3/23/2021 12:15:00 AM 5.9 42.62 0.055 6.36 1.99 12.4
3/23/2021 12:30:00 AM 5.83 42.494 0.055 6.36 2.09 12.44
3/23/2021 12:45:00 AM 5.76 42.368 0.055 6.36 2.15 12.45
3/23/2021 1:00:00 AM 5.7 42.26 0.055 6.36 2.08 12.47
3/23/2021 1:15:00 AM 5.64 42.152 0.055 6.36 2.01 12.49
3/23/2021 1:30:00 AM 5.57 42.026 0.055 6.34 2.05 12.51
3/23/2021 1:45:00 AM 5.51 41.918 0.055 6.36 2.13 12.53
3/23/2021 2:00:00 AM 5.44 41.792 0.055 6.36 2.04 12.54
3/23/2021 2:15:00 AM 5.37 41.666 0.055 6.36 2.06 12.56
3/23/2021 2:30:00 AM 5.31 41.558 0.055 6.36 2.05 12.58
3/23/2021 2:45:00 AM 5.25 41.45 0.055 6.36 2.2 12.62
3/23/2021 3:00:00 AM 5.18 41.324 0.055 6.36 2.04 12.65
3/23/2021 3:15:00 AM 5.12 41.216 0.055 6.36 2.06 12.67
3/23/2021 3:30:00 AM 5.06 41.108 0.055 6.36 1.98 12.68
3/23/2021 3:45:00 AM 4.99 40.982 0.055 6.26 2 12.7
3/23/2021 4:00:00 AM 4.94 40.892 0.055 6.36 2.04 12.71
3/23/2021 4:15:00 AM 4.88 40.784 0.055 6.36 1.94 12.71
3/23/2021 4:30:00 AM 4.83 40.694 0.055 6.35 2.02 12.73
3/23/2021 4:45:00 AM 4.77 40.586 0.055 6.27 1.96 12.76
3/23/2021 5:00:00 AM 4.72 40.496 0.055 6.36 2.02 12.77
3/23/2021 5:15:00 AM 4.67 40.406 0.055 6.35 1.98 12.8
3/23/2021 5:30:00 AM 4.62 40.316 0.055 6.3 1.95 12.82
3/23/2021 5:45:00 AM 4.57 40.226 0.055 6.35 1.93 12.84
3/23/2021 6:00:00 AM 4.52 40.136 0.055 6.35 2.25 12.86
3/23/2021 6:15:00 AM 4.47 40.046 0.055 6.35 1.95 12.88
3/23/2021 6:30:00 AM 4.42 39.956 0.055 6.35 1.98 12.89
3/23/2021 6:45:00 AM 4.37 39.866 0.055 6.35 2.06 12.9
3/23/2021 7:00:00 AM 4.32 39.776 0.055 6.32 1.95 12.91
3/23/2021 7:15:00 AM 4.28 39.704 0.055 6.34 1.98 12.92
3/23/2021 7:30:00 AM 4.24 39.632 0.056 6.34 2.03 12.94
3/23/2021 7:45:00 AM 4.21 39.578 0.056 6.34 2.02 12.97
3/23/2021 8:00:00 AM 4.19 39.542 0.056 6.32 2 13
3/23/2021 8:15:00 AM 4.16 39.488 0.055 6.34 2 13.02
3/23/2021 8:30:00 AM 4.16 39.488 0.056 6.34 2 13.03
3/23/2021 8:45:00 AM 4.17 39.506 0.056 6.28 2.02 13.06
3/23/2021 9:00:00 AM 4.2 39.56 0.056 6.35 1.96 13.05
3/23/2021 9:15:00 AM 4.24 39.632 0.056 6.35 1.91 13.05
3/23/2021 9:30:00 AM 4.29 39.722 0.056 6.35 1.97 13.05
3/23/2021 9:45:00 AM 4.35 39.83 0.056 6.35 1.83 13.04
3/23/2021 10:00:00 AM 4.45 40.01 0.056 6.36 1.94 13.03
3/23/2021 10:15:00 AM 4.55 40.19 0.056 6.36 1.88 13.02
3/23/2021 10:30:00 AM 4.66 40.388 0.056 6.29 1.9 13.01
3/23/2021 10:45:00 AM 4.79 40.622 0.056 6.37 1.82 12.95
3/23/2021 11:00:00 AM 4.9 40.82 0.056 6.37 1.97 12.91
3/23/2021 11:15:00 AM 5.07 41.126 0.056 6.37 1.78 12.9
3/23/2021 11:30:00 AM 5.2 41.36 0.056 6.38 1.87 12.86
3/23/2021 11:45:00 AM 5.37 41.666 0.056 6.38 1.77 12.79
3/23/2021 12:00:00 PM 5.52 41.936 0.056 6.39 1.83 12.73
3/23/2021 12:15:00 PM 5.72 42.296 0.056 6.39 1.85 12.71
3/23/2021 12:30:00 PM 5.9 42.62 0.056 6.39 1.89 12.63
3/23/2021 12:45:00 PM 6.12 43.016 0.056 6.4 1.81 12.56
3/23/2021 1:00:00 PM 6.32 43.376 0.056 6.39 1.75 12.51
3/23/2021 1:15:00 PM 6.49 43.682 0.056 6.41 1.82 12.44
3/23/2021 1:30:00 PM 6.58 43.844 0.056 6.41 1.69 12.37
3/23/2021 1:45:00 PM 6.73 44.114 0.056 6.42 1.73 12.31
3/23/2021 2:00:00 PM 6.84 44.312 0.056 6.39 1.79 12.3
3/23/2021 2:15:00 PM 6.98 44.564 0.056 6.42 1.74 12.25
3/23/2021 2:30:00 PM 7.1 44.78 0.056 6.42 1.79 12.2
3/23/2021 2:45:00 PM 7.18 44.924 0.056 6.42 1.89 12.15
3/23/2021 3:00:00 PM 7.29 45.122 0.056 6.43 1.87 12.12
3/23/2021 3:15:00 PM 7.39 45.302 0.056 6.43 1.86 12.11
3/23/2021 3:30:00 PM 7.44 45.392 0.056 6.43 1.8 12.08
3/23/2021 3:45:00 PM 7.55 45.59 0.056 6.43 1.84 12.03
3/23/2021 4:00:00 PM 7.62 45.716 0.056 6.34 1.79 12.01
3/23/2021 4:15:00 PM 7.65 45.77 0.056 6.41 1.86 11.98
3/23/2021 4:30:00 PM 7.74 45.932 0.056 6.44 1.9 11.95
3/23/2021 4:45:00 PM 7.76 45.968 0.056 6.43 1.88 11.93
3/23/2021 5:00:00 PM 7.77 45.986 0.056 6.43 1.81 11.92
3/23/2021 5:15:00 PM 7.81 46.058 0.056 6.43 1.89 11.91
3/23/2021 5:30:00 PM 7.82 46.076 0.056 6.44 1.84 11.9
3/23/2021 5:45:00 PM 7.83 46.094 0.056 6.43 1.85 11.89
3/23/2021 6:00:00 PM 7.83 46.094 0.056 6.44 1.83 11.88
3/23/2021 6:15:00 PM 7.8 46.04 0.056 6.44 1.92 11.88
3/23/2021 6:30:00 PM 7.78 46.004 0.056 6.43 2 11.87
3/23/2021 6:45:00 PM 7.76 45.968 0.057 6.43 1.95 11.87
3/23/2021 7:00:00 PM 7.74 45.932 0.057 6.43 1.94 11.86
3/23/2021 7:15:00 PM 7.69 45.842 0.057 6.41 1.93 11.87
3/23/2021 7:30:00 PM 7.66 45.788 0.057 6.42 1.96 11.87
3/23/2021 7:45:00 PM 7.62 45.716 0.057 6.41 2.01 11.87
3/23/2021 8:00:00 PM 7.58 45.644 0.057 6.4 1.89 11.88
3/23/2021 8:15:00 PM 7.55 45.59 0.057 6.41 1.99 11.89
3/23/2021 8:30:00 PM 7.52 45.536 0.057 6.4 2.04 11.9
3/23/2021 8:45:00 PM 7.48 45.464 0.057 6.4 2 11.92
3/23/2021 9:00:00 PM 7.45 45.41 0.057 6.31 2.07 11.93
3/23/2021 9:15:00 PM 7.41 45.338 0.057 6.39 2.02 11.93
3/23/2021 9:30:00 PM 7.36 45.248 0.057 6.41 1.99 11.93
3/23/2021 9:45:00 PM 7.31 45.158 0.057 6.41 2.1 11.94
3/23/2021 10:00:00 PM 7.26 45.068 0.057 6.4 1.91 11.95
3/23/2021 10:15:00 PM 7.21 44.978 0.057 6.4 2.06 11.96
3/23/2021 10:30:00 PM 7.15 44.87 0.057 6.4 2.2 11.98
3/23/2021 10:45:00 PM 7.1 44.78 0.057 6.4 2.47 12
3/23/2021 11:00:00 PM 7.04 44.672 0.057 6.4 2.13 12.02
3/23/2021 11:15:00 PM 7 44.6 0.057 6.4 2.08 12.03
3/23/2021 11:30:00 PM 6.96 44.528 0.057 6.4 1.95 12.05
3/23/2021 11:45:00 PM 6.93 44.474 0.057 6.38 1.96 12.05
3/24/2021 12:00:00 AM 6.88 44.384 0.057 6.4 2.16 12.07
3/24/2021 12:15:00 AM 6.85 44.33 0.057 6.4 2.31 12.08
3/24/2021 12:30:00 AM 6.83 44.294 0.057 6.4 2.19 12.09
3/24/2021 12:45:00 AM 6.79 44.222 0.057 6.4 2.23 12.1
3/24/2021 1:00:00 AM 6.78 44.204 0.057 6.4 2.06 12.1
3/24/2021 1:15:00 AM 6.76 44.168 0.057 6.4 2.2 12.11
3/24/2021 1:30:00 AM 6.74 44.132 0.057 6.4 2.11 12.1
3/24/2021 1:45:00 AM 6.73 44.114 0.057 6.4 2.15 12.1
3/24/2021 2:00:00 AM 6.73 44.114 0.057 6.4 2.08 12.11
3/24/2021 2:15:00 AM 6.72 44.096 0.057 6.4 2.11 12.11
3/24/2021 2:30:00 AM 6.71 44.078 0.057 6.37 2 12.11
3/24/2021 2:45:00 AM 6.7 44.06 0.057 6.41 2.04 12.11
3/24/2021 3:00:00 AM 6.69 44.042 0.057 6.4 2.1 12.11
3/24/2021 3:15:00 AM 6.7 44.06 0.057 6.4 2.15 12.12
3/24/2021 3:30:00 AM 6.7 44.06 0.057 6.41 2.1 12.12
3/24/2021 3:45:00 AM 6.7 44.06 0.057 6.34 2.22 12.12
3/24/2021 4:00:00 AM 6.7 44.06 0.057 6.41 2.07 12.12
3/24/2021 4:15:00 AM 6.69 44.042 0.057 6.4 2.07 12.12
3/24/2021 4:30:00 AM 6.68 44.024 0.057 6.4 2.19 12.12
3/24/2021 4:45:00 AM 6.67 44.006 0.057 6.39 2.1 12.11
3/24/2021 5:00:00 AM 6.67 44.006 0.057 6.4 2.17 12.11
3/24/2021 5:15:00 AM 6.67 44.006 0.057 6.4 2.04 12.12
3/24/2021 5:30:00 AM 6.68 44.024 0.057 6.39 2.3 12.11
3/24/2021 5:45:00 AM 6.68 44.024 0.057 6.4 2.44 12.11
3/24/2021 6:00:00 AM 6.68 44.024 0.057 6.39 2.13 12.11
3/24/2021 6:15:00 AM 6.69 44.042 0.057 6.39 2.19 12.11
3/24/2021 6:30:00 AM 6.7 44.06 0.057 6.39 2.38 12.12
3/24/2021 6:45:00 AM 6.71 44.078 0.057 6.4 2.14 12.1
3/24/2021 7:00:00 AM 6.71 44.078 0.057 6.39 2.32 12.11
3/24/2021 7:15:00 AM 6.71 44.078 0.057 6.39 2.78 12.11
3/24/2021 7:30:00 AM 6.73 44.114 0.057 6.39 2.53 12.1
3/24/2021 7:45:00 AM 6.74 44.132 0.057 6.4 3.17 12.11
3/24/2021 8:00:00 AM 6.75 44.15 0.056 6.4 4.12 12.12
3/24/2021 8:15:00 AM 6.76 44.168 0.056 6.39 4.9 12.12
3/24/2021 8:30:00 AM 6.77 44.186 0.056 6.31 4.63 12.11
3/24/2021 8:45:00 AM 6.77 44.186 0.056 6.39 3.58 12.11
3/24/2021 9:00:00 AM 6.79 44.222 0.056 6.41 4.16 12.13
3/24/2021 9:15:00 AM 6.81 44.258 0.056 6.41 5.66 12.14
3/24/2021 9:30:00 AM 6.83 44.294 0.056 6.43 7.21 12.15
3/24/2021 9:45:00 AM 6.87 44.366 0.056 6.43 6.95 12.15
3/24/2021 10:00:00 AM 6.91 44.438 0.056 6.46 6.57 12.15
3/24/2021 10:15:00 AM 6.95 44.51 0.056 6.48 6.29 12.14
3/24/2021 10:30:00 AM 7 44.6 0.057 6.47 6.14 12.13
3/24/2021 10:45:00 AM 7.05 44.69 0.057 6.46 6.19 12.11
3/24/2021 11:00:00 AM 7.1 44.78 0.057 6.46 5.23 12.1
3/24/2021 11:15:00 AM 7.15 44.87 0.057 6.45 5.1 12.08
3/24/2021 11:30:00 AM 7.21 44.978 0.057 6.44 5.25 12.06
3/24/2021 11:45:00 AM 7.26 45.068 0.057 6.44 6.24 12.05
3/24/2021 12:00:00 PM 7.32 45.176 0.057 6.44 6.34 12.03
3/24/2021 12:15:00 PM 7.39 45.302 0.058 6.4 6.15 12.03
3/24/2021 12:30:00 PM 7.46 45.428 0.058 6.44 5.55 12.02
3/24/2021 12:45:00 PM 7.52 45.536 0.058 6.43 5.28 11.99
3/24/2021 1:00:00 PM 7.61 45.698 0.058 6.43 5.04 11.96
3/24/2021 1:15:00 PM 7.69 45.842 0.059 6.42 4.59 11.94
3/24/2021 1:30:00 PM 7.78 46.004 0.059 6.43 4.43 11.9
3/24/2021 1:45:00 PM 7.83 46.094 0.059 6.42 4.25 11.87
3/24/2021 2:00:00 PM 7.87 46.166 0.059 6.42 4.12 11.86
3/24/2021 2:15:00 PM 7.92 46.256 0.059 6.42 3.38 11.84
3/24/2021 2:30:00 PM 7.97 46.346 0.059 6.42 3.4 11.84
3/24/2021 2:45:00 PM 8.05 46.49 0.059 6.36 3.14 11.83
3/24/2021 3:00:00 PM 8.14 46.652 0.059 6.39 3.05 11.81
3/24/2021 3:15:00 PM 8.22 46.796 0.059 6.42 2.97 11.79
3/24/2021 3:30:00 PM 8.31 46.958 0.059 6.42 2.97 11.74
3/24/2021 3:45:00 PM 8.4 47.12 0.059 6.42 3.1 11.71
3/24/2021 4:00:00 PM 8.48 47.264 0.059 6.42 2.71 11.69
3/24/2021 4:15:00 PM 8.54 47.372 0.059 6.43 2.77 11.66
3/24/2021 4:30:00 PM 8.59 47.462 0.059 6.43 2.71 11.65
3/24/2021 4:45:00 PM 8.65 47.57 0.059 6.42 10.35 11.62
3/24/2021 5:00:00 PM 8.68 47.624 0.059 6.43 3.17 11.63
3/24/2021 5:15:00 PM 8.68 47.624 0.059 6.42 2.78 11.61
3/24/2021 5:30:00 PM 8.69 47.642 0.059 6.43 2.85 11.6
3/24/2021 5:45:00 PM 8.72 47.696 0.059 6.42 2.45 11.59
3/24/2021 6:00:00 PM 8.73 47.714 0.059 6.42 2.65 11.57
3/24/2021 6:15:00 PM 8.74 47.732 0.059 6.34 2.54 11.57
3/24/2021 6:30:00 PM 8.74 47.732 0.059 6.42 2.55 11.55
3/24/2021 6:45:00 PM 8.73 47.714 0.059 6.36 3.34 11.55
3/24/2021 7:00:00 PM 8.72 47.696 0.059 6.42 2.64 11.53
3/24/2021 7:15:00 PM 8.69 47.642 0.059 6.41 2.46 11.53
3/24/2021 7:30:00 PM 8.65 47.57 0.059 6.41 2.73 11.53
3/24/2021 7:45:00 PM 8.61 47.498 0.059 6.33 2.47 11.52
3/24/2021 8:00:00 PM 8.58 47.444 0.059 6.41 2.53 11.52
3/24/2021 8:15:00 PM 8.54 47.372 0.059 6.4 2.51 11.53
3/24/2021 8:30:00 PM 8.51 47.318 0.059 6.4 2.44 11.53
3/24/2021 8:45:00 PM 8.48 47.264 0.059 6.4 2.52 11.54
3/24/2021 9:00:00 PM 8.45 47.21 0.058 6.4 2.36 11.55
3/24/2021 9:15:00 PM 8.43 47.174 0.058 6.32 2.17 11.55
3/24/2021 9:30:00 PM 8.4 47.12 0.058 6.4 2.5 11.57
3/24/2021 9:45:00 PM 8.37 47.066 0.058 6.39 2.51 11.58
3/24/2021 10:00:00 PM 8.36 47.048 0.058 6.4 2.32 11.58
3/24/2021 10:15:00 PM 8.33 46.994 0.058 6.38 2.28 11.6
3/24/2021 10:30:00 PM 8.31 46.958 0.058 6.38 2.42 11.6
3/24/2021 10:45:00 PM 8.29 46.922 0.058 6.4 2.27 11.62
3/24/2021 11:00:00 PM 8.27 46.886 0.058 6.39 2.24 11.64
3/24/2021 11:15:00 PM 8.24 46.832 0.058 6.39 2.28 11.63
3/24/2021 11:30:00 PM 8.22 46.796 0.058 6.39 2.31 11.64
3/24/2021 11:45:00 PM 8.2 46.76 0.058 6.39 2.28 11.66
3/25/2021 12:00:00 AM 8.18 46.724 0.059 6.39 2.22 11.65
3/25/2021 12:15:00 AM 8.17 46.706 0.059 6.39 2.34 11.66
3/25/2021 12:30:00 AM 8.15 46.67 0.059 6.38 2.26 11.66
3/25/2021 12:45:00 AM 8.13 46.634 0.059 6.36 2.22 11.66
3/25/2021 1:00:00 AM 8.12 46.616 0.059 6.39 2.21 11.68
3/25/2021 1:15:00 AM 8.1 46.58 0.059 6.38 2.31 11.69
3/25/2021 1:30:00 AM 8.08 46.544 0.059 6.39 2.38 11.7
3/25/2021 1:45:00 AM 8.06 46.508 0.059 6.39 2.17 11.7
3/25/2021 2:00:00 AM 8.04 46.472 0.059 6.38 2.02 11.69
3/25/2021 2:15:00 AM 8.03 46.454 0.059 6.38 2.3 11.7
3/25/2021 2:30:00 AM 8.02 46.436 0.059 6.38 2.19 11.7
3/25/2021 2:45:00 AM 8 46.4 0.059 6.38 2.17 11.7
3/25/2021 3:00:00 AM 7.98 46.364 0.059 6.37 2.15 11.71
3/25/2021 3:15:00 AM 7.97 46.346 0.059 6.37 2.12 11.71
3/25/2021 3:30:00 AM 7.95 46.31 0.059 6.37 2.19 11.71
3/25/2021 3:45:00 AM 7.93 46.274 0.059 6.37 2.13 11.71
3/25/2021 4:00:00 AM 7.92 46.256 0.059 6.37 2.19 11.71
3/25/2021 4:15:00 AM 7.9 46.22 0.059 6.37 2.05 11.71
3/25/2021 4:30:00 AM 7.88 46.184 0.059 6.34 2.14 11.71
3/25/2021 4:45:00 AM 7.86 46.148 0.059 6.37 2.13 11.73
3/25/2021 5:00:00 AM 7.83 46.094 0.059 6.36 2.25 11.73
3/25/2021 5:15:00 AM 7.8 46.04 0.059 6.36 2.19 11.74
3/25/2021 5:30:00 AM 7.78 46.004 0.059 6.36 2.13 11.74
3/25/2021 5:45:00 AM 7.74 45.932 0.059 6.36 1.97 11.76
3/25/2021 6:00:00 AM 7.71 45.878 0.059 6.29 2.2 11.77
3/25/2021 6:15:00 AM 7.68 45.824 0.059 6.37 2.14 11.79
3/25/2021 6:30:00 AM 7.64 45.752 0.059 6.3 2.46 11.8
3/25/2021 6:45:00 AM 7.6 45.68 0.059 6.36 2.39 11.82
3/25/2021 7:00:00 AM 7.56 45.608 0.059 6.37 2.2 11.84
3/25/2021 7:15:00 AM 7.52 45.536 0.059 6.37 2.42 11.86
3/25/2021 7:30:00 AM 7.49 45.482 0.059 6.37 2.15 11.88
3/25/2021 7:45:00 AM 7.47 45.446 0.059 6.38 2.24 11.89
3/25/2021 8:00:00 AM 7.45 45.41 0.059 6.38 2.15 11.92
3/25/2021 8:15:00 AM 7.44 45.392 0.058 6.39 2.16 11.94
3/25/2021 8:30:00 AM 7.44 45.392 0.058 6.39 2.22 11.96
3/25/2021 8:45:00 AM 7.44 45.392 0.058 6.4 2.26 11.97
3/25/2021 9:00:00 AM 7.46 45.428 0.058 6.4 2.15 11.98
3/25/2021 9:15:00 AM 7.51 45.518 0.058 6.41 2.14 11.98
3/25/2021 9:30:00 AM 7.55 45.59 0.058 6.32 2.08 11.98
3/25/2021 9:45:00 AM 7.62 45.716 0.058 6.41 2.11 11.97
3/25/2021 10:00:00 AM 7.71 45.878 0.058 6.42 2.37 11.96
3/25/2021 10:15:00 AM 7.81 46.058 0.058 6.42 2.04 11.93
3/25/2021 10:30:00 AM 7.92 46.256 0.058 6.42 2.07 11.9
3/25/2021 10:45:00 AM 8.06 46.508 0.058 6.42 2.14 11.89
3/25/2021 11:00:00 AM 8.21 46.778 0.058 6.43 2.19 11.86
3/25/2021 11:15:00 AM 8.36 47.048 0.058 6.42 2.02 11.8
3/25/2021 11:30:00 AM 8.5 47.3 0.058 6.43 2.03 11.76
3/25/2021 11:45:00 AM 8.68 47.624 0.058 6.43 1.97 11.73
3/25/2021 12:00:00 PM 8.85 47.93 0.058 6.44 2.08 11.68
3/25/2021 12:15:00 PM 9 48.2 0.058 6.44 1.98 11.62
3/25/2021 12:30:00 PM 9.2 48.56 0.058 6.44 1.98 11.57
3/25/2021 12:45:00 PM 9.36 48.848 0.059 6.44 2.02 11.55
3/25/2021 1:00:00 PM 9.49 49.082 0.059 6.45 1.96 11.5
3/25/2021 1:15:00 PM 9.65 49.37 0.058 6.45 2 11.44
3/25/2021 1:30:00 PM 9.79 49.622 0.058 6.45 1.95 11.39
3/25/2021 1:45:00 PM 9.9 49.82 0.059 6.37 1.93 11.38
3/25/2021 2:00:00 PM 10 50 0.059 6.45 1.96 11.33
3/25/2021 2:15:00 PM 10.14 50.252 0.059 6.46 2.1 11.29
3/25/2021 2:30:00 PM 10.25 50.45 0.059 6.46 2.21 11.24
3/25/2021 2:45:00 PM 10.35 50.63 0.059 6.46 2.05 11.2
3/25/2021 3:00:00 PM 10.41 50.738 0.058 6.46 1.87 11.18
3/25/2021 3:15:00 PM 10.48 50.864 0.059 6.47 1.86 11.16
3/25/2021 3:30:00 PM 10.53 50.954 0.058 6.47 1.88 11.15
3/25/2021 3:45:00 PM 10.56 51.008 0.058 6.46 1.92 11.12
3/25/2021 4:00:00 PM 10.59 51.062 0.058 6.42 3.19 11.12
3/25/2021 4:15:00 PM 10.6 51.08 0.058 6.45 1.92 11.1
3/25/2021 4:30:00 PM 10.61 51.098 0.058 6.46 2.04 11.1
3/25/2021 4:45:00 PM 10.61 51.098 0.058 6.46 2.09 11.09
3/25/2021 5:00:00 PM 10.61 51.098 0.058 6.46 1.98 11.08
3/25/2021 5:15:00 PM 10.6 51.08 0.058 6.46 2.06 11.08
3/25/2021 5:30:00 PM 10.58 51.044 0.058 6.46 2.03 11.07
3/25/2021 5:45:00 PM 10.54 50.972 0.058 6.46 2.02 11.07
3/25/2021 6:00:00 PM 10.51 50.918 0.058 6.45 2 11.06
3/25/2021 6:15:00 PM 10.48 50.864 0.058 6.41 3.44 11.06
3/25/2021 6:30:00 PM 10.43 50.774 0.058 6.44 2.01 11.05
3/25/2021 6:45:00 PM 10.39 50.702 0.058 6.44 1.95 11.04
3/25/2021 7:00:00 PM 10.33 50.594 0.058 6.44 1.96 11.04
3/25/2021 7:15:00 PM 10.29 50.522 0.058 6.44 1.9 11.04
3/25/2021 7:30:00 PM 10.24 50.432 0.058 6.43 2.03 11.04
3/25/2021 7:45:00 PM 10.2 50.36 0.058 6.43 2.09 11.04
3/25/2021 8:00:00 PM 10.16 50.288 0.058 6.43 2.14 11.06
3/25/2021 8:15:00 PM 10.13 50.234 0.058 6.39 3.42 11.06
3/25/2021 8:30:00 PM 10.09 50.162 0.059 6.35 9.89 11.05
3/25/2021 8:45:00 PM 10.07 50.126 0.059 6.37 5.18 11.05
3/25/2021 9:00:00 PM 10.04 50.072 0.059 6.42 2.47 11.08
3/25/2021 9:15:00 PM 10.02 50.036 0.059 6.43 2.47 11.1
3/25/2021 9:30:00 PM 9.99 49.982 0.059 6.4 3.53 11.1
3/25/2021 9:45:00 PM 9.96 49.928 0.059 6.43 2.29 11.11
3/25/2021 10:00:00 PM 9.92 49.856 0.059 6.42 2.14 11.12
3/25/2021 10:15:00 PM 9.9 49.82 0.059 6.42 2.22 11.13
3/25/2021 10:30:00 PM 9.88 49.784 0.059 6.43 2.19 11.12
3/25/2021 10:45:00 PM 9.87 49.766 0.059 6.43 2.2 11.13
3/25/2021 11:00:00 PM 9.85 49.73 0.059 6.42 2.25 11.13
3/25/2021 11:15:00 PM 9.85 49.73 0.059 6.43 2.26 11.13
3/25/2021 11:30:00 PM 9.84 49.712 0.059 6.39 3.08 11.13
3/25/2021 11:45:00 PM 9.84 49.712 0.059 6.43 2.28 11.12
3/26/2021 12:00:00 AM 9.81 49.658 0.059 6.43 2.16 11.13
3/26/2021 12:15:00 AM 9.79 49.622 0.059 6.43 2.25 11.13
3/26/2021 12:30:00 AM 9.78 49.604 0.059 6.43 2.12 11.12
3/26/2021 12:45:00 AM 9.75 49.55 0.059 6.38 3.46 11.13
3/26/2021 1:00:00 AM 9.73 49.514 0.059 6.43 2.11 11.12
3/26/2021 1:15:00 AM 9.71 49.478 0.059 6.43 2.23 11.12
3/26/2021 1:30:00 AM 9.68 49.424 0.059 6.42 2.09 11.13
3/26/2021 1:45:00 AM 9.66 49.388 0.059 6.41 2.11 11.13
3/26/2021 2:00:00 AM 9.63 49.334 0.059 6.42 2.24 11.14
3/26/2021 2:15:00 AM 9.61 49.298 0.059 6.42 2.36 11.14
3/26/2021 2:30:00 AM 9.59 49.262 0.059 6.42 2.12 11.14
3/26/2021 2:45:00 AM 9.59 49.262 0.059 6.42 2.06 11.14
3/26/2021 3:00:00 AM 9.59 49.262 0.059 6.42 2.14 11.14
3/26/2021 3:15:00 AM 9.6 49.28 0.059 6.42 2.36 11.14
3/26/2021 3:30:00 AM 9.59 49.262 0.059 6.42 2.27 11.13
3/26/2021 3:45:00 AM 9.57 49.226 0.059 6.43 2.28 11.14
3/26/2021 4:00:00 AM 9.57 49.226 0.059 6.43 4.03 11.13
3/26/2021 4:15:00 AM 9.55 49.19 0.059 6.43 2.39 11.13
3/26/2021 4:30:00 AM 9.53 49.154 0.059 6.43 2.05 11.13
3/26/2021 4:45:00 AM 9.51 49.118 0.059 6.42 2.18 11.13
3/26/2021 5:00:00 AM 9.49 49.082 0.059 6.43 2.13 11.14
3/26/2021 5:15:00 AM 9.48 49.064 0.059 6.43 2.2 11.14
3/26/2021 5:30:00 AM 9.46 49.028 0.059 6.42 2.18 11.15
3/26/2021 5:45:00 AM 9.46 49.028 0.059 6.46 3.07 11.14
3/26/2021 6:00:00 AM 9.44 48.992 0.059 6.43 2.73 11.14
3/26/2021 6:15:00 AM 9.43 48.974 0.059 6.43 2.35 11.14
3/26/2021 6:30:00 AM 9.41 48.938 0.059 6.33 2.69 11.15
3/26/2021 6:45:00 AM 9.4 48.92 0.059 6.42 2.57 11.16
3/26/2021 7:00:00 AM 9.37 48.866 0.059 6.42 2.83 11.16
3/26/2021 7:15:00 AM 9.34 48.812 0.059 6.42 2.97 11.17
3/26/2021 7:30:00 AM 9.32 48.776 0.059 6.35 2.8 11.17
3/26/2021 7:45:00 AM 9.33 48.794 0.059 6.41 3.4 11.2
3/26/2021 8:00:00 AM 9.33 48.794 0.059 6.44 2.91 11.22
3/26/2021 8:15:00 AM 9.33 48.794 0.059 6.46 3.45 11.22
3/26/2021 8:30:00 AM 9.35 48.83 0.059 6.43 4.26 11.23
3/26/2021 8:45:00 AM 9.38 48.884 0.059 6.49 3.4 11.23
3/26/2021 9:00:00 AM 9.41 48.938 0.059 6.49 3.44 11.24
3/26/2021 9:15:00 AM 9.5 49.1 0.059 6.43 3.59 11.24
3/26/2021 9:30:00 AM 9.58 49.244 0.059 6.48 3.2 11.21
3/26/2021 9:45:00 AM 9.59 49.262 0.059 6.47 2.98 11.19
3/26/2021 10:00:00 AM 9.62 49.316 0.059 6.47 3.05 11.17
3/26/2021 10:15:00 AM 9.66 49.388 0.059 6.47 3.33 11.17
3/26/2021 10:30:00 AM 9.73 49.514 0.059 6.43 4.25 11.17
3/26/2021 10:45:00 AM 9.78 49.604 0.06 6.47 3.13 11.17
3/26/2021 11:00:00 AM 9.77 49.586 0.06 6.47 3.15 11.16
3/26/2021 11:15:00 AM 9.78 49.604 0.06 6.47 3.04 11.17
3/26/2021 11:30:00 AM 9.84 49.712 0.06 6.43 3.98 11.19
3/26/2021 11:45:00 AM 9.84 49.712 0.06 6.38 3.12 11.18
3/26/2021 12:00:00 PM 9.89 49.802 0.06 6.46 2.9 11.18
3/26/2021 12:15:00 PM 9.92 49.856 0.06 6.47 2.82 11.19
3/26/2021 12:30:00 PM 9.98 49.964 0.06 6.46 2.81 11.19
3/26/2021 12:45:00 PM 9.97 49.946 0.06 6.46 2.69 11.19
3/26/2021 1:00:00 PM 10.04 50.072 0.06 6.45 2.62 11.18
3/26/2021 1:15:00 PM 10 50 0.06 6.46 2.38 11.19
3/26/2021 1:30:00 PM 9.98 49.964 0.06 6.45 2.41 11.19
3/26/2021 1:45:00 PM 9.98 49.964 0.06 6.46 2.61 11.19
3/26/2021 2:00:00 PM 9.92 49.856 0.06 6.44 2.55 11.2
3/26/2021 2:15:00 PM 9.89 49.802 0.06 6.43 3.58 11.22
3/26/2021 2:30:00 PM 9.87 49.766 0.06 6.45 2.58 11.23
3/26/2021 2:45:00 PM 9.84 49.712 0.06 6.45 2.47 11.23
3/26/2021 3:00:00 PM 9.83 49.694 0.06 6.45 2.46 11.25
3/26/2021 3:15:00 PM 9.77 49.586 0.06 6.45 2.62 11.24
3/26/2021 3:30:00 PM 9.73 49.514 0.06 6.45 2.44 11.25
3/26/2021 3:45:00 PM 9.68 49.424 0.06 6.44 2.56 11.26
3/26/2021 4:00:00 PM 9.63 49.334 0.06 6.45 2.72 11.28
3/26/2021 4:15:00 PM 9.62 49.316 0.06 6.45 2.25 11.29
3/26/2021 4:30:00 PM 9.6 49.28 0.06 6.35 2.39 11.3
3/26/2021 4:45:00 PM 9.56 49.208 0.06 6.45 2.49 11.32
3/26/2021 5:00:00 PM 9.52 49.136 0.06 6.45 2.21 11.34
3/26/2021 5:15:00 PM 9.48 49.064 0.06 6.45 2.27 11.34
3/26/2021 5:30:00 PM 9.43 48.974 0.06 6.44 2.45 11.36
3/26/2021 5:45:00 PM 9.38 48.884 0.06 6.44 2.42 11.36
3/26/2021 6:00:00 PM 9.33 48.794 0.06 6.44 2.13 11.39
3/26/2021 6:15:00 PM 9.27 48.686 0.06 6.44 2.26 11.39
3/26/2021 6:30:00 PM 9.21 48.578 0.06 6.44 2.38 11.4
3/26/2021 6:45:00 PM 9.15 48.47 0.06 6.43 2.23 11.39
3/26/2021 7:00:00 PM 9.09 48.362 0.06 6.43 2.36 11.4
3/26/2021 7:15:00 PM 9.03 48.254 0.06 6.42 2.18 11.41
3/26/2021 7:30:00 PM 8.98 48.164 0.06 6.42 2.12 11.41
3/26/2021 7:45:00 PM 8.92 48.056 0.06 6.42 2.3 11.43
3/26/2021 8:00:00 PM 8.87 47.966 0.06 6.42 2.33 11.45
3/26/2021 8:15:00 PM 8.82 47.876 0.06 6.42 2.7 11.45
3/26/2021 8:30:00 PM 8.78 47.804 0.06 6.41 2.28 11.47
3/26/2021 8:45:00 PM 8.74 47.732 0.06 6.41 2.09 11.49
3/26/2021 9:00:00 PM 8.7 47.66 0.06 6.41 2.48 11.5
3/26/2021 9:15:00 PM 8.67 47.606 0.06 6.34 2.38 11.51
3/26/2021 9:30:00 PM 8.63 47.534 0.06 6.41 2.15 11.52
3/26/2021 9:45:00 PM 8.6 47.48 0.06 6.41 2.05 11.53
3/26/2021 10:00:00 PM 8.57 47.426 0.06 6.4 2.19 11.54
3/26/2021 10:15:00 PM 8.54 47.372 0.06 6.41 2.02 11.54
3/26/2021 10:30:00 PM 8.51 47.318 0.06 6.4 2.18 11.55
3/26/2021 10:45:00 PM 8.48 47.264 0.06 6.4 2.05 11.56
3/26/2021 11:00:00 PM 8.46 47.228 0.06 6.4 2.14 11.56
3/26/2021 11:15:00 PM 8.43 47.174 0.06 6.4 2.03 11.58
3/26/2021 11:30:00 PM 8.41 47.138 0.06 6.4 1.99 11.58
3/26/2021 11:45:00 PM 8.38 47.084 0.06 6.32 2.05 11.58
3/27/2021 12:00:00 AM 8.36 47.048 0.06 6.4 2.14 11.6
3/27/2021 12:15:00 AM 8.34 47.012 0.06 6.39 2.17 11.6
3/27/2021 12:30:00 AM 8.32 46.976 0.06 6.4 2.03 11.62
3/27/2021 12:45:00 AM 8.29 46.922 0.06 6.39 2.11 11.62
3/27/2021 1:00:00 AM 8.27 46.886 0.06 6.39 2.14 11.62
3/27/2021 1:15:00 AM 8.25 46.85 0.06 6.36 2.04 11.64
3/27/2021 1:30:00 AM 8.23 46.814 0.06 6.4 2.24 11.64
3/27/2021 1:45:00 AM 8.2 46.76 0.06 6.39 2.23 11.65
3/27/2021 2:00:00 AM 8.18 46.724 0.06 6.4 1.9 11.66
3/27/2021 2:15:00 AM 8.16 46.688 0.06 6.33 1.99 11.67
3/27/2021 2:30:00 AM 8.14 46.652 0.06 6.4 2.14 11.67
3/27/2021 2:45:00 AM 8.12 46.616 0.06 6.4 2.04 11.68
3/27/2021 3:00:00 AM 8.1 46.58 0.06 6.4 2.07 11.69
3/27/2021 3:15:00 AM 8.08 46.544 0.06 6.39 2.04 11.69
3/27/2021 3:30:00 AM 8.06 46.508 0.06 6.39 1.99 11.69
3/27/2021 3:45:00 AM 8.03 46.454 0.06 6.39 1.87 11.7
3/27/2021 4:00:00 AM 8.02 46.436 0.06 6.4 2.06 11.7
3/27/2021 4:15:00 AM 7.99 46.382 0.06 6.39 2.6 11.69
3/27/2021 4:30:00 AM 7.97 46.346 0.06 6.4 2.29 11.72
3/27/2021 4:45:00 AM 7.95 46.31 0.06 6.4 2.27 11.71
3/27/2021 5:00:00 AM 7.93 46.274 0.06 6.4 2.95 11.71
3/27/2021 5:15:00 AM 7.91 46.238 0.06 6.39 5.96 11.72
3/27/2021 5:30:00 AM 7.88 46.184 0.06 6.38 3.33 11.72
3/27/2021 5:45:00 AM 7.86 46.148 0.06 6.39 3.53 11.73
3/27/2021 6:00:00 AM 7.84 46.112 0.06 6.31 3.59 11.75
3/27/2021 6:15:00 AM 7.81 46.058 0.06 6.36 3.68 11.75
3/27/2021 6:30:00 AM 7.78 46.004 0.06 6.37 6.65 11.76
3/27/2021 6:45:00 AM 7.76 45.968 0.06 6.39 2.63 11.78
3/27/2021 7:00:00 AM 7.73 45.914 0.06 6.37 2.17 11.78
3/27/2021 7:15:00 AM 7.7 45.86 0.06 6.39 4.3 11.8
3/27/2021 7:30:00 AM 7.68 45.824 0.06 6.38 4.8 11.81
3/27/2021 7:45:00 AM 7.67 45.806 0.06 6.38 4.3 11.84
3/27/2021 8:00:00 AM 7.66 45.788 0.06 6.39 2.76 11.85
3/27/2021 8:15:00 AM 7.66 45.788 0.06 6.39 4.6 11.88
3/27/2021 8:30:00 AM 7.67 45.806 0.06 6.4 4.45 11.9
3/27/2021 8:45:00 AM 7.68 45.824 0.06 6.33 2.01 11.91
3/27/2021 9:00:00 AM 7.72 45.896 0.06 6.42 1.88 11.91
3/27/2021 9:15:00 AM 7.73 45.914 0.06 6.39 1.95 11.9
3/27/2021 9:30:00 AM 7.76 45.968 0.06 6.42 5.52 11.9
3/27/2021 9:45:00 AM 7.82 46.076 0.06 6.43 1.92 11.9
3/27/2021 10:00:00 AM 7.94 46.292 0.06 6.43 2.15 11.89
3/27/2021 10:15:00 AM 7.97 46.346 0.06 6.34 2.49 11.88
3/27/2021 10:30:00 AM 8.02 46.436 0.06 6.44 1.87 11.87
3/27/2021 10:45:00 AM 8.1 46.58 0.06 6.36 1.8 11.88
3/27/2021 11:00:00 AM 8.23 46.814 0.06 6.44 1.91 11.86
3/27/2021 11:15:00 AM 8.27 46.886 0.06 6.42 1.76 11.82
3/27/2021 11:30:00 AM 8.29 46.922 0.06 6.45 1.77 11.8
3/27/2021 11:45:00 AM 8.41 47.138 0.06 6.44 1.7 11.77
3/27/2021 12:00:00 PM 8.52 47.336 0.06 6.4 2.04 11.74
3/27/2021 12:15:00 PM 8.73 47.714 0.06 6.45 1.7 11.72
3/27/2021 12:30:00 PM 8.9 48.02 0.06 6.45 1.74 11.66
3/27/2021 12:45:00 PM 9.06 48.308 0.06 6.45 3.04 11.61
3/27/2021 1:00:00 PM 9.18 48.524 0.06 6.46 1.63 11.58
3/27/2021 1:15:00 PM 9.29 48.722 0.06 6.46 1.75 11.56
3/27/2021 1:30:00 PM 9.45 49.01 0.06 6.46 1.74 11.52
3/27/2021 1:45:00 PM 9.59 49.262 0.06 6.46 2.9 11.47
3/27/2021 2:00:00 PM 9.71 49.478 0.06 6.46 1.8 11.43
3/27/2021 2:15:00 PM 9.81 49.658 0.06 6.46 1.75 11.4
3/27/2021 2:30:00 PM 9.93 49.874 0.06 6.46 1.65 11.37
3/27/2021 2:45:00 PM 10.03 50.054 0.06 6.46 1.58 11.33
3/27/2021 3:00:00 PM 10.08 50.144 0.06 6.46 1.8 11.29
3/27/2021 3:15:00 PM 10.15 50.27 0.06 6.46 1.59 11.27
3/27/2021 3:30:00 PM 10.2 50.36 0.06 6.43 2.99 11.23
3/27/2021 3:45:00 PM 10.24 50.432 0.06 6.44 1.61 11.22
3/27/2021 4:00:00 PM 10.27 50.486 0.06 6.44 3 11.19
3/27/2021 4:15:00 PM 10.29 50.522 0.06 6.39 1.69 11.19
3/27/2021 4:30:00 PM 10.3 50.54 0.06 6.47 1.58 11.18
3/27/2021 4:45:00 PM 10.28 50.504 0.06 6.48 2.9 11.17
3/27/2021 5:00:00 PM 10.26 50.468 0.06 6.47 1.57 11.17
3/27/2021 5:15:00 PM 10.21 50.378 0.06 6.47 1.53 11.17
3/27/2021 5:30:00 PM 10.18 50.324 0.06 6.47 1.66 11.17
3/27/2021 5:45:00 PM 10.14 50.252 0.06 6.47 1.59 11.16
3/27/2021 6:00:00 PM 10.1 50.18 0.06 6.43 3.05 11.16
3/27/2021 6:15:00 PM 10.04 50.072 0.06 6.47 1.63 11.17
3/27/2021 6:30:00 PM 10.01 50.018 0.06 6.46 1.62 11.16
3/27/2021 6:45:00 PM 9.96 49.928 0.06 6.44 2.84 11.16
3/27/2021 7:00:00 PM 9.91 49.838 0.06 6.46 1.61 11.18
3/27/2021 7:15:00 PM 9.84 49.712 0.06 6.37 1.68 11.17
3/27/2021 7:30:00 PM 9.77 49.586 0.06 6.42 3.28 11.17
3/27/2021 7:45:00 PM 9.69 49.442 0.06 6.38 1.66 11.17
3/27/2021 8:00:00 PM 9.61 49.298 0.06 6.43 1.68 11.19
3/27/2021 8:15:00 PM 9.53 49.154 0.06 6.42 1.78 11.2
3/27/2021 8:30:00 PM 9.45 49.01 0.06 6.43 2.07 11.24
3/27/2021 8:45:00 PM 9.38 48.884 0.06 6.43 1.81 11.25
3/27/2021 9:00:00 PM 9.31 48.758 0.06 6.42 1.8 11.27
3/27/2021 9:15:00 PM 9.24 48.632 0.06 6.41 3.05 11.28
3/27/2021 9:30:00 PM 9.17 48.506 0.06 6.41 1.91 11.29
3/27/2021 9:45:00 PM 9.1 48.38 0.06 6.42 2.01 11.31
3/27/2021 10:00:00 PM 9.04 48.272 0.06 6.4 1.94 11.32
3/27/2021 10:15:00 PM 8.97 48.146 0.06 6.42 2.23 11.35
3/27/2021 10:30:00 PM 8.91 48.038 0.06 6.38 3.26 11.37
3/27/2021 10:45:00 PM 8.84 47.912 0.06 6.41 2.05 11.39
3/27/2021 11:00:00 PM 8.78 47.804 0.06 6.41 1.86 11.4
3/27/2021 11:15:00 PM 8.71 47.678 0.06 6.41 2.37 11.42
3/27/2021 11:30:00 PM 8.65 47.57 0.06 6.41 1.78 11.44
3/27/2021 11:45:00 PM 8.6 47.48 0.06 6.4 1.91 11.44
3/28/2021 12:00:00 AM 8.54 47.372 0.06 6.41 1.89 11.45
3/28/2021 12:15:00 AM 8.48 47.264 0.06 6.37 1.73 11.46
3/28/2021 12:30:00 AM 8.42 47.156 0.06 6.41 1.78 11.46
3/28/2021 12:45:00 AM 8.36 47.048 0.06 6.4 1.97 11.47
3/28/2021 1:00:00 AM 8.3 46.94 0.06 6.39 1.75 11.5
3/28/2021 1:15:00 AM 8.24 46.832 0.06 6.4 1.88 11.53
3/28/2021 1:30:00 AM 8.18 46.724 0.06 6.4 1.78 11.52
3/28/2021 1:45:00 AM 8.13 46.634 0.06 6.32 2.47 11.55
3/28/2021 2:00:00 AM 8.08 46.544 0.06 6.4 1.79 11.56
3/28/2021 2:15:00 AM 8.03 46.454 0.06 6.39 1.77 11.58
3/28/2021 2:30:00 AM 7.97 46.346 0.06 6.36 1.7 11.59
3/28/2021 2:45:00 AM 7.92 46.256 0.06 6.4 1.77 11.59
3/28/2021 3:00:00 AM 7.87 46.166 0.06 6.4 1.88 11.6
3/28/2021 3:15:00 AM 7.82 46.076 0.06 6.34 1.7 11.61
3/28/2021 3:30:00 AM 7.77 45.986 0.06 6.4 1.63 11.62
3/28/2021 3:45:00 AM 7.73 45.914 0.06 6.39 1.68 11.63
3/28/2021 4:00:00 AM 7.68 45.824 0.06 6.39 1.66 11.65
3/28/2021 4:15:00 AM 7.65 45.77 0.06 6.39 1.74 11.67
3/28/2021 4:30:00 AM 7.61 45.698 0.06 6.4 1.69 11.67
3/28/2021 4:45:00 AM 7.58 45.644 0.06 6.39 1.72 11.68
3/28/2021 5:00:00 AM 7.56 45.608 0.06 6.39 1.65 11.69
3/28/2021 5:15:00 AM 7.53 45.554 0.06 6.38 1.72 11.69
3/28/2021 5:30:00 AM 7.51 45.518 0.06 6.39 1.77 11.71
3/28/2021 5:45:00 AM 7.49 45.482 0.06 6.32 1.64 11.7
3/28/2021 6:00:00 AM 7.49 45.482 0.06 6.35 1.68 11.71
3/28/2021 6:15:00 AM 7.48 45.464 0.06 6.38 1.68 11.72
3/28/2021 6:30:00 AM 7.5 45.5 0.06 6.34 1.83 11.71
3/28/2021 6:45:00 AM 7.52 45.536 0.06 6.37 1.66 11.7
3/28/2021 7:00:00 AM 7.55 45.59 0.06 6.39 1.73 11.7
3/28/2021 7:15:00 AM 7.57 45.626 0.06 6.39 1.68 11.69
3/28/2021 7:30:00 AM 7.61 45.698 0.06 6.39 1.57 11.68
3/28/2021 7:45:00 AM 7.63 45.734 0.06 6.34 1.83 11.68
3/28/2021 8:00:00 AM 7.63 45.734 0.06 6.4 1.73 11.67
3/28/2021 8:15:00 AM 7.65 45.77 0.06 6.38 1.66 11.68
3/28/2021 8:30:00 AM 7.67 45.806 0.06 6.4 1.67 11.67
3/28/2021 8:45:00 AM 7.7 45.86 0.06 6.42 1.68 11.67
3/28/2021 9:00:00 AM 7.75 45.95 0.06 6.35 1.67 11.65
3/28/2021 9:15:00 AM 7.79 46.022 0.06 6.43 1.64 11.65
3/28/2021 9:30:00 AM 7.82 46.076 0.06 6.43 1.63 11.63
3/28/2021 9:45:00 AM 7.84 46.112 0.06 6.43 1.68 11.61
3/28/2021 10:00:00 AM 7.88 46.184 0.06 6.43 1.81 11.61
3/28/2021 10:15:00 AM 7.92 46.256 0.06 6.39 1.76 11.6
3/28/2021 10:30:00 AM 7.94 46.292 0.06 6.44 1.8 11.58
3/28/2021 10:45:00 AM 7.96 46.328 0.06 6.37 1.86 11.59
3/28/2021 11:00:00 AM 8 46.4 0.06 6.44 2.28 11.59
3/28/2021 11:15:00 AM 8.03 46.454 0.06 6.44 2.04 11.58
3/28/2021 11:30:00 AM 8.07 46.526 0.06 6.45 2.21 11.58
3/28/2021 11:45:00 AM 8.13 46.634 0.06 6.46 2.22 11.59
3/28/2021 12:00:00 PM 8.21 46.778 0.06 6.38 2.18 11.57
3/28/2021 12:15:00 PM 8.27 46.886 0.06 6.47 2.34 11.56
3/28/2021 12:30:00 PM 8.37 47.066 0.06 6.47 2.27 11.53
3/28/2021 12:45:00 PM 8.46 47.228 0.06 6.48 2.77 11.5
3/28/2021 1:00:00 PM 8.54 47.372 0.06 6.47 2.5 11.48
3/28/2021 1:15:00 PM 8.6 47.48 0.06 6.48 2.6 11.46
3/28/2021 1:30:00 PM 8.66 47.588 0.06 6.48 2.64 11.44
3/28/2021 1:45:00 PM 8.68 47.624 0.06 6.47 2.82 11.4
3/28/2021 2:00:00 PM 8.77 47.786 0.06 6.5 3.95 11.39
3/28/2021 2:15:00 PM 8.79 47.822 0.06 6.48 3.39 11.38
3/28/2021 2:30:00 PM 8.81 47.858 0.06 6.47 6.17 11.39
3/28/2021 2:45:00 PM 8.84 47.912 0.061 6.48 3.99 11.38
3/28/2021 3:00:00 PM 8.85 47.93 0.061 6.47 4.68 11.37
3/28/2021 3:15:00 PM 8.88 47.984 0.061 6.47 4.45 11.37
3/28/2021 3:30:00 PM 8.91 48.038 0.061 6.47 4.63 11.36
3/28/2021 3:45:00 PM 8.91 48.038 0.061 6.48 8.36 11.35
3/28/2021 4:00:00 PM 8.91 48.038 0.061 6.45 7.23 11.36
3/28/2021 4:15:00 PM 8.89 48.002 0.061 6.45 7.72 11.37
3/28/2021 4:30:00 PM 8.88 47.984 0.061 6.45 9.18 11.38
3/28/2021 4:45:00 PM 8.87 47.966 0.061 6.43 11.47 11.39
3/28/2021 5:00:00 PM 8.87 47.966 0.062 6.44 9.46 11.4
3/28/2021 5:15:00 PM 8.88 47.984 0.062 6.41 12.23 11.4
3/28/2021 5:30:00 PM 8.86 47.948 0.062 6.4 13.79 11.4
3/28/2021 5:45:00 PM 8.86 47.948 0.062 6.39 13.68 11.4
3/28/2021 6:00:00 PM 8.83 47.894 0.063 6.37 14.93 11.4
3/28/2021 6:15:00 PM 8.78 47.804 0.063 6.36 15.63 11.41
3/28/2021 6:30:00 PM 8.74 47.732 0.064 6.35 15.01 11.42
3/28/2021 6:45:00 PM 8.69 47.642 0.064 6.34 14.05 11.42
3/28/2021 7:00:00 PM 8.64 47.552 0.064 6.33 13.42 11.43
3/28/2021 7:15:00 PM 8.58 47.444 0.064 6.33 12.63 11.43
3/28/2021 7:30:00 PM 8.52 47.336 0.064 6.33 12.31 11.44
3/28/2021 7:45:00 PM 8.46 47.228 0.064 6.32 11.24 11.46
3/28/2021 8:00:00 PM 8.37 47.066 0.064 6.32 11.14 11.48
3/28/2021 8:15:00 PM 8.29 46.922 0.064 6.29 10.57 11.51
3/28/2021 8:30:00 PM 8.23 46.814 0.064 6.31 10.07 11.54
3/28/2021 8:45:00 PM 8.17 46.706 0.064 6.31 9.3 11.56
3/28/2021 9:00:00 PM 8.11 46.598 0.063 6.31 8.9 11.58
3/28/2021 9:15:00 PM 8.06 46.508 0.063 6.32 8.62 11.6
3/28/2021 9:30:00 PM 8 46.4 0.063 6.32 7.82 11.62
3/28/2021 9:45:00 PM 7.94 46.292 0.063 6.31 7.33 11.62
3/28/2021 10:00:00 PM 7.88 46.184 0.062 6.28 6.85 11.64
3/28/2021 10:15:00 PM 7.83 46.094 0.062 6.31 6.68 11.65
3/28/2021 10:30:00 PM 7.76 45.968 0.062 6.29 6.45 11.69
3/28/2021 10:45:00 PM 7.69 45.842 0.062 6.32 6.23 11.71
3/28/2021 11:00:00 PM 7.62 45.716 0.062 6.32 5.85 11.74
3/28/2021 11:15:00 PM 7.57 45.626 0.062 6.31 6.48 11.76
3/28/2021 11:30:00 PM 7.51 45.518 0.062 6.31 5.56 11.78
3/28/2021 11:45:00 PM 7.43 45.374 0.062 6.26 5.46 11.8
3/29/2021 12:00:00 AM 7.37 45.266 0.062 6.32 5.35 11.81
3/29/2021 12:15:00 AM 7.3 45.14 0.062 6.31 5.15 11.83
3/29/2021 12:30:00 AM 7.24 45.032 0.062 6.31 5.19 11.85
3/29/2021 12:45:00 AM 7.18 44.924 0.063 6.3 5 11.86
3/29/2021 1:00:00 AM 7.12 44.816 0.063 6.3 4.89 11.89
3/29/2021 1:15:00 AM 7.06 44.708 0.063 6.3 4.92 11.92
3/29/2021 1:30:00 AM 7 44.6 0.063 6.3 5.3 11.95
3/29/2021 1:45:00 AM 6.94 44.492 0.063 6.3 4.67 11.97
3/29/2021 2:00:00 AM 6.88 44.384 0.063 6.29 4.8 11.98
3/29/2021 2:15:00 AM 6.83 44.294 0.063 6.29 4.62 12.01
3/29/2021 2:30:00 AM 6.78 44.204 0.063 6.29 4.58 12.02
3/29/2021 2:45:00 AM 6.73 44.114 0.063 6.27 4.36 12.03
3/29/2021 3:00:00 AM 6.68 44.024 0.063 6.28 4.25 12.04
3/29/2021 3:15:00 AM 6.62 43.916 0.063 6.29 4.48 12.06
3/29/2021 3:30:00 AM 6.57 43.826 0.063 6.29 4.19 12.07
3/29/2021 3:45:00 AM 6.51 43.718 0.063 6.28 4.45 12.1
3/29/2021 4:00:00 AM 6.47 43.646 0.063 6.28 4.21 12.13
3/29/2021 4:15:00 AM 6.43 43.574 0.063 6.24 4.07 12.15
3/29/2021 4:30:00 AM 6.38 43.484 0.063 6.28 4.05 12.17
3/29/2021 4:45:00 AM 6.34 43.412 0.063 6.27 3.79 12.18
3/29/2021 5:00:00 AM 6.3 43.34 0.063 6.26 3.71 12.2
3/29/2021 5:15:00 AM 6.26 43.268 0.063 6.27 3.82 12.22
3/29/2021 5:30:00 AM 6.23 43.214 0.063 6.27 3.86 12.23
3/29/2021 5:45:00 AM 6.19 43.142 0.062 6.28 3.75 12.24
3/29/2021 6:00:00 AM 6.15 43.07 0.062 6.28 3.75 12.24
3/29/2021 6:15:00 AM 6.12 43.016 0.062 6.27 3.7 12.26
3/29/2021 6:30:00 AM 6.07 42.926 0.062 6.23 3.77 12.28
3/29/2021 6:45:00 AM 6.02 42.836 0.062 6.27 3.39 12.29
3/29/2021 7:00:00 AM 5.99 42.782 0.062 6.28 3.39 12.31
3/29/2021 7:15:00 AM 5.96 42.728 0.062 6.28 3.3 12.32
3/29/2021 7:30:00 AM 5.93 42.674 0.062 6.29 3.4 12.35
3/29/2021 7:45:00 AM 5.9 42.62 0.062 6.26 3.44 12.36
3/29/2021 8:00:00 AM 5.88 42.584 0.061 6.31 3.29 12.4
3/29/2021 8:15:00 AM 5.84 42.512 0.061 6.31 3.23 12.41
3/29/2021 8:30:00 AM 5.8 42.44 0.061 6.31 3.13 12.43
3/29/2021 8:45:00 AM 5.75 42.35 0.061 6.31 3.17 12.45
3/29/2021 9:00:00 AM 5.73 42.314 0.061 6.31 3.13 12.48
3/29/2021 9:15:00 AM 5.73 42.314 0.061 6.26 3.15 12.48
3/29/2021 9:30:00 AM 5.72 42.296 0.061 6.33 3.07 12.51
3/29/2021 9:45:00 AM 5.73 42.314 0.061 6.33 3 12.51
3/29/2021 10:00:00 AM 5.74 42.332 0.061 6.34 3.08 12.53
3/29/2021 10:15:00 AM 5.74 42.332 0.061 6.34 3.07 12.53
3/29/2021 10:30:00 AM 5.73 42.314 0.061 6.35 3.03 12.55
3/29/2021 10:45:00 AM 5.74 42.332 0.061 6.36 2.91 12.53
3/29/2021 11:00:00 AM 5.74 42.332 0.06 6.35 2.92 12.56
3/29/2021 11:15:00 AM 5.75 42.35 0.06 6.35 2.89 12.56
3/29/2021 11:30:00 AM 5.81 42.458 0.06 6.36 2.91 12.57
3/29/2021 11:45:00 AM 5.86 42.548 0.06 6.36 2.91 12.55
3/29/2021 12:00:00 PM 5.93 42.674 0.06 6.36 2.84 12.53
3/29/2021 12:15:00 PM 5.98 42.764 0.06 6.36 2.88 12.51
3/29/2021 12:30:00 PM 6.07 42.926 0.06 6.37 2.8 12.48
3/29/2021 12:45:00 PM 6.13 43.034 0.06 6.36 2.78 12.47
3/29/2021 1:00:00 PM 6.2 43.16 0.06 6.37 2.72 12.45
3/29/2021 1:15:00 PM 6.28 43.304 0.06 6.37 2.71 12.45
3/29/2021 1:30:00 PM 6.41 43.538 0.06 6.38 2.64 12.41
3/29/2021 1:45:00 PM 6.54 43.772 0.06 6.38 2.67 12.38
3/29/2021 2:00:00 PM 6.63 43.934 0.06 6.3 2.67 12.33
3/29/2021 2:15:00 PM 6.72 44.096 0.06 6.38 2.67 12.3
3/29/2021 2:30:00 PM 6.85 44.33 0.06 6.31 2.72 12.27
3/29/2021 2:45:00 PM 6.98 44.564 0.06 6.38 2.65 12.24
3/29/2021 3:00:00 PM 7.09 44.762 0.06 6.32 2.63 12.18
3/29/2021 3:15:00 PM 7.2 44.96 0.059 6.39 2.61 12.12
3/29/2021 3:30:00 PM 7.28 45.104 0.059 6.39 2.59 12.09
3/29/2021 3:45:00 PM 7.33 45.194 0.059 6.39 2.57 12.06
3/29/2021 4:00:00 PM 7.39 45.302 0.059 6.39 2.59 12.05
3/29/2021 4:15:00 PM 7.43 45.374 0.059 6.39 2.61 12.03
3/29/2021 4:30:00 PM 7.46 45.428 0.059 6.39 2.57 12.03
3/29/2021 4:45:00 PM 7.46 45.428 0.059 6.39 2.5 12.01
3/29/2021 5:00:00 PM 7.45 45.41 0.059 6.39 2.51 12
3/29/2021 5:15:00 PM 7.44 45.392 0.059 6.4 2.63 12
3/29/2021 5:30:00 PM 7.41 45.338 0.059 6.41 2.59 12
3/29/2021 5:45:00 PM 7.38 45.284 0.059 6.38 2.64 12
3/29/2021 6:00:00 PM 7.32 45.176 0.059 6.4 2.61 12
3/29/2021 6:15:00 PM 7.27 45.086 0.059 6.39 2.67 12.01
3/29/2021 6:30:00 PM 7.23 45.014 0.059 6.37 2.66 12.02
3/29/2021 6:45:00 PM 7.17 44.906 0.059 6.38 2.66 12.04
3/29/2021 7:00:00 PM 7.11 44.798 0.059 6.32 2.7 12.07
3/29/2021 7:15:00 PM 7.04 44.672 0.059 6.35 2.67 12.08
3/29/2021 7:30:00 PM 6.97 44.546 0.059 6.35 2.65 12.11
3/29/2021 7:45:00 PM 6.9 44.42 0.059 6.36 2.67 12.11
3/29/2021 8:00:00 PM 6.84 44.312 0.058 6.35 2.69 12.12
3/29/2021 8:15:00 PM 6.78 44.204 0.058 6.36 2.72 12.12
3/29/2021 8:30:00 PM 6.72 44.096 0.058 6.29 2.66 12.14
3/29/2021 8:45:00 PM 6.67 44.006 0.058 6.36 2.72 12.15
3/29/2021 9:00:00 PM 6.62 43.916 0.058 6.36 2.66 12.16
3/29/2021 9:15:00 PM 6.56 43.808 0.058 6.35 2.63 12.19
3/29/2021 9:30:00 PM 6.51 43.718 0.058 6.35 2.74 12.21
3/29/2021 9:45:00 PM 6.46 43.628 0.058 6.31 2.69 12.23
3/29/2021 10:00:00 PM 6.41 43.538 0.058 6.33 2.67 12.25
3/29/2021 10:15:00 PM 6.36 43.448 0.058 6.36 2.64 12.27
3/29/2021 10:30:00 PM 6.3 43.34 0.058 6.36 2.81 12.28
3/29/2021 10:45:00 PM 6.25 43.25 0.058 6.35 2.61 12.3
3/29/2021 11:00:00 PM 6.19 43.142 0.058 6.36 2.62 12.31
3/29/2021 11:15:00 PM 6.13 43.034 0.058 6.36 2.56 12.33
3/29/2021 11:30:00 PM 6.08 42.944 0.058 6.34 3.96 12.34
3/29/2021 11:45:00 PM 6.02 42.836 0.058 6.34 2.6 12.34
3/30/2021 12:00:00 AM 5.96 42.728 0.058 6.35 2.56 12.39
3/30/2021 12:15:00 AM 5.91 42.638 0.058 6.36 2.55 12.4
3/30/2021 12:30:00 AM 5.85 42.53 0.058 6.35 2.53 12.41
3/30/2021 12:45:00 AM 5.8 42.44 0.058 6.35 2.58 12.45
3/30/2021 1:00:00 AM 5.74 42.332 0.058 6.32 2.5 12.46
3/30/2021 1:15:00 AM 5.68 42.224 0.058 6.35 2.3 12.48
3/30/2021 1:30:00 AM 5.63 42.134 0.058 6.35 2.38 12.51
3/30/2021 1:45:00 AM 5.59 42.062 0.058 6.36 2.34 12.52
3/30/2021 2:00:00 AM 5.54 41.972 0.058 6.36 2.77 12.53
3/30/2021 2:15:00 AM 5.48 41.864 0.057 6.29 2.35 12.53
3/30/2021 2:30:00 AM 5.44 41.792 0.057 6.34 2.25 12.54
3/30/2021 2:45:00 AM 5.39 41.702 0.057 6.31 2.32 12.56
3/30/2021 3:00:00 AM 5.35 41.63 0.057 6.32 2.26 12.58
3/30/2021 3:15:00 AM 5.3 41.54 0.057 6.33 2.33 12.61
3/30/2021 3:30:00 AM 5.26 41.468 0.057 6.32 2.28 12.62
3/30/2021 3:45:00 AM 5.21 41.378 0.057 6.31 2.31 12.64
3/30/2021 4:00:00 AM 5.17 41.306 0.057 6.32 2.3 12.66
3/30/2021 4:15:00 AM 5.13 41.234 0.057 6.32 2.27 12.68
3/30/2021 4:30:00 AM 5.08 41.144 0.057 6.32 2.42 12.68
3/30/2021 4:45:00 AM 5.04 41.072 0.057 6.33 2.38 12.7
3/30/2021 5:00:00 AM 5 41 0.057 6.33 2.29 12.7
3/30/2021 5:15:00 AM 4.96 40.928 0.057 6.32 2.28 12.71
3/30/2021 5:30:00 AM 4.92 40.856 0.057 6.32 2.25 12.72
3/30/2021 5:45:00 AM 4.88 40.784 0.057 6.33 2.24 12.73
3/30/2021 6:00:00 AM 4.83 40.694 0.057 6.23 2.22 12.75
3/30/2021 6:15:00 AM 4.8 40.64 0.057 6.31 2.24 12.76
3/30/2021 6:30:00 AM 4.76 40.568 0.057 6.33 2.15 12.77
3/30/2021 6:45:00 AM 4.71 40.478 0.057 6.28 2.23 12.79
3/30/2021 7:00:00 AM 4.68 40.424 0.057 6.33 2.24 12.82
3/30/2021 7:15:00 AM 4.63 40.334 0.057 6.25 2.28 12.84
3/30/2021 7:30:00 AM 4.61 40.298 0.057 6.33 2.31 12.86
3/30/2021 7:45:00 AM 4.58 40.244 0.057 6.34 2.22 12.87
3/30/2021 8:00:00 AM 4.55 40.19 0.057 6.34 2.2 12.89
3/30/2021 8:15:00 AM 4.53 40.154 0.057 6.26 2.15 12.92
3/30/2021 8:30:00 AM 4.57 40.226 0.057 6.35 2.13 12.94
3/30/2021 8:45:00 AM 4.58 40.244 0.057 6.36 2.13 12.93
3/30/2021 9:00:00 AM 4.61 40.298 0.057 6.36 2.14 12.93
3/30/2021 9:15:00 AM 4.66 40.388 0.057 6.36 2.14 12.94
3/30/2021 9:30:00 AM 4.73 40.514 0.057 6.37 2.09 12.93
3/30/2021 9:45:00 AM 4.82 40.676 0.057 6.37 2 12.9
3/30/2021 10:00:00 AM 4.93 40.874 0.057 6.37 1.97 12.86
3/30/2021 10:15:00 AM 5.06 41.108 0.057 6.38 1.98 12.86
3/30/2021 10:30:00 AM 5.2 41.36 0.057 6.38 2.05 12.83
3/30/2021 10:45:00 AM 5.36 41.648 0.057 6.39 1.91 12.77
3/30/2021 11:00:00 AM 5.55 41.99 0.057 6.39 1.88 12.72
3/30/2021 11:15:00 AM 5.74 42.332 0.057 6.32 1.9 12.68
3/30/2021 11:30:00 AM 5.95 42.71 0.057 6.41 1.87 12.6
3/30/2021 11:45:00 AM 6.15 43.07 0.057 6.36 1.93 12.54
3/30/2021 12:00:00 PM 6.37 43.466 0.057 6.41 1.91 12.49
3/30/2021 12:15:00 PM 6.59 43.862 0.057 6.41 1.9 12.4
3/30/2021 12:30:00 PM 6.82 44.276 0.057 6.39 2.14 12.33
3/30/2021 12:45:00 PM 7.04 44.672 0.057 6.39 2.01 12.27
3/30/2021 1:00:00 PM 7.28 45.104 0.057 6.41 2.08 12.17
3/30/2021 1:15:00 PM 7.5 45.5 0.057 6.4 1.96 12.12
3/30/2021 1:30:00 PM 7.72 45.896 0.057 6.41 1.88 12.04
3/30/2021 1:45:00 PM 7.92 46.256 0.057 6.41 1.93 11.96
3/30/2021 2:00:00 PM 8.12 46.616 0.057 6.43 1.93 11.91
3/30/2021 2:15:00 PM 8.3 46.94 0.057 6.43 1.87 11.84
3/30/2021 2:30:00 PM 8.48 47.264 0.057 6.38 1.95 11.76
3/30/2021 2:45:00 PM 8.63 47.534 0.057 6.42 2.03 11.72
3/30/2021 3:00:00 PM 8.76 47.768 0.057 6.43 1.91 11.68
3/30/2021 3:15:00 PM 8.88 47.984 0.057 6.44 1.89 11.63
3/30/2021 3:30:00 PM 8.98 48.164 0.057 6.42 1.95 11.59
3/30/2021 3:45:00 PM 9.08 48.344 0.057 6.44 1.92 11.54
3/30/2021 4:00:00 PM 9.14 48.452 0.057 6.44 1.94 11.51
3/30/2021 4:15:00 PM 9.24 48.632 0.057 6.44 2.01 11.5
3/30/2021 4:30:00 PM 9.28 48.704 0.057 6.45 2.01 11.49
3/30/2021 4:45:00 PM 9.3 48.74 0.057 6.41 3.39 11.46
3/30/2021 5:00:00 PM 9.32 48.776 0.057 6.42 1.92 11.44
3/30/2021 5:15:00 PM 9.32 48.776 0.057 6.44 1.97 11.44
3/30/2021 5:30:00 PM 9.3 48.74 0.057 6.44 1.99 11.42
3/30/2021 5:45:00 PM 9.29 48.722 0.057 6.44 1.99 11.42
3/30/2021 6:00:00 PM 9.27 48.686 0.057 6.42 2.09 11.42
3/30/2021 6:15:00 PM 9.24 48.632 0.057 6.44 2.11 11.43
3/30/2021 6:30:00 PM 9.2 48.56 0.057 6.44 2.08 11.42
3/30/2021 6:45:00 PM 9.16 48.488 0.057 6.44 1.97 11.42
3/30/2021 7:00:00 PM 9.1 48.38 0.057 6.36 2.08 11.43
3/30/2021 7:15:00 PM 9.04 48.272 0.057 6.44 2.08 11.44
3/30/2021 7:30:00 PM 8.98 48.164 0.057 6.43 2.13 11.45
3/30/2021 7:45:00 PM 8.92 48.056 0.057 6.43 2.38 11.47
3/30/2021 8:00:00 PM 8.86 47.948 0.057 6.42 2.15 11.47
3/30/2021 8:15:00 PM 8.8 47.84 0.057 6.42 2.1 11.48
3/30/2021 8:30:00 PM 8.75 47.75 0.057 6.42 2.06 11.49
3/30/2021 8:45:00 PM 8.7 47.66 0.057 6.32 2.21 11.51
3/30/2021 9:00:00 PM 8.65 47.57 0.057 6.41 2.19 11.52
3/30/2021 9:15:00 PM 8.6 47.48 0.057 6.41 2.17 11.53
3/30/2021 9:30:00 PM 8.55 47.39 0.057 6.4 1.98 11.54
3/30/2021 9:45:00 PM 8.51 47.318 0.057 6.4 2.19 11.55
3/30/2021 10:00:00 PM 8.46 47.228 0.057 6.4 2.2 11.57
3/30/2021 10:15:00 PM 8.42 47.156 0.057 6.33 2.29 11.58
3/30/2021 10:30:00 PM 8.38 47.084 0.056 6.4 2.38 11.6
3/30/2021 10:45:00 PM 8.34 47.012 0.056 6.39 2.21 11.61
3/30/2021 11:00:00 PM 8.3 46.94 0.056 6.31 2.22 11.63
3/30/2021 11:15:00 PM 8.26 46.868 0.056 6.39 2.13 11.64
3/30/2021 11:30:00 PM 8.22 46.796 0.056 6.39 2.2 11.64
3/30/2021 11:45:00 PM 8.18 46.724 0.056 6.38 2.24 11.67
3/31/2021 12:00:00 AM 8.15 46.67 0.056 6.39 2.2 11.67
3/31/2021 12:15:00 AM 8.11 46.598 0.056 6.39 2.19 11.7
3/31/2021 12:30:00 AM 8.08 46.544 0.056 6.38 2.19 11.68
3/31/2021 12:45:00 AM 8.05 46.49 0.056 6.39 2.21 11.7
3/31/2021 1:00:00 AM 8.02 46.436 0.056 6.38 2.25 11.7
3/31/2021 1:15:00 AM 7.99 46.382 0.056 6.38 2.2 11.7
3/31/2021 1:30:00 AM 7.96 46.328 0.056 6.39 2.2 11.71
3/31/2021 1:45:00 AM 7.94 46.292 0.056 6.38 2.24 11.71
3/31/2021 2:00:00 AM 7.9 46.22 0.056 6.38 2.17 11.73
3/31/2021 2:15:00 AM 7.88 46.184 0.056 6.38 2.34 11.73
3/31/2021 2:30:00 AM 7.85 46.13 0.056 6.38 2.15 11.73
3/31/2021 2:45:00 AM 7.83 46.094 0.056 6.38 2.19 11.73
3/31/2021 3:00:00 AM 7.8 46.04 0.056 6.39 2.12 11.75
3/31/2021 3:15:00 AM 7.77 45.986 0.056 6.32 2.25 11.75
3/31/2021 3:30:00 AM 7.75 45.95 0.056 6.39 2.43 11.76
3/31/2021 3:45:00 AM 7.72 45.896 0.056 6.38 2.16 11.78
3/31/2021 4:00:00 AM 7.69 45.842 0.056 6.39 2.21 11.78
3/31/2021 4:15:00 AM 7.67 45.806 0.056 6.31 2.23 11.8
3/31/2021 4:30:00 AM 7.64 45.752 0.056 6.39 2.14 11.8
3/31/2021 4:45:00 AM 7.62 45.716 0.056 6.39 2.13 11.81
3/31/2021 5:00:00 AM 7.61 45.698 0.056 6.39 2.19 11.82
3/31/2021 5:15:00 AM 7.59 45.662 0.056 6.39 2.09 11.82
3/31/2021 5:30:00 AM 7.57 45.626 0.056 6.39 2.15 11.82
3/31/2021 5:45:00 AM 7.56 45.608 0.057 6.38 2.32 11.83
3/31/2021 6:00:00 AM 7.54 45.572 0.057 6.39 2.19 11.83
3/31/2021 6:15:00 AM 7.52 45.536 0.057 6.33 2.11 11.83
3/31/2021 6:30:00 AM 7.51 45.518 0.057 6.39 2.1 11.83
3/31/2021 6:45:00 AM 7.5 45.5 0.057 6.39 2.18 11.84
3/31/2021 7:00:00 AM 7.49 45.482 0.057 6.29 2.14 11.85
3/31/2021 7:15:00 AM 7.49 45.482 0.057 6.36 2.03 11.85
3/31/2021 7:30:00 AM 7.48 45.464 0.057 6.36 2.18 11.85
3/31/2021 7:45:00 AM 7.48 45.464 0.057 6.37 2.12 11.86
3/31/2021 8:00:00 AM 7.48 45.464 0.057 6.39 2.1 11.87
3/31/2021 8:15:00 AM 7.48 45.464 0.057 6.33 2.03 11.87
3/31/2021 8:30:00 AM 7.48 45.464 0.057 6.4 2.16 11.87
3/31/2021 8:45:00 AM 7.48 45.464 0.057 6.39 2.12 11.88
3/31/2021 9:00:00 AM 7.49 45.482 0.057 6.4 2.16 11.89
3/31/2021 9:15:00 AM 7.49 45.482 0.056 6.4 2.21 11.89
3/31/2021 9:30:00 AM 7.5 45.5 0.056 6.4 2.25 11.89
3/31/2021 9:45:00 AM 7.51 45.518 0.056 6.4 2.29 11.89
3/31/2021 10:00:00 AM 7.53 45.554 0.056 6.4 2.3 11.89
3/31/2021 10:15:00 AM 7.55 45.59 0.056 6.4 2.42 11.89
3/31/2021 10:30:00 AM 7.57 45.626 0.056 6.41 2.53 11.89
3/31/2021 10:45:00 AM 7.59 45.662 0.056 6.41 2.76 11.87
3/31/2021 11:00:00 AM 7.61 45.698 0.056 6.41 3.38 11.86
3/31/2021 11:15:00 AM 7.62 45.716 0.056 6.42 3.83 11.86
3/31/2021 11:30:00 AM 7.64 45.752 0.056 6.43 3.96 11.87
3/31/2021 11:45:00 AM 7.66 45.788 0.056 6.44 3.84 11.86
3/31/2021 12:00:00 PM 7.68 45.824 0.056 6.43 4.19 11.85
3/31/2021 12:15:00 PM 7.7 45.86 0.056 6.35 4.27 11.86
3/31/2021 12:30:00 PM 7.74 45.932 0.056 6.44 4.46 11.85
3/31/2021 12:45:00 PM 7.79 46.022 0.056 6.42 4.31 11.84
3/31/2021 1:00:00 PM 7.83 46.094 0.056 6.38 4.26 11.82
3/31/2021 1:15:00 PM 7.87 46.166 0.056 6.43 4.12 11.81
3/31/2021 1:30:00 PM 7.9 46.22 0.056 6.42 4.2 11.8
3/31/2021 1:45:00 PM 7.94 46.292 0.057 6.43 4.12 11.79
3/31/2021 2:00:00 PM 7.96 46.328 0.057 6.43 4.26 11.78
3/31/2021 2:15:00 PM 7.99 46.382 0.057 6.41 4.16 11.77
3/31/2021 2:30:00 PM 8.01 46.418 0.057 6.34 4 11.77
3/31/2021 2:45:00 PM 8.03 46.454 0.057 6.43 4.12 11.75
3/31/2021 3:00:00 PM 8.03 46.454 0.057 6.39 3.8 11.74
3/31/2021 3:15:00 PM 8.03 46.454 0.058 6.41 3.62 11.74
3/31/2021 3:30:00 PM 8.03 46.454 0.058 6.39 3.66 11.74
3/31/2021 3:45:00 PM 8.04 46.472 0.058 6.31 3.53 11.74
3/31/2021 4:00:00 PM 8.05 46.49 0.058 6.36 3.47 11.73
3/31/2021 4:15:00 PM 8.07 46.526 0.058 6.38 3.28 11.74
3/31/2021 4:30:00 PM 8.07 46.526 0.058 6.38 3.26 11.73
3/31/2021 4:45:00 PM 8.07 46.526 0.058 6.38 3.18 11.72
3/31/2021 5:00:00 PM 8.08 46.544 0.058 6.39 3.13 11.73
3/31/2021 5:15:00 PM 8.09 46.562 0.058 6.38 3.07 11.73
3/31/2021 5:30:00 PM 8.11 46.598 0.058 6.38 2.98 11.73
3/31/2021 5:45:00 PM 8.13 46.634 0.058 6.35 3.04 11.74
3/31/2021 6:00:00 PM 8.12 46.616 0.058 6.35 2.93 11.72
3/31/2021 6:15:00 PM 8.11 46.598 0.058 6.38 2.94 11.72
3/31/2021 6:30:00 PM 8.09 46.562 0.058 6.38 2.86 11.73
3/31/2021 6:45:00 PM 8.09 46.562 0.058 6.38 2.93 11.73
3/31/2021 7:00:00 PM 8.06 46.508 0.058 6.38 2.81 11.71
3/31/2021 7:15:00 PM 8.04 46.472 0.058 6.38 2.82 11.72
3/31/2021 7:30:00 PM 7.99 46.382 0.058 6.29 2.8 11.72
3/31/2021 7:45:00 PM 7.96 46.328 0.058 6.37 2.87 11.72
3/31/2021 8:00:00 PM 7.92 46.256 0.058 6.36 2.86 11.71
3/31/2021 8:15:00 PM 7.86 46.148 0.058 6.36 2.82 11.73
3/31/2021 8:30:00 PM 7.8 46.04 0.058 6.36 2.81 11.75
3/31/2021 8:45:00 PM 7.74 45.932 0.058 6.36 2.72 11.76
3/31/2021 9:00:00 PM 7.68 45.824 0.058 6.36 2.72 11.79
3/31/2021 9:15:00 PM 7.61 45.698 0.058 6.36 2.77 11.81
3/31/2021 9:30:00 PM 7.55 45.59 0.058 6.28 2.76 11.83
3/31/2021 9:45:00 PM 7.5 45.5 0.058 6.35 2.65 11.85
3/31/2021 10:00:00 PM 7.45 45.41 0.058 6.35 2.68 11.86
3/31/2021 10:15:00 PM 7.4 45.32 0.058 6.35 2.64 11.87
3/31/2021 10:30:00 PM 7.36 45.248 0.058 6.35 2.63 11.88
3/31/2021 10:45:00 PM 7.32 45.176 0.058 6.36 2.53 11.89
3/31/2021 11:00:00 PM 7.29 45.122 0.058 6.35 2.5 11.91
3/31/2021 11:15:00 PM 7.26 45.068 0.058 6.34 2.55 11.91
3/31/2021 11:30:00 PM 7.22 44.996 0.058 6.35 2.63 11.92
3/31/2021 11:45:00 PM 7.19 44.942 0.058 6.35 2.52 11.93
4/1/2021 12:00:00 AM 7.16 44.888 0.058 6.35 2.65 11.94
4/1/2021 12:15:00 AM 7.13 44.834 0.058 6.35 2.68 11.96
4/1/2021 12:30:00 AM 7.09 44.762 0.058 6.26 2.45 11.97
4/1/2021 12:45:00 AM 7.06 44.708 0.058 6.32 2.51 11.99
4/1/2021 1:00:00 AM 7.02 44.636 0.058 6.35 2.59 12.01
4/1/2021 1:15:00 AM 6.98 44.564 0.058 6.35 2.49 12.02
4/1/2021 1:30:00 AM 6.94 44.492 0.058 6.35 2.52 12.03
4/1/2021 1:45:00 AM 6.89 44.402 0.058 6.26 2.47 12.04
4/1/2021 2:00:00 AM 6.86 44.348 0.058 6.35 2.45 12.05
4/1/2021 2:15:00 AM 6.84 44.312 0.058 6.35 2.48 12.05
4/1/2021 2:30:00 AM 6.8 44.24 0.058 6.35 2.42 12.06
4/1/2021 2:45:00 AM 6.76 44.168 0.058 6.35 2.42 12.05
4/1/2021 3:00:00 AM 6.72 44.096 0.058 6.35 2.41 12.06
4/1/2021 3:15:00 AM 6.69 44.042 0.058 6.31 2.4 12.07
4/1/2021 3:30:00 AM 6.66 43.988 0.058 6.35 2.37 12.07
4/1/2021 3:45:00 AM 6.63 43.934 0.058 6.34 2.46 12.08
4/1/2021 4:00:00 AM 6.6 43.88 0.058 6.35 2.5 12.09
4/1/2021 4:15:00 AM 6.57 43.826 0.058 6.29 2.44 12.1
4/1/2021 4:30:00 AM 6.55 43.79 0.058 6.32 2.42 12.12
4/1/2021 4:45:00 AM 6.52 43.736 0.058 6.33 2.37 12.13
4/1/2021 5:00:00 AM 6.49 43.682 0.058 6.34 2.39 12.13
4/1/2021 5:15:00 AM 6.47 43.646 0.058 6.35 2.33 12.15
4/1/2021 5:30:00 AM 6.44 43.592 0.058 6.33 2.35 12.16
4/1/2021 5:45:00 AM 6.41 43.538 0.058 6.34 2.35 12.17
4/1/2021 6:00:00 AM 6.38 43.484 0.058 6.34 2.37 12.18
4/1/2021 6:15:00 AM 6.34 43.412 0.058 6.35 2.37 12.2
4/1/2021 6:30:00 AM 6.31 43.358 0.058 6.34 2.36 12.2
4/1/2021 6:45:00 AM 6.26 43.268 0.058 6.34 2.41 12.21
4/1/2021 7:00:00 AM 6.23 43.214 0.058 6.34 2.49 12.21
4/1/2021 7:15:00 AM 6.19 43.142 0.058 6.35 2.35 12.23
4/1/2021 7:30:00 AM 6.15 43.07 0.058 6.36 2.36 12.25
4/1/2021 7:45:00 AM 6.12 43.016 0.058 6.28 2.36 12.28
4/1/2021 8:00:00 AM 6.09 42.962 0.058 6.35 2.22 12.29
4/1/2021 8:15:00 AM 6.07 42.926 0.058 6.37 2.34 12.32
4/1/2021 8:30:00 AM 6.06 42.908 0.058 6.37 2.26 12.32
4/1/2021 8:45:00 AM 6.03 42.854 0.058 6.36 2.22 12.35
4/1/2021 9:00:00 AM 6.01 42.818 0.058 6.37 2.27 12.36
4/1/2021 9:15:00 AM 6 42.8 0.058 6.36 2.19 12.35
4/1/2021 9:30:00 AM 5.98 42.764 0.058 6.37 2.23 12.36
4/1/2021 9:45:00 AM 5.94 42.692 0.058 6.37 2.18 12.39
4/1/2021 10:00:00 AM 5.91 42.638 0.058 6.29 2.19 12.39
4/1/2021 10:15:00 AM 5.9 42.62 0.058 6.37 2.12 12.44
4/1/2021 10:30:00 AM 5.9 42.62 0.058 6.37 2.1 12.42
4/1/2021 10:45:00 AM 5.88 42.584 0.058 6.36 2.12 12.44
4/1/2021 11:00:00 AM 5.89 42.602 0.058 6.37 2.14 12.44
4/1/2021 11:15:00 AM 5.94 42.692 0.058 6.37 2.14 12.44
4/1/2021 11:30:00 AM 5.97 42.746 0.057 6.29 2.05 12.44
4/1/2021 11:45:00 AM 6.03 42.854 0.057 6.37 2.12 12.44
4/1/2021 12:00:00 PM 6.12 43.016 0.057 6.37 2.04 12.42
4/1/2021 12:15:00 PM 6.17 43.106 0.057 6.31 2.14 12.4
4/1/2021 12:30:00 PM 6.23 43.214 0.057 6.37 2.01 12.39
4/1/2021 12:45:00 PM 6.24 43.232 0.057 6.38 2.05 12.38
4/1/2021 1:00:00 PM 6.31 43.358 0.057 6.37 2.05 12.38
4/1/2021 1:15:00 PM 6.29 43.322 0.057 6.37 2.04 12.36
4/1/2021 1:30:00 PM 6.29 43.322 0.057 6.34 2.05 12.36
4/1/2021 1:45:00 PM 6.26 43.268 0.057 6.36 1.98 12.35
4/1/2021 2:00:00 PM 6.23 43.214 0.057 6.37 2 12.35
4/1/2021 2:15:00 PM 6.22 43.196 0.057 6.38 2.05 12.35
4/1/2021 2:30:00 PM 6.19 43.142 0.057 6.38 2.08 12.36
4/1/2021 2:45:00 PM 6.16 43.088 0.057 6.38 2.02 12.36
4/1/2021 3:00:00 PM 6.13 43.034 0.057 6.35 1.96 12.36
4/1/2021 3:15:00 PM 6.1 42.98 0.057 6.38 1.98 12.38
4/1/2021 3:30:00 PM 6.06 42.908 0.057 6.38 2 12.37
4/1/2021 3:45:00 PM 6.02 42.836 0.057 6.38 2.04 12.4
4/1/2021 4:00:00 PM 6.01 42.818 0.057 6.38 1.99 12.42
4/1/2021 4:15:00 PM 6 42.8 0.057 6.38 1.99 12.41
4/1/2021 4:30:00 PM 5.98 42.764 0.057 6.38 2.02 12.41
4/1/2021 4:45:00 PM 5.95 42.71 0.057 6.38 1.93 12.43
4/1/2021 5:00:00 PM 5.97 42.746 0.057 6.38 1.95 12.44
4/1/2021 5:15:00 PM 5.97 42.746 0.057 6.38 1.99 12.42
4/1/2021 5:30:00 PM 5.93 42.674 0.057 6.37 2.02 12.44
4/1/2021 5:45:00 PM 5.91 42.638 0.057 6.36 1.99 12.44
4/1/2021 6:00:00 PM 5.86 42.548 0.057 6.35 1.97 12.43
4/1/2021 6:15:00 PM 5.83 42.494 0.057 6.38 1.96 12.46
4/1/2021 6:30:00 PM 5.79 42.422 0.057 6.38 1.99 12.45
4/1/2021 6:45:00 PM 5.74 42.332 0.057 6.38 2.02 12.46
4/1/2021 7:00:00 PM 5.66 42.188 0.057 6.36 1.96 12.48
4/1/2021 7:15:00 PM 5.6 42.08 0.057 6.38 2.04 12.49
4/1/2021 7:30:00 PM 5.56 42.008 0.057 6.37 2.08 12.5
4/1/2021 7:45:00 PM 5.49 41.882 0.057 6.37 2.06 12.49
4/1/2021 8:00:00 PM 5.45 41.81 0.057 6.36 2.1 12.5
4/1/2021 8:15:00 PM 5.41 41.738 0.057 6.36 2.04 12.53
4/1/2021 8:30:00 PM 5.35 41.63 0.057 6.36 2.05 12.53
4/1/2021 8:45:00 PM 5.31 41.558 0.057 6.36 2.07 12.57
4/1/2021 9:00:00 PM 5.26 41.468 0.057 6.35 2.05 12.59
4/1/2021 9:15:00 PM 5.2 41.36 0.057 6.34 2.08 12.61
4/1/2021 9:30:00 PM 5.17 41.306 0.057 6.33 2.12 12.62
4/1/2021 9:45:00 PM 5.12 41.216 0.057 6.3 2 12.64
4/1/2021 10:00:00 PM 5.09 41.162 0.057 6.32 2.02 12.65
4/1/2021 10:15:00 PM 5 41 0.057 6.32 2.12 12.65
4/1/2021 10:30:00 PM 4.96 40.928 0.057 6.31 2.07 12.67
4/1/2021 10:45:00 PM 4.92 40.856 0.057 6.32 2.09 12.69
4/1/2021 11:00:00 PM 4.86 40.748 0.057 6.31 2.09 12.7
4/1/2021 11:15:00 PM 4.8 40.64 0.057 6.31 2.03 12.72
4/1/2021 11:30:00 PM 4.75 40.55 0.057 6.31 2.08 12.76
4/1/2021 11:45:00 PM 4.7 40.46 0.057 6.3 2 12.76
4/2/2021 12:00:00 AM 4.66 40.388 0.057 6.3 2.12 12.78
4/2/2021 12:15:00 AM 4.63 40.334 0.057 6.31 1.95 12.8
4/2/2021 12:30:00 AM 4.58 40.244 0.057 6.31 1.97 12.82
4/2/2021 12:45:00 AM 4.54 40.172 0.057 6.29 1.97 12.84
4/2/2021 1:00:00 AM 4.49 40.082 0.057 6.31 2 12.86
4/2/2021 1:15:00 AM 4.45 40.01 0.057 6.24 1.97 12.87
4/2/2021 1:30:00 AM 4.42 39.956 0.057 6.31 1.95 12.86
4/2/2021 1:45:00 AM 4.38 39.884 0.057 6.31 1.96 12.87
4/2/2021 2:00:00 AM 4.34 39.812 0.057 6.31 1.95 12.88
4/2/2021 2:15:00 AM 4.3 39.74 0.057 6.31 1.96 12.9
4/2/2021 2:30:00 AM 4.26 39.668 0.057 6.31 2.12 12.91
4/2/2021 2:45:00 AM 4.22 39.596 0.057 6.31 1.95 12.93
4/2/2021 3:00:00 AM 4.19 39.542 0.057 6.31 1.98 12.94
4/2/2021 3:15:00 AM 4.15 39.47 0.057 6.31 1.9 12.96
4/2/2021 3:30:00 AM 4.11 39.398 0.057 6.31 1.91 12.97
4/2/2021 3:45:00 AM 4.06 39.308 0.057 6.31 1.95 12.99
4/2/2021 4:00:00 AM 4.02 39.236 0.057 6.31 1.92 13.01
4/2/2021 4:15:00 AM 3.98 39.164 0.057 6.31 1.9 13.03
4/2/2021 4:30:00 AM 3.93 39.074 0.057 6.31 1.87 13.04
4/2/2021 4:45:00 AM 3.89 39.002 0.057 6.31 1.99 13.05
4/2/2021 5:00:00 AM 3.85 38.93 0.057 6.31 1.88 13.05
4/2/2021 5:15:00 AM 3.8 38.84 0.057 6.29 1.92 13.06
4/2/2021 5:30:00 AM 3.76 38.768 0.057 6.31 1.88 13.07
4/2/2021 5:45:00 AM 3.72 38.696 0.057 6.32 1.91 13.1
4/2/2021 6:00:00 AM 3.68 38.624 0.057 6.32 1.93 13.11
4/2/2021 6:15:00 AM 3.63 38.534 0.057 6.31 1.84 13.13
4/2/2021 6:30:00 AM 3.58 38.444 0.057 6.3 1.92 13.16
4/2/2021 6:45:00 AM 3.55 38.39 0.057 6.31 1.89 13.17
4/2/2021 7:00:00 AM 3.5 38.3 0.057 6.32 1.91 13.19
4/2/2021 7:15:00 AM 3.47 38.246 0.057 6.31 1.9 13.22
4/2/2021 7:30:00 AM 3.43 38.174 0.057 6.31 1.92 13.25
4/2/2021 7:45:00 AM 3.39 38.102 0.057 6.32 1.91 13.26
4/2/2021 8:00:00 AM 3.36 38.048 0.057 6.32 1.88 13.29
4/2/2021 8:15:00 AM 3.35 38.03 0.057 6.27 1.88 13.31
4/2/2021 8:30:00 AM 3.38 38.084 0.057 6.34 1.86 13.33
4/2/2021 8:45:00 AM 3.4 38.12 0.057 6.35 1.84 13.32
4/2/2021 9:00:00 AM 3.4 38.12 0.057 6.29 1.88 13.36
4/2/2021 9:15:00 AM 3.45 38.21 0.057 6.36 1.84 13.35
4/2/2021 9:30:00 AM 3.52 38.336 0.057 6.36 1.82 13.34
4/2/2021 9:45:00 AM 3.59 38.462 0.057 6.37 1.84 13.32
4/2/2021 10:00:00 AM 3.67 38.606 0.057 6.32 1.82 13.3
4/2/2021 10:15:00 AM 3.78 38.804 0.057 6.37 1.83 13.27
4/2/2021 10:30:00 AM 3.89 39.002 0.057 6.38 1.81 13.25
4/2/2021 10:45:00 AM 3.99 39.182 0.057 6.38 1.8 13.24
4/2/2021 11:00:00 AM 4.11 39.398 0.057 6.38 1.92 13.2
4/2/2021 11:15:00 AM 4.22 39.596 0.057 6.35 1.87 13.17
4/2/2021 11:30:00 AM 4.34 39.812 0.057 6.39 1.86 13.12
4/2/2021 11:45:00 AM 4.49 40.082 0.057 6.39 1.8 13.09
4/2/2021 12:00:00 PM 4.63 40.334 0.057 6.39 1.84 13.06
4/2/2021 12:15:00 PM 4.76 40.568 0.057 6.39 1.92 13.01
4/2/2021 12:30:00 PM 4.91 40.838 0.057 6.37 1.91 12.95
4/2/2021 12:45:00 PM 5.06 41.108 0.057 6.4 1.82 12.92
4/2/2021 1:00:00 PM 5.2 41.36 0.057 6.4 1.8 12.87
4/2/2021 1:15:00 PM 5.35 41.63 0.057 6.4 1.79 12.82
4/2/2021 1:30:00 PM 5.49 41.882 0.057 6.41 1.76 12.75
4/2/2021 1:45:00 PM 5.63 42.134 0.057 6.4 1.78 12.71
4/2/2021 2:00:00 PM 5.73 42.314 0.057 6.41 1.74 12.66
4/2/2021 2:15:00 PM 5.83 42.494 0.057 6.41 1.79 12.62
4/2/2021 2:30:00 PM 5.93 42.674 0.057 6.42 1.73 12.59
4/2/2021 2:45:00 PM 6.02 42.836 0.057 6.42 1.76 12.54
4/2/2021 3:00:00 PM 6.11 42.998 0.057 6.42 1.75 12.48
4/2/2021 3:15:00 PM 6.16 43.088 0.057 6.42 1.81 12.46
4/2/2021 3:30:00 PM 6.19 43.142 0.057 6.42 1.93 12.45
4/2/2021 3:45:00 PM 6.23 43.214 0.057 6.39 2.22 12.43
4/2/2021 4:00:00 PM 6.23 43.214 0.057 6.42 1.88 12.41
4/2/2021 4:15:00 PM 6.22 43.196 0.057 6.42 1.83 12.41
4/2/2021 4:30:00 PM 6.2 43.16 0.057 6.42 1.82 12.4
4/2/2021 4:45:00 PM 6.18 43.124 0.057 6.42 1.84 12.39
4/2/2021 5:00:00 PM 6.13 43.034 0.057 6.42 1.86 12.39
4/2/2021 5:15:00 PM 6.08 42.944 0.057 6.34 1.83 12.4
4/2/2021 5:30:00 PM 6.04 42.872 0.057 6.42 1.88 12.4
4/2/2021 5:45:00 PM 5.97 42.746 0.057 6.41 1.84 12.42
4/2/2021 6:00:00 PM 5.92 42.656 0.057 6.42 1.83 12.43
4/2/2021 6:15:00 PM 5.83 42.494 0.057 6.42 1.86 12.47
4/2/2021 6:30:00 PM 5.75 42.35 0.057 6.42 1.93 12.5
4/2/2021 6:45:00 PM 5.67 42.206 0.057 6.41 1.88 12.52
4/2/2021 7:00:00 PM 5.58 42.044 0.057 6.41 1.97 12.55
4/2/2021 7:15:00 PM 5.49 41.882 0.057 6.41 1.92 12.56
4/2/2021 7:30:00 PM 5.4 41.72 0.057 6.41 1.95 12.59
4/2/2021 7:45:00 PM 5.3 41.54 0.057 6.41 1.98 12.63
4/2/2021 8:00:00 PM 5.22 41.396 0.057 6.4 2.04 12.65
4/2/2021 8:15:00 PM 5.14 41.252 0.057 6.4 2.06 12.68
4/2/2021 8:30:00 PM 5.07 41.126 0.057 6.4 1.94 12.71
4/2/2021 8:45:00 PM 5 41 0.057 6.4 1.95 12.71
4/2/2021 9:00:00 PM 4.93 40.874 0.057 6.39 1.92 12.73
4/2/2021 9:15:00 PM 4.85 40.73 0.057 6.3 1.95 12.75
4/2/2021 9:30:00 PM 4.8 40.64 0.057 6.39 1.9 12.77
4/2/2021 9:45:00 PM 4.74 40.532 0.057 6.39 1.97 12.8
4/2/2021 10:00:00 PM 4.68 40.424 0.057 6.38 2.08 12.82
4/2/2021 10:15:00 PM 4.63 40.334 0.057 6.39 1.87 12.85
4/2/2021 10:30:00 PM 4.58 40.244 0.057 6.39 1.94 12.86
4/2/2021 10:45:00 PM 4.54 40.172 0.057 6.38 1.97 12.89
4/2/2021 11:00:00 PM 4.49 40.082 0.057 6.39 1.87 12.89
4/2/2021 11:15:00 PM 4.44 39.992 0.057 6.38 1.88 12.9
4/2/2021 11:30:00 PM 4.4 39.92 0.057 6.39 1.89 12.9
4/2/2021 11:45:00 PM 4.36 39.848 0.057 6.38 1.89 12.91
4/3/2021 12:00:00 AM 4.32 39.776 0.057 6.38 1.9 12.92
4/3/2021 12:15:00 AM 4.27 39.686 0.057 6.38 1.86 12.94
4/3/2021 12:30:00 AM 4.23 39.614 0.057 6.38 1.87 12.95
4/3/2021 12:45:00 AM 4.18 39.524 0.057 6.31 1.86 12.97
4/3/2021 1:00:00 AM 4.16 39.488 0.057 6.38 1.84 12.99
4/3/2021 1:15:00 AM 4.12 39.416 0.057 6.38 1.89 13
4/3/2021 1:30:00 AM 4.08 39.344 0.057 6.38 1.84 13.02
4/3/2021 1:45:00 AM 4.04 39.272 0.057 6.38 1.88 13.04
4/3/2021 2:00:00 AM 4 39.2 0.057 6.33 1.87 13.06
4/3/2021 2:15:00 AM 3.97 39.146 0.057 6.38 1.95 13.07
4/3/2021 2:30:00 AM 3.93 39.074 0.057 6.38 1.89 13.08
4/3/2021 2:45:00 AM 3.9 39.02 0.057 6.38 1.81 13.08
4/3/2021 3:00:00 AM 3.86 38.948 0.057 6.38 1.82 13.08
4/3/2021 3:15:00 AM 3.83 38.894 0.057 6.38 1.84 13.09
4/3/2021 3:30:00 AM 3.79 38.822 0.057 6.37 1.81 13.09
4/3/2021 3:45:00 AM 3.75 38.75 0.057 6.37 1.86 13.12
4/3/2021 4:00:00 AM 3.72 38.696 0.057 6.38 1.85 13.14
4/3/2021 4:15:00 AM 3.68 38.624 0.057 6.37 1.86 13.14
4/3/2021 4:30:00 AM 3.65 38.57 0.057 6.38 1.84 13.15
4/3/2021 4:45:00 AM 3.62 38.516 0.057 6.38 1.83 13.16
4/3/2021 5:00:00 AM 3.58 38.444 0.057 6.38 1.78 13.19
4/3/2021 5:15:00 AM 3.54 38.372 0.057 6.38 1.89 13.22
4/3/2021 5:30:00 AM 3.48 38.264 0.057 6.25 1.76 13.23
4/3/2021 5:45:00 AM 3.47 38.246 0.057 6.37 1.83 13.23
4/3/2021 6:00:00 AM 3.41 38.138 0.057 6.3 1.84 13.28
4/3/2021 6:15:00 AM 3.39 38.102 0.057 6.36 1.73 13.26
4/3/2021 6:30:00 AM 3.35 38.03 0.057 6.36 1.76 13.28
4/3/2021 6:45:00 AM 3.31 37.958 0.057 6.36 1.79 13.28
4/3/2021 7:00:00 AM 3.28 37.904 0.057 6.36 1.77 13.29
4/3/2021 7:15:00 AM 3.25 37.85 0.057 6.36 1.82 13.31
4/3/2021 7:30:00 AM 3.21 37.778 0.057 6.35 1.76 13.34
4/3/2021 7:45:00 AM 3.18 37.724 0.057 6.35 1.84 13.36
4/3/2021 8:00:00 AM 3.16 37.688 0.057 6.35 1.77 13.38
4/3/2021 8:15:00 AM 3.18 37.724 0.057 6.37 1.77 13.4
4/3/2021 8:30:00 AM 3.2 37.76 0.057 6.36 1.81 13.4
4/3/2021 8:45:00 AM 3.23 37.814 0.057 6.38 1.78 13.41
4/3/2021 9:00:00 AM 3.26 37.868 0.057 6.37 1.76 13.42
4/3/2021 9:15:00 AM 3.33 37.994 0.057 6.38 1.76 13.42
4/3/2021 9:30:00 AM 3.42 38.156 0.057 6.39 1.73 13.42
4/3/2021 9:45:00 AM 3.51 38.318 0.057 6.39 1.8 13.39
4/3/2021 10:00:00 AM 3.63 38.534 0.057 6.39 1.73 13.37
4/3/2021 10:15:00 AM 3.76 38.768 0.057 6.39 1.8 13.32
4/3/2021 10:30:00 AM 3.91 39.038 0.057 6.39 1.75 13.29
4/3/2021 10:45:00 AM 4.06 39.308 0.057 6.4 1.7 13.27
4/3/2021 11:00:00 AM 4.23 39.614 0.057 6.39 1.56 13.22
4/3/2021 11:15:00 AM 4.39 39.902 0.057 6.41 1.54 13.16
4/3/2021 11:30:00 AM 4.5 40.1 0.057 6.4 1.45 13.12
4/3/2021 11:45:00 AM 4.6 40.28 0.057 6.41 1.57 13.09
4/3/2021 12:00:00 PM 4.68 40.424 0.057 6.42 1.6 13.04
4/3/2021 12:15:00 PM 4.81 40.658 0.057 6.42 1.49 13.01
4/3/2021 12:30:00 PM 5.03 41.054 0.057 6.42 1.39 12.96
4/3/2021 12:45:00 PM 5.16 41.288 0.057 6.42 1.6 12.91
4/3/2021 1:00:00 PM 5.31 41.558 0.057 6.42 1.56 12.85
4/3/2021 1:15:00 PM 5.52 41.936 0.057 6.42 1.68 12.78
4/3/2021 1:30:00 PM 5.54 41.972 0.057 6.42 1.62 12.74
4/3/2021 1:45:00 PM 5.81 42.458 0.057 6.42 1.6 12.69
4/3/2021 2:00:00 PM 6 42.8 0.057 6.42 1.64 12.6
4/3/2021 2:15:00 PM 6.1 42.98 0.057 6.42 1.56 12.56
4/3/2021 2:30:00 PM 6.25 43.25 0.057 6.43 1.61 12.51
4/3/2021 2:45:00 PM 6.32 43.376 0.058 6.43 1.65 12.48
4/3/2021 3:00:00 PM 6.42 43.556 0.058 6.43 1.63 12.45
4/3/2021 3:15:00 PM 6.48 43.664 0.058 6.41 1.67 12.41
4/3/2021 3:30:00 PM 6.58 43.844 0.058 6.43 1.64 12.35
4/3/2021 3:45:00 PM 6.67 44.006 0.058 6.44 1.59 12.32
4/3/2021 4:00:00 PM 6.71 44.078 0.058 6.34 1.66 12.3
4/3/2021 4:15:00 PM 6.73 44.114 0.058 6.44 1.66 12.29
4/3/2021 4:30:00 PM 6.75 44.15 0.058 6.44 1.65 12.27
4/3/2021 4:45:00 PM 6.75 44.15 0.058 6.43 1.67 12.25
4/3/2021 5:00:00 PM 6.75 44.15 0.058 6.44 1.65 12.24
4/3/2021 5:15:00 PM 6.79 44.222 0.058 6.44 1.72 12.23
4/3/2021 5:30:00 PM 6.78 44.204 0.058 6.44 1.66 12.21
4/3/2021 5:45:00 PM 6.76 44.168 0.058 6.44 1.68 12.22
4/3/2021 6:00:00 PM 6.74 44.132 0.058 6.43 1.73 12.2
4/3/2021 6:15:00 PM 6.7 44.06 0.058 6.43 1.77 12.2
4/3/2021 6:30:00 PM 6.64 43.952 0.058 6.43 1.84 12.21
4/3/2021 6:45:00 PM 6.58 43.844 0.058 6.43 1.77 12.23
4/3/2021 7:00:00 PM 6.54 43.772 0.058 6.38 1.78 12.24
4/3/2021 7:15:00 PM 6.49 43.682 0.058 6.43 1.67 12.25
4/3/2021 7:30:00 PM 6.45 43.61 0.058 6.42 1.66 12.25
4/3/2021 7:45:00 PM 6.4 43.52 0.058 6.42 1.71 12.27
4/3/2021 8:00:00 PM 6.36 43.448 0.058 6.42 1.74 12.28
4/3/2021 8:15:00 PM 6.32 43.376 0.058 6.42 1.84 12.27
4/3/2021 8:30:00 PM 6.29 43.322 0.058 6.42 1.78 12.29
4/3/2021 8:45:00 PM 6.25 43.25 0.058 6.42 21.6 12.29
4/3/2021 9:00:00 PM 6.21 43.178 0.058 6.31 19.41 12.31
4/3/2021 9:15:00 PM 6.19 43.142 0.058 6.41 17.12 12.25
4/3/2021 9:30:00 PM 6.16 43.088 0.058 6.41 12.68 12.31
4/3/2021 9:45:00 PM 6.13 43.034 0.058 6.41 14.23 12.32
4/3/2021 10:00:00 PM 6.11 42.998 0.058 6.42 19.79 12.32
4/3/2021 10:15:00 PM 6.08 42.944 0.058 6.42 9.97 12.34
4/3/2021 10:30:00 PM 6.06 42.908 0.058 6.36 20.76 12.34
4/3/2021 10:45:00 PM 6.04 42.872 0.058 6.41 16.53 12.34
4/3/2021 11:00:00 PM 6.01 42.818 0.058 6.42 12.96 12.36
4/3/2021 11:15:00 PM 5.99 42.782 0.058 6.41 9.63 12.35
4/3/2021 11:30:00 PM 5.96 42.728 0.058 6.4 1.89 12.36
4/3/2021 11:45:00 PM 5.94 42.692 0.058 6.41 21.38 12.37
4/4/2021 12:00:00 AM 5.92 42.656 0.058 6.41 1.67 12.39
4/4/2021 12:15:00 AM 5.9 42.62 0.058 6.3 1.53 12.38
4/4/2021 12:30:00 AM 5.88 42.584 0.058 6.4 1.59 12.38
4/4/2021 12:45:00 AM 5.86 42.548 0.058 6.4 1.54 12.41
4/4/2021 1:00:00 AM 5.83 42.494 0.058 6.4 1.54 12.4
4/4/2021 1:15:00 AM 5.82 42.476 0.058 6.39 1.52 12.42
4/4/2021 1:30:00 AM 5.8 42.44 0.058 6.4 1.45 12.41
4/4/2021 1:45:00 AM 5.77 42.386 0.058 6.41 3.7 12.43
4/4/2021 2:00:00 AM 5.75 42.35 0.058 6.4 5.08 12.42
4/4/2021 2:15:00 AM 5.73 42.314 0.058 6.39 4.09 12.44
4/4/2021 2:30:00 AM 5.69 42.242 0.058 6.4 1.59 12.44
4/4/2021 2:45:00 AM 5.65 42.17 0.058 6.4 1.57 12.45
4/4/2021 3:00:00 AM 5.59 42.062 0.058 6.41 5.95 12.46
4/4/2021 3:15:00 AM 5.55 41.99 0.058 6.41 1.65 12.45
4/4/2021 3:30:00 AM 5.49 41.882 0.058 6.37 1.63 12.46
4/4/2021 3:45:00 AM 5.45 41.81 0.058 6.41 1.49 12.47
4/4/2021 4:00:00 AM 5.4 41.72 0.058 6.39 1.99 12.48
4/4/2021 4:15:00 AM 5.35 41.63 0.058 6.39 1.62 12.51
4/4/2021 4:30:00 AM 5.3 41.54 0.058 6.4 1.47 12.53
4/4/2021 4:45:00 AM 5.26 41.468 0.058 6.4 1.65 12.54
4/4/2021 5:00:00 AM 5.23 41.414 0.058 6.4 1.53 12.56
4/4/2021 5:15:00 AM 5.2 41.36 0.058 6.39 1.59 12.58
4/4/2021 5:30:00 AM 5.18 41.324 0.058 6.4 1.51 12.59
4/4/2021 5:45:00 AM 5.14 41.252 0.058 6.38 1.54 12.59
4/4/2021 6:00:00 AM 5.09 41.162 0.058 6.4 1.53 12.61
4/4/2021 6:15:00 AM 5.04 41.072 0.058 6.4 1.52 12.62
4/4/2021 6:30:00 AM 5 41 0.058 6.4 1.52 12.63
4/4/2021 6:45:00 AM 4.96 40.928 0.058 6.4 1.42 12.64
4/4/2021 7:00:00 AM 4.91 40.838 0.058 6.4 1.49 12.65
4/4/2021 7:15:00 AM 4.86 40.748 0.058 6.38 1.51 12.67
4/4/2021 7:30:00 AM 4.83 40.694 0.058 6.4 1.51 12.7
4/4/2021 7:45:00 AM 4.8 40.64 0.058 6.41 1.54 12.73
4/4/2021 8:00:00 AM 4.78 40.604 0.058 6.41 1.53 12.75
4/4/2021 8:15:00 AM 4.79 40.622 0.058 6.42 1.46 12.77
4/4/2021 8:30:00 AM 4.8 40.64 0.058 6.38 1.43 12.79
4/4/2021 8:45:00 AM 4.83 40.694 0.058 6.4 1.55 12.79
4/4/2021 9:00:00 AM 4.87 40.766 0.058 6.42 1.58 12.8
4/4/2021 9:15:00 AM 4.92 40.856 0.058 6.42 1.42 12.79
4/4/2021 9:30:00 AM 5.01 41.018 0.058 6.41 1.46 12.79
4/4/2021 9:45:00 AM 5.13 41.234 0.058 6.42 1.51 12.78
4/4/2021 10:00:00 AM 5.25 41.45 0.058 6.41 1.66 12.76
4/4/2021 10:15:00 AM 5.39 41.702 0.059 6.42 1.4 12.7
4/4/2021 10:30:00 AM 5.55 41.99 0.059 6.42 1.38 12.67
4/4/2021 10:45:00 AM 5.72 42.296 0.059 6.43 1.38 12.63
4/4/2021 11:00:00 AM 5.91 42.638 0.059 6.42 1.37 12.58
4/4/2021 11:15:00 AM 6.12 43.016 0.059 6.44 1.33 12.51
4/4/2021 11:30:00 AM 6.33 43.394 0.059 6.43 1.35 12.48
4/4/2021 11:45:00 AM 6.55 43.79 0.059 6.35 1.33 12.4
4/4/2021 12:00:00 PM 6.78 44.204 0.059 6.44 1.29 12.33
4/4/2021 12:15:00 PM 6.98 44.564 0.059 6.44 1.35 12.3
4/4/2021 12:30:00 PM 7.21 44.978 0.059 6.45 1.33 12.21
4/4/2021 12:45:00 PM 7.42 45.356 0.059 6.45 1.29 12.15
4/4/2021 1:00:00 PM 7.62 45.716 0.059 6.46 1.3 12.09
4/4/2021 1:15:00 PM 7.81 46.058 0.059 6.36 1.39 12
4/4/2021 1:30:00 PM 8.01 46.418 0.059 6.46 1.38 11.94
4/4/2021 1:45:00 PM 8.19 46.742 0.059 6.46 1.28 11.9
4/4/2021 2:00:00 PM 8.36 47.048 0.059 6.46 1.36 11.82
4/4/2021 2:15:00 PM 8.5 47.3 0.059 6.46 1.37 11.76
4/4/2021 2:30:00 PM 8.64 47.552 0.059 6.41 1.5 11.73
4/4/2021 2:45:00 PM 8.77 47.786 0.059 6.47 1.3 11.69
4/4/2021 3:00:00 PM 8.88 47.984 0.059 6.47 1.3 11.65
4/4/2021 3:15:00 PM 8.96 48.128 0.059 6.47 1.31 11.6
4/4/2021 3:30:00 PM 9.03 48.254 0.059 6.38 1.3 11.56
4/4/2021 3:45:00 PM 9.09 48.362 0.059 6.47 1.3 11.53
4/4/2021 4:00:00 PM 9.14 48.452 0.059 6.44 1.33 11.51
4/4/2021 4:15:00 PM 9.18 48.524 0.059 6.48 1.36 11.49
4/4/2021 4:30:00 PM 9.2 48.56 0.059 6.47 1.42 11.47
4/4/2021 4:45:00 PM 9.18 48.524 0.059 6.47 1.41 11.46
4/4/2021 5:00:00 PM 9.16 48.488 0.059 6.45 1.38 11.45
4/4/2021 5:15:00 PM 9.14 48.452 0.059 6.47 1.41 11.44
4/4/2021 5:30:00 PM 9.1 48.38 0.059 6.47 1.4 11.45
4/4/2021 5:45:00 PM 9.06 48.308 0.059 6.47 1.44 11.45
4/4/2021 6:00:00 PM 9.02 48.236 0.059 6.38 1.47 11.45
4/4/2021 6:15:00 PM 8.96 48.128 0.059 6.47 1.61 11.48
4/4/2021 6:30:00 PM 8.89 48.002 0.059 6.47 1.65 11.49
4/4/2021 6:45:00 PM 8.81 47.858 0.059 6.46 1.43 11.52
4/4/2021 7:00:00 PM 8.73 47.714 0.059 6.47 1.54 11.54
4/4/2021 7:15:00 PM 8.64 47.552 0.059 6.45 1.56 11.56
4/4/2021 7:30:00 PM 8.55 47.39 0.059 6.46 1.46 11.55
4/4/2021 7:45:00 PM 8.44 47.192 0.059 6.45 1.55 11.57
4/4/2021 8:00:00 PM 8.33 46.994 0.059 6.43 1.55 11.61
4/4/2021 8:15:00 PM 8.23 46.814 0.059 6.44 1.64 11.63
4/4/2021 8:30:00 PM 8.13 46.634 0.059 6.44 1.57 11.66
4/4/2021 8:45:00 PM 8.04 46.472 0.059 6.42 1.55 11.68
4/4/2021 9:00:00 PM 7.94 46.292 0.059 6.43 1.53 11.69
4/4/2021 9:15:00 PM 7.85 46.13 0.059 6.42 1.61 11.72
4/4/2021 9:30:00 PM 7.76 45.968 0.059 6.41 1.66 11.75
4/4/2021 9:45:00 PM 7.67 45.806 0.059 6.42 1.56 11.79
4/4/2021 10:00:00 PM 7.6 45.68 0.059 6.42 1.7 11.82
4/4/2021 10:15:00 PM 7.52 45.536 0.059 6.42 1.68 11.85
4/4/2021 10:30:00 PM 7.44 45.392 0.059 6.42 1.6 11.87
4/4/2021 10:45:00 PM 7.36 45.248 0.059 6.42 1.58 11.87
4/4/2021 11:00:00 PM 7.28 45.104 0.059 6.41 1.61 11.89
4/4/2021 11:15:00 PM 7.21 44.978 0.059 6.42 1.56 11.91
4/4/2021 11:30:00 PM 7.14 44.852 0.059 6.42 1.53 11.94
4/4/2021 11:45:00 PM 7.07 44.726 0.059 6.42 2 11.96
4/5/2021 12:00:00 AM 6.99 44.582 0.059 6.42 1.61 12.01
4/5/2021 12:15:00 AM 6.92 44.456 0.059 6.29 1.58 12.02
4/5/2021 12:30:00 AM 6.85 44.33 0.059 6.42 1.66 12.05
4/5/2021 12:45:00 AM 6.78 44.204 0.059 6.42 1.6 12.05
4/5/2021 1:00:00 AM 6.71 44.078 0.059 6.35 1.65 12.06
4/5/2021 1:15:00 AM 6.64 43.952 0.059 6.41 1.56 12.09
4/5/2021 1:30:00 AM 6.57 43.826 0.059 6.42 1.63 12.1
4/5/2021 1:45:00 AM 6.5 43.7 0.059 6.42 1.57 12.13
4/5/2021 2:00:00 AM 6.43 43.574 0.059 6.42 1.53 12.16
4/5/2021 2:15:00 AM 6.37 43.466 0.059 6.4 1.65 12.18
4/5/2021 2:30:00 AM 6.3 43.34 0.059 6.41 1.54 12.21
4/5/2021 2:45:00 AM 6.23 43.214 0.059 6.41 1.57 12.23
4/5/2021 3:00:00 AM 6.16 43.088 0.059 6.41 1.55 12.23
4/5/2021 3:15:00 AM 6.09 42.962 0.059 6.41 1.57 12.26
4/5/2021 3:30:00 AM 6.03 42.854 0.059 6.41 1.64 12.28
4/5/2021 3:45:00 AM 5.96 42.728 0.059 6.41 1.55 12.28
4/5/2021 4:00:00 AM 5.91 42.638 0.059 6.41 1.48 12.32
4/5/2021 4:15:00 AM 5.84 42.512 0.059 6.41 1.62 12.34
4/5/2021 4:30:00 AM 5.78 42.404 0.059 6.41 1.71 12.37
4/5/2021 4:45:00 AM 5.73 42.314 0.059 6.41 1.53 12.38
4/5/2021 5:00:00 AM 5.67 42.206 0.059 6.41 1.52 12.39
4/5/2021 5:15:00 AM 5.61 42.098 0.059 6.41 1.5 12.43
4/5/2021 5:30:00 AM 5.55 41.99 0.059 6.27 1.61 12.43
4/5/2021 5:45:00 AM 5.5 41.9 0.059 6.41 1.6 12.44
4/5/2021 6:00:00 AM 5.45 41.81 0.059 6.41 1.5 12.45
4/5/2021 6:15:00 AM 5.4 41.72 0.059 6.41 1.5 12.47
4/5/2021 6:30:00 AM 5.35 41.63 0.059 6.39 1.43 12.5
4/5/2021 6:45:00 AM 5.31 41.558 0.059 6.4 1.64 12.52
4/5/2021 7:00:00 AM 5.26 41.468 0.059 6.39 1.66 12.56
4/5/2021 7:15:00 AM 5.22 41.396 0.059 6.32 1.48 12.58
4/5/2021 7:30:00 AM 5.19 41.342 0.059 6.41 1.44 12.61
4/5/2021 7:45:00 AM 5.17 41.306 0.059 6.41 1.48 12.63
4/5/2021 8:00:00 AM 5.14 41.252 0.059 6.42 1.54 12.66
4/5/2021 8:15:00 AM 5.16 41.288 0.059 6.42 1.45 12.66
4/5/2021 8:30:00 AM 5.17 41.306 0.059 6.29 1.47 12.68
4/5/2021 8:45:00 AM 5.2 41.36 0.059 6.43 1.45 12.69
4/5/2021 9:00:00 AM 5.24 41.432 0.059 6.43 1.4 12.7
4/5/2021 9:15:00 AM 5.31 41.558 0.059 6.43 1.72 12.69
4/5/2021 9:30:00 AM 5.39 41.702 0.059 6.43 1.42 12.66
4/5/2021 9:45:00 AM 5.51 41.918 0.059 6.43 1.4 12.64
4/5/2021 10:00:00 AM 5.64 42.152 0.059 6.44 1.67 12.61
4/5/2021 10:15:00 AM 5.79 42.422 0.059 6.44 1.36 12.59
4/5/2021 10:30:00 AM 5.96 42.728 0.059 6.44 1.4 12.54
4/5/2021 10:45:00 AM 6.13 43.034 0.059 6.45 1.6 12.51
4/5/2021 11:00:00 AM 6.32 43.376 0.059 6.45 1.47 12.48
4/5/2021 11:15:00 AM 6.51 43.718 0.059 6.45 1.34 12.41
4/5/2021 11:30:00 AM 6.73 44.114 0.059 6.43 1.33 12.33
4/5/2021 11:45:00 AM 6.93 44.474 0.059 6.46 1.49 12.31
4/5/2021 12:00:00 PM 7.13 44.834 0.059 6.45 1.31 12.24
4/5/2021 12:15:00 PM 7.33 45.194 0.059 6.46 1.3 12.16
4/5/2021 12:30:00 PM 7.53 45.554 0.059 6.46 1.26 12.13
4/5/2021 12:45:00 PM 7.73 45.914 0.059 6.47 1.33 12.06
4/5/2021 1:00:00 PM 7.92 46.256 0.059 6.47 1.22 11.99
4/5/2021 1:15:00 PM 8.02 46.436 0.059 6.46 1.14 11.95
4/5/2021 1:30:00 PM 8.21 46.778 0.059 6.47 1.22 11.89
4/5/2021 1:45:00 PM 8.37 47.066 0.059 6.48 1.25 11.82
4/5/2021 2:00:00 PM 8.47 47.246 0.059 6.46 1.23 11.78
4/5/2021 2:15:00 PM 8.63 47.534 0.059 6.48 1.22 11.73
4/5/2021 2:30:00 PM 8.73 47.714 0.059 6.48 1.21 11.69
4/5/2021 2:45:00 PM 8.81 47.858 0.059 6.48 1.2 11.67
4/5/2021 3:00:00 PM 8.93 48.074 0.059 6.48 1.23 11.62
4/5/2021 3:15:00 PM 9.01 48.218 0.059 6.49 1.24 11.57
4/5/2021 3:30:00 PM 9.06 48.308 0.06 6.38 2.79 11.53
4/5/2021 3:45:00 PM 9.11 48.398 0.059 6.48 1.24 11.51
4/5/2021 4:00:00 PM 9.14 48.452 0.059 6.48 1.31 11.49
4/5/2021 4:15:00 PM 9.16 48.488 0.059 6.49 1.28 11.48
4/5/2021 4:30:00 PM 9.18 48.524 0.059 6.49 1.29 11.47
4/5/2021 4:45:00 PM 9.19 48.542 0.06 6.47 1.22 11.46
4/5/2021 5:00:00 PM 9.17 48.506 0.06 6.49 1.24 11.46
4/5/2021 5:15:00 PM 9.14 48.452 0.06 6.48 1.27 11.46
4/5/2021 5:30:00 PM 9.1 48.38 0.06 6.42 1.18 11.45
4/5/2021 5:45:00 PM 9.06 48.308 0.06 6.48 1.37 11.45
4/5/2021 6:00:00 PM 9.01 48.218 0.06 6.48 1.3 11.46
4/5/2021 6:15:00 PM 8.96 48.128 0.06 6.41 1.35 11.47
4/5/2021 6:30:00 PM 8.92 48.056 0.06 6.47 1.34 11.48
4/5/2021 6:45:00 PM 8.88 47.984 0.06 6.46 1.33 11.5
4/5/2021 7:00:00 PM 8.83 47.894 0.06 6.47 1.5 11.5
4/5/2021 7:15:00 PM 8.78 47.804 0.06 6.46 1.43 11.48
4/5/2021 7:30:00 PM 8.74 47.732 0.06 6.46 1.37 11.5
4/5/2021 7:45:00 PM 8.69 47.642 0.06 6.46 1.42 11.5
4/5/2021 8:00:00 PM 8.64 47.552 0.06 6.45 1.34 11.5
4/5/2021 8:15:00 PM 8.6 47.48 0.06 6.45 1.42 11.5
4/5/2021 8:30:00 PM 8.56 47.408 0.06 6.37 1.43 11.5
4/5/2021 8:45:00 PM 8.52 47.336 0.06 6.44 1.39 11.52
4/5/2021 9:00:00 PM 8.47 47.246 0.06 6.35 1.46 11.53
4/5/2021 9:15:00 PM 8.44 47.192 0.06 6.41 1.4 11.53
4/5/2021 9:30:00 PM 8.41 47.138 0.06 6.44 1.49 11.54
4/5/2021 9:45:00 PM 8.37 47.066 0.06 6.41 1.51 11.56
4/5/2021 10:00:00 PM 8.35 47.03 0.06 6.43 1.46 11.56
4/5/2021 10:15:00 PM 8.32 46.976 0.06 6.43 1.63 11.59
4/5/2021 10:30:00 PM 8.29 46.922 0.06 6.43 1.49 11.6
4/5/2021 10:45:00 PM 8.26 46.868 0.06 6.43 1.46 11.59
4/5/2021 11:00:00 PM 8.24 46.832 0.06 6.43 1.53 11.61
4/5/2021 11:15:00 PM 8.21 46.778 0.06 6.43 1.45 11.61
4/5/2021 11:30:00 PM 8.19 46.742 0.06 6.43 1.59 11.62
4/5/2021 11:45:00 PM 8.17 46.706 0.06 6.42 1.58 11.62
4/6/2021 12:00:00 AM 8.14 46.652 0.06 6.41 1.73 11.63
4/6/2021 12:15:00 AM 8.12 46.616 0.06 6.41 1.49 11.64
4/6/2021 12:30:00 AM 8.09 46.562 0.06 6.43 1.42 11.65
4/6/2021 12:45:00 AM 8.06 46.508 0.06 6.35 1.38 11.66
4/6/2021 1:00:00 AM 8.05 46.49 0.06 6.43 1.49 11.66
4/6/2021 1:15:00 AM 8.02 46.436 0.06 6.43 1.72 11.65
4/6/2021 1:30:00 AM 7.99 46.382 0.06 6.42 1.37 11.67
4/6/2021 1:45:00 AM 7.98 46.364 0.06 6.42 1.38 11.66
4/6/2021 2:00:00 AM 7.95 46.31 0.06 6.42 1.38 11.67
4/6/2021 2:15:00 AM 7.91 46.238 0.06 6.42 1.42 11.66
4/6/2021 2:30:00 AM 7.87 46.166 0.06 6.42 1.38 11.67
4/6/2021 2:45:00 AM 7.84 46.112 0.06 6.42 1.45 11.68
4/6/2021 3:00:00 AM 7.81 46.058 0.06 6.42 1.43 11.68
4/6/2021 3:15:00 AM 7.77 45.986 0.06 6.42 1.44 11.71
4/6/2021 3:30:00 AM 7.74 45.932 0.06 6.43 1.34 11.72
4/6/2021 3:45:00 AM 7.69 45.842 0.06 6.43 1.5 11.74
4/6/2021 4:00:00 AM 7.64 45.752 0.06 6.39 1.42 11.76
4/6/2021 4:15:00 AM 7.6 45.68 0.06 6.43 1.45 11.77
4/6/2021 4:30:00 AM 7.56 45.608 0.06 6.43 1.45 11.79
4/6/2021 4:45:00 AM 7.5 45.5 0.06 6.43 1.36 11.79
4/6/2021 5:00:00 AM 7.45 45.41 0.06 6.42 1.34 11.8
4/6/2021 5:15:00 AM 7.39 45.302 0.06 6.43 1.4 11.82
4/6/2021 5:30:00 AM 7.34 45.212 0.06 6.42 1.43 11.82
4/6/2021 5:45:00 AM 7.29 45.122 0.06 6.43 1.49 11.84
4/6/2021 6:00:00 AM 7.23 45.014 0.06 6.39 1.41 11.84
4/6/2021 6:15:00 AM 7.17 44.906 0.06 6.43 1.46 11.87
4/6/2021 6:30:00 AM 7.12 44.816 0.06 6.42 1.46 11.9
4/6/2021 6:45:00 AM 7.08 44.744 0.06 6.39 1.41 11.92
4/6/2021 7:00:00 AM 7.05 44.69 0.06 6.43 1.43 11.93
4/6/2021 7:15:00 AM 7.03 44.654 0.06 6.4 1.43 11.96
4/6/2021 7:30:00 AM 7.01 44.618 0.06 6.43 1.46 11.98
4/6/2021 7:45:00 AM 7 44.6 0.06 6.44 1.42 12.01
4/6/2021 8:00:00 AM 7 44.6 0.06 6.44 1.45 12.03
4/6/2021 8:15:00 AM 7.03 44.654 0.06 6.45 1.34 12.05
4/6/2021 8:30:00 AM 7.03 44.654 0.06 6.45 1.45 12.05
4/6/2021 8:45:00 AM 7.02 44.636 0.06 6.46 1.37 12.06
4/6/2021 9:00:00 AM 7.08 44.744 0.06 6.46 1.31 12.07
4/6/2021 9:15:00 AM 7.17 44.906 0.06 6.37 1.4 12.06
4/6/2021 9:30:00 AM 7.27 45.086 0.06 6.47 1.43 12.05
4/6/2021 9:45:00 AM 7.38 45.284 0.06 6.46 1.31 12.03
4/6/2021 10:00:00 AM 7.49 45.482 0.06 6.47 1.42 12.04
4/6/2021 10:15:00 AM 7.62 45.716 0.06 6.47 1.34 12.01
4/6/2021 10:30:00 AM 7.77 45.986 0.06 6.47 1.32 11.97
4/6/2021 10:45:00 AM 7.91 46.238 0.06 6.36 1.29 11.92
4/6/2021 11:00:00 AM 8.07 46.526 0.06 6.48 1.39 11.91
4/6/2021 11:15:00 AM 8.27 46.886 0.06 6.48 1.18 11.85
4/6/2021 11:30:00 AM 8.45 47.21 0.06 6.48 1.22 11.79
4/6/2021 11:45:00 AM 8.67 47.606 0.06 6.49 1.22 11.75
4/6/2021 12:00:00 PM 8.87 47.966 0.06 6.49 1.19 11.7
4/6/2021 12:15:00 PM 9.07 48.326 0.06 6.49 1.25 11.63
4/6/2021 12:30:00 PM 9.26 48.668 0.06 6.49 1.28 11.6
4/6/2021 12:45:00 PM 9.43 48.974 0.06 6.48 1.27 11.54
4/6/2021 1:00:00 PM 9.62 49.316 0.06 6.5 1.24 11.47
4/6/2021 1:15:00 PM 9.82 49.676 0.06 6.49 1.19 11.41
4/6/2021 1:30:00 PM 9.98 49.964 0.06 6.5 1.31 11.38
4/6/2021 1:45:00 PM 10.19 50.342 0.061 6.5 1.29 11.31
4/6/2021 2:00:00 PM 10.36 50.648 0.061 6.5 1.27 11.25
4/6/2021 2:15:00 PM 10.48 50.864 0.061 6.48 2.4 11.22
4/6/2021 2:30:00 PM 10.63 51.134 0.061 6.48 1.25 11.15
4/6/2021 2:45:00 PM 10.74 51.332 0.061 6.51 1.27 11.13
4/6/2021 3:00:00 PM 10.8 51.44 0.061 6.43 1.28 11.09
4/6/2021 3:15:00 PM 10.91 51.638 0.061 6.49 2.58 11.05
4/6/2021 3:30:00 PM 10.9 51.62 0.061 6.47 2.49 11.02
4/6/2021 3:45:00 PM 10.96 51.728 0.061 6.47 2.4 11
4/6/2021 4:00:00 PM 11 51.8 0.061 6.51 1.32 10.98
4/6/2021 4:15:00 PM 11.12 52.016 0.061 6.47 1.76 10.98
4/6/2021 4:30:00 PM 10.99 51.782 0.061 6.47 2.38 10.96
4/6/2021 4:45:00 PM 10.97 51.746 0.061 6.47 2.57 10.94
4/6/2021 5:00:00 PM 10.99 51.782 0.061 6.47 2.33 10.94
4/6/2021 5:15:00 PM 10.98 51.764 0.061 6.47 2.49 10.94
4/6/2021 5:30:00 PM 10.92 51.656 0.061 6.5 2.46 10.95
4/6/2021 5:45:00 PM 10.9 51.62 0.061 6.49 1.21 10.95
4/6/2021 6:00:00 PM 10.88 51.584 0.061 6.49 1.28 10.94
4/6/2021 6:15:00 PM 10.86 51.548 0.061 6.5 1.35 10.96
4/6/2021 6:30:00 PM 10.84 51.512 0.061 6.46 2.51 10.95
4/6/2021 6:45:00 PM 10.83 51.494 0.061 6.4 1.34 10.95
4/6/2021 7:00:00 PM 10.8 51.44 0.061 6.46 1.28 10.93
4/6/2021 7:15:00 PM 10.74 51.332 0.061 6.49 1.28 10.93
4/6/2021 7:30:00 PM 10.67 51.206 0.061 6.48 1.27 10.94
4/6/2021 7:45:00 PM 10.58 51.044 0.061 6.46 1.31 10.93
4/6/2021 8:00:00 PM 10.5 50.9 0.061 6.46 1.44 10.94
4/6/2021 8:15:00 PM 10.41 50.738 0.061 6.45 1.51 10.95
4/6/2021 8:30:00 PM 10.33 50.594 0.061 6.46 2.69 10.96
4/6/2021 8:45:00 PM 10.25 50.45 0.061 6.44 1.31 10.97
4/6/2021 9:00:00 PM 10.18 50.324 0.061 6.44 1.45 11
4/6/2021 9:15:00 PM 10.11 50.198 0.061 6.44 1.43 11.02
4/6/2021 9:30:00 PM 10.03 50.054 0.061 6.19 2.76 11.05
4/6/2021 9:45:00 PM 9.96 49.928 0.061 6.44 1.46 11.07
4/6/2021 10:00:00 PM 9.89 49.802 0.061 6.22 2.81 11.07
4/6/2021 10:15:00 PM 9.82 49.676 0.061 6.43 1.36 11.1
4/6/2021 10:30:00 PM 9.75 49.55 0.061 6.43 1.5 11.09
4/6/2021 10:45:00 PM 9.68 49.424 0.061 6.43 1.43 11.11
4/6/2021 11:00:00 PM 9.62 49.316 0.061 6.43 1.54 11.14
4/6/2021 11:15:00 PM 9.55 49.19 0.061 6.43 1.45 11.15
4/6/2021 11:30:00 PM 9.49 49.082 0.061 6.42 1.41 11.19
4/6/2021 11:45:00 PM 9.43 48.974 0.061 6.43 1.44 11.21
4/7/2021 12:00:00 AM 9.39 48.902 0.061 6.43 1.64 11.22
4/7/2021 12:15:00 AM 9.34 48.812 0.061 6.43 1.48 11.24
4/7/2021 12:30:00 AM 9.3 48.74 0.061 6.42 1.44 11.26
4/7/2021 12:45:00 AM 9.25 48.65 0.061 6.43 1.41 11.24
4/7/2021 1:00:00 AM 9.19 48.542 0.061 6.32 1.44 11.25
4/7/2021 1:15:00 AM 9.14 48.452 0.061 6.43 1.44 11.25
4/7/2021 1:30:00 AM 9.08 48.344 0.061 6.43 1.42 11.28
4/7/2021 1:45:00 AM 9.03 48.254 0.061 6.43 1.43 11.31
4/7/2021 2:00:00 AM 8.97 48.146 0.061 6.42 1.49 11.32
4/7/2021 2:15:00 AM 8.91 48.038 0.061 6.42 1.68 11.33
4/7/2021 2:30:00 AM 8.86 47.948 0.061 6.43 1.43 11.36
4/7/2021 2:45:00 AM 8.8 47.84 0.061 6.43 1.62 11.36
4/7/2021 3:00:00 AM 8.74 47.732 0.061 6.43 1.52 11.39
4/7/2021 3:15:00 AM 8.69 47.642 0.061 6.43 1.64 11.4
4/7/2021 3:30:00 AM 8.63 47.534 0.061 6.43 1.34 11.41
4/7/2021 3:45:00 AM 8.58 47.444 0.061 6.43 1.47 11.41
4/7/2021 4:00:00 AM 8.54 47.372 0.061 6.43 1.34 11.43
4/7/2021 4:15:00 AM 8.49 47.282 0.061 6.43 1.41 11.44
4/7/2021 4:30:00 AM 8.46 47.228 0.061 6.42 1.41 11.45
4/7/2021 4:45:00 AM 8.42 47.156 0.061 6.43 1.49 11.47
4/7/2021 5:00:00 AM 8.39 47.102 0.061 6.43 1.39 11.47
4/7/2021 5:15:00 AM 8.36 47.048 0.061 6.43 1.49 11.5
4/7/2021 5:30:00 AM 8.34 47.012 0.061 6.43 1.43 11.51
4/7/2021 5:45:00 AM 8.31 46.958 0.061 6.43 1.42 11.52
4/7/2021 6:00:00 AM 8.29 46.922 0.061 6.43 1.41 11.53
4/7/2021 6:15:00 AM 8.26 46.868 0.061 6.42 1.39 11.54
4/7/2021 6:30:00 AM 8.22 46.796 0.061 6.42 1.34 11.51
4/7/2021 6:45:00 AM 8.2 46.76 0.061 6.42 1.49 11.56
4/7/2021 7:00:00 AM 8.19 46.742 0.061 6.43 1.75 11.56
4/7/2021 7:15:00 AM 8.17 46.706 0.061 6.35 1.41 11.6
4/7/2021 7:30:00 AM 8.16 46.688 0.061 6.43 1.32 11.61
4/7/2021 7:45:00 AM 8.15 46.67 0.061 6.43 1.5 11.63
4/7/2021 8:00:00 AM 8.15 46.67 0.061 6.34 1.42 11.63
4/7/2021 8:15:00 AM 8.16 46.688 0.061 6.44 1.41 11.65
4/7/2021 8:30:00 AM 8.17 46.706 0.061 6.44 1.6 11.67
4/7/2021 8:45:00 AM 8.22 46.796 0.061 6.45 1.39 11.69
4/7/2021 9:00:00 AM 8.33 46.994 0.061 6.46 1.38 11.69
4/7/2021 9:15:00 AM 8.42 47.156 0.061 6.45 1.43 11.65
4/7/2021 9:30:00 AM 8.5 47.3 0.061 6.47 1.34 11.66
4/7/2021 9:45:00 AM 8.63 47.534 0.061 6.47 1.33 11.65
4/7/2021 10:00:00 AM 8.77 47.786 0.061 6.48 1.32 11.64
4/7/2021 10:15:00 AM 8.92 48.056 0.061 6.48 1.3 11.61
4/7/2021 10:30:00 AM 9.08 48.344 0.061 6.42 1.23 11.56
4/7/2021 10:45:00 AM 9.24 48.632 0.061 6.48 1.32 11.54
4/7/2021 11:00:00 AM 9.41 48.938 0.061 6.48 1.31 11.52
4/7/2021 11:15:00 AM 9.58 49.244 0.062 6.49 1.2 11.45
4/7/2021 11:30:00 AM 9.79 49.622 0.062 6.46 1.27 11.4
4/7/2021 11:45:00 AM 10.01 50.018 0.062 6.5 1.28 11.38
4/7/2021 12:00:00 PM 10.22 50.396 0.062 6.5 1.2 11.3
4/7/2021 12:15:00 PM 10.41 50.738 0.062 6.5 1.38 11.25
4/7/2021 12:30:00 PM 10.63 51.134 0.062 6.5 1.29 11.21
4/7/2021 12:45:00 PM 10.83 51.494 0.062 6.51 1.21 11.15
4/7/2021 1:00:00 PM 11.04 51.872 0.062 6.48 2.55 11.08
4/7/2021 1:15:00 PM 11.25 52.25 0.062 6.51 1.23 11.06
4/7/2021 1:30:00 PM 11.39 52.502 0.062 6.51 1.24 11
4/7/2021 1:45:00 PM 11.52 52.736 0.062 6.3 2.52 10.94
4/7/2021 2:00:00 PM 11.64 52.952 0.062 6.49 2.49 10.91
4/7/2021 2:15:00 PM 11.78 53.204 0.062 6.5 2.53 10.89
4/7/2021 2:30:00 PM 11.72 53.096 0.062 6.49 2.34 10.84
4/7/2021 2:45:00 PM 11.83 53.294 0.062 6.49 2.46 10.84
4/7/2021 3:00:00 PM 12.02 53.636 0.062 6.48 2.56 10.79
4/7/2021 3:15:00 PM 11.98 53.564 0.062 6.49 2.39 10.76
4/7/2021 3:30:00 PM 12.04 53.672 0.062 6.49 2.46 10.74
4/7/2021 3:45:00 PM 12.18 53.924 0.062 6.48 2.5 10.7
4/7/2021 4:00:00 PM 12.2 53.96 0.062 6.48 2.51 10.67
4/7/2021 4:15:00 PM 12.13 53.834 0.062 6.39 2.65 10.65
4/7/2021 4:30:00 PM 12.15 53.87 0.062 6.49 2.56 10.64
4/7/2021 4:45:00 PM 12.22 53.996 0.062 6.48 1.85 10.64
4/7/2021 5:00:00 PM 12.16 53.888 0.063 6.48 2.61 10.63
4/7/2021 5:15:00 PM 12.13 53.834 0.062 6.47 2.62 10.63
4/7/2021 5:30:00 PM 12.1 53.78 0.063 6.47 2.58 10.63
4/7/2021 5:45:00 PM 12.08 53.744 0.062 6.5 2.52 10.62
4/7/2021 6:00:00 PM 12.05 53.69 0.062 6.46 2.31 10.63
4/7/2021 6:15:00 PM 12.02 53.636 0.062 6.47 2.6 10.63
4/7/2021 6:30:00 PM 11.99 53.582 0.062 6.47 2.59 10.62
4/7/2021 6:45:00 PM 11.95 53.51 0.063 6.46 2.64 10.63
4/7/2021 7:00:00 PM 11.9 53.42 0.063 6.45 2.65 10.64
4/7/2021 7:15:00 PM 11.84 53.312 0.063 6.39 2.66 10.64
4/7/2021 7:30:00 PM 11.75 53.15 0.062 6.46 1.86 10.64
4/7/2021 7:45:00 PM 11.65 52.97 0.063 6.38 1.3 10.62
4/7/2021 8:00:00 PM 11.55 52.79 0.063 6.46 1.33 10.62
4/7/2021 8:15:00 PM 11.46 52.628 0.063 6.43 2.54 10.64
4/7/2021 8:30:00 PM 11.36 52.448 0.062 6.32 2.66 10.67
4/7/2021 8:45:00 PM 11.28 52.304 0.063 6.44 1.48 10.69
4/7/2021 9:00:00 PM 11.2 52.16 0.063 6.41 2.76 10.72
4/7/2021 9:15:00 PM 11.11 51.998 0.063 6.4 2.67 10.74
4/7/2021 9:30:00 PM 11.02 51.836 0.063 6.44 2.74 10.74
4/7/2021 9:45:00 PM 10.95 51.71 0.063 6.42 2.66 10.76
4/7/2021 10:00:00 PM 10.88 51.584 0.063 6.39 2.78 10.79
4/7/2021 10:15:00 PM 10.81 51.458 0.063 6.41 2.84 10.81
4/7/2021 10:30:00 PM 10.73 51.314 0.063 6.43 1.56 10.83
4/7/2021 10:45:00 PM 10.66 51.188 0.063 6.4 2.8 10.85
4/7/2021 11:00:00 PM 10.59 51.062 0.063 6.4 2.79 10.87
4/7/2021 11:15:00 PM 10.52 50.936 0.063 6.41 1.54 10.88
4/7/2021 11:30:00 PM 10.46 50.828 0.063 6.36 1.51 10.88
4/7/2021 11:45:00 PM 10.39 50.702 0.063 6.43 1.64 10.92
4/8/2021 12:00:00 AM 10.32 50.576 0.063 6.4 1.62 10.92
4/8/2021 12:15:00 AM 10.26 50.468 0.062 6.39 2.99 10.94
4/8/2021 12:30:00 AM 10.19 50.342 0.062 6.43 1.73 10.96
4/8/2021 12:45:00 AM 10.13 50.234 0.063 6.39 3.11 10.98
4/8/2021 1:00:00 AM 10.07 50.126 0.062 6.42 1.68 11.01
4/8/2021 1:15:00 AM 10.01 50.018 0.062 6.41 1.74 11.01
4/8/2021 1:30:00 AM 9.95 49.91 0.062 6.36 1.75 11.04
4/8/2021 1:45:00 AM 9.89 49.802 0.062 6.43 1.76 11.05
4/8/2021 2:00:00 AM 9.83 49.694 0.062 6.43 2.9 11.06
4/8/2021 2:15:00 AM 9.77 49.586 0.062 6.39 2.87 11.05
4/8/2021 2:30:00 AM 9.71 49.478 0.062 6.42 1.43 11.08
4/8/2021 2:45:00 AM 9.65 49.37 0.062 6.43 7.11 11.09
4/8/2021 3:00:00 AM 9.6 49.28 0.062 6.38 1.43 11.1
4/8/2021 3:15:00 AM 9.54 49.172 0.062 6.39 1.46 11.14
4/8/2021 3:30:00 AM 9.48 49.064 0.062 6.4 1.53 11.15
4/8/2021 3:45:00 AM 9.43 48.974 0.062 6.42 1.46 11.17
4/8/2021 4:00:00 AM 9.37 48.866 0.062 6.41 1.42 11.18
4/8/2021 4:15:00 AM 9.32 48.776 0.062 6.43 1.54 11.21
4/8/2021 4:30:00 AM 9.26 48.668 0.062 6.43 1.3 11.2
4/8/2021 4:45:00 AM 9.21 48.578 0.062 6.33 1.39 11.21
4/8/2021 5:00:00 AM 9.15 48.47 0.062 6.43 1.41 11.23
4/8/2021 5:15:00 AM 9.1 48.38 0.062 6.42 1.39 11.24
4/8/2021 5:30:00 AM 9.05 48.29 0.062 6.43 1.43 11.26
4/8/2021 5:45:00 AM 9 48.2 0.062 6.42 1.41 11.28
4/8/2021 6:00:00 AM 8.94 48.092 0.062 6.42 1.35 11.28
4/8/2021 6:15:00 AM 8.89 48.002 0.062 6.42 1.39 11.32
4/8/2021 6:30:00 AM 8.83 47.894 0.062 6.41 1.44 11.34
4/8/2021 6:45:00 AM 8.79 47.822 0.062 6.43 1.43 11.36
4/8/2021 7:00:00 AM 8.75 47.75 0.062 6.43 1.6 11.39
4/8/2021 7:15:00 AM 8.7 47.66 0.062 6.43 1.48 11.4
4/8/2021 7:30:00 AM 8.66 47.588 0.062 6.35 1.45 11.44
4/8/2021 7:45:00 AM 8.62 47.516 0.062 6.44 1.4 11.45
4/8/2021 8:00:00 AM 8.6 47.48 0.062 6.45 1.43 11.48
4/8/2021 8:15:00 AM 8.63 47.534 0.062 6.35 1.73 11.5
4/8/2021 8:30:00 AM 8.66 47.588 0.062 6.46 1.61 11.53
4/8/2021 8:45:00 AM 8.7 47.66 0.062 6.47 205.61 11.55
4/8/2021 9:00:00 AM 8.75 47.75 0.062 6.47 1.55 11.57
4/8/2021 9:15:00 AM 8.84 47.912 0.062 6.47 1.41 11.55
4/8/2021 9:30:00 AM 8.95 48.11 0.062 6.43 2.05 11.54
4/8/2021 9:45:00 AM 9.09 48.362 0.062 6.46 7.66 11.5
4/8/2021 10:00:00 AM 9.27 48.686 0.062 6.47 3.3 11.49
4/8/2021 10:15:00 AM 9.45 49.01 0.062 6.49 1.77 11.48
4/8/2021 10:30:00 AM 9.64 49.352 0.062 6.48 2.87 11.43
4/8/2021 10:45:00 AM 9.82 49.676 0.062 6.42 1.67 11.4
4/8/2021 11:00:00 AM 10.01 50.018 0.062 6.51 1.52 11.37
4/8/2021 11:15:00 AM 10.23 50.414 0.062 6.51 1.61 11.3
4/8/2021 11:30:00 AM 10.43 50.774 0.062 6.48 1.48 11.26
4/8/2021 11:45:00 AM 10.67 51.206 0.063 6.49 2.9 11.22
4/8/2021 12:00:00 PM 10.88 51.584 0.063 6.52 1.44 11.15
4/8/2021 12:15:00 PM 11.09 51.962 0.063 6.51 1.46 11.1
4/8/2021 12:30:00 PM 11.29 52.322 0.063 6.52 2.7 11.06
4/8/2021 12:45:00 PM 11.5 52.7 0.063 6.49 2.63 10.97
4/8/2021 1:00:00 PM 11.69 53.042 0.063 6.49 2.65 10.94
4/8/2021 1:15:00 PM 11.86 53.348 0.063 6.49 2.72 10.89
4/8/2021 1:30:00 PM 12.03 53.654 0.063 6.5 2.73 10.85
4/8/2021 1:45:00 PM 12.19 53.942 0.063 6.53 1.41 10.8
4/8/2021 2:00:00 PM 12.32 54.176 0.063 6.49 2.67 10.75
4/8/2021 2:15:00 PM 12.44 54.392 0.063 6.49 1.88 10.73
4/8/2021 2:30:00 PM 12.56 54.608 0.063 6.51 2.69 10.68
4/8/2021 2:45:00 PM 12.67 54.806 0.063 6.42 2.59 10.64
4/8/2021 3:00:00 PM 12.75 54.95 0.063 6.51 2.77 10.6
4/8/2021 3:15:00 PM 12.82 55.076 0.063 6.41 2.74 10.57
4/8/2021 3:30:00 PM 12.89 55.202 0.063 6.53 1.28 10.55
4/8/2021 3:45:00 PM 12.94 55.292 0.063 6.5 2.61 10.53
4/8/2021 4:00:00 PM 12.96 55.328 0.063 6.5 1.94 10.52
4/8/2021 4:15:00 PM 12.97 55.346 0.063 6.49 2.85 10.5
4/8/2021 4:30:00 PM 12.98 55.364 0.063 6.41 2.94 10.48
4/8/2021 4:45:00 PM 12.96 55.328 0.063 6.5 3.85 10.47
4/8/2021 5:00:00 PM 12.92 55.256 0.063 6.49 3.07 10.46
4/8/2021 5:15:00 PM 12.89 55.202 0.063 6.52 2.7 10.42
4/8/2021 5:30:00 PM 12.85 55.13 0.063 6.51 2.59 10.42
4/8/2021 5:45:00 PM 12.81 55.058 0.063 6.48 2.64 10.42
4/8/2021 6:00:00 PM 12.77 54.986 0.063 6.48 2.83 10.41
4/8/2021 6:15:00 PM 12.72 54.896 0.063 6.49 2.7 10.41
4/8/2021 6:30:00 PM 12.66 54.788 0.063 6.49 1.66 10.41
4/8/2021 6:45:00 PM 12.59 54.662 0.063 6.48 2.54 10.44
4/8/2021 7:00:00 PM 12.51 54.518 0.063 6.48 2.62 10.44
4/8/2021 7:15:00 PM 12.43 54.374 0.063 6.45 2 10.45
4/8/2021 7:30:00 PM 12.34 54.212 0.063 6.48 2.69 10.46
4/8/2021 7:45:00 PM 12.25 54.05 0.063 6.45 2.85 10.44
4/8/2021 8:00:00 PM 12.16 53.888 0.063 6.48 1.71 10.45
4/8/2021 8:15:00 PM 12.06 53.708 0.063 6.38 3.26 10.46
4/8/2021 8:30:00 PM 11.97 53.546 0.063 6.46 2.07 10.48
4/8/2021 8:45:00 PM 11.88 53.384 0.063 6.46 2.76 10.51
4/8/2021 9:00:00 PM 11.79 53.222 0.063 6.47 1.88 10.53
4/8/2021 9:15:00 PM 11.71 53.078 0.063 6.43 3.03 10.54
4/8/2021 9:30:00 PM 11.63 52.934 0.063 6.47 3.55 10.57
4/8/2021 9:45:00 PM 11.55 52.79 0.063 6.45 3.19 10.58
4/8/2021 10:00:00 PM 11.49 52.682 0.063 6.47 1.8 10.6
4/8/2021 10:15:00 PM 11.42 52.556 0.063 6.45 2.99 10.62
4/8/2021 10:30:00 PM 11.36 52.448 0.063 6.46 3.13 10.64
4/8/2021 10:45:00 PM 11.3 52.34 0.063 6.44 3.1 10.66
4/8/2021 11:00:00 PM 11.24 52.232 0.063 6.46 3.07 10.68
4/8/2021 11:15:00 PM 11.18 52.124 0.063 6.48 3.05 10.7
4/8/2021 11:30:00 PM 11.12 52.016 0.063 6.45 3.07 10.71
4/8/2021 11:45:00 PM 11.07 51.926 0.063 6.46 3.23 10.72
4/9/2021 12:00:00 AM 11.02 51.836 0.063 6.45 3.35 10.71
4/9/2021 12:15:00 AM 10.98 51.764 0.063 6.45 2.93 10.73
4/9/2021 12:30:00 AM 10.95 51.71 0.063 6.47 1.96 10.75
4/9/2021 12:45:00 AM 10.91 51.638 0.063 6.44 3.09 10.76
4/9/2021 1:00:00 AM 10.86 51.548 0.063 6.41 1.56 10.78
4/9/2021 1:15:00 AM 10.82 51.476 0.063 6.46 2.99 10.79
4/9/2021 1:30:00 AM 10.78 51.404 0.063 6.48 1.73 10.8
4/9/2021 1:45:00 AM 10.74 51.332 0.063 6.44 1.96 10.82
4/9/2021 2:00:00 AM 10.71 51.278 0.063 6.45 2.75 10.82
4/9/2021 2:15:00 AM 10.67 51.206 0.063 6.45 2.6 10.84
4/9/2021 2:30:00 AM 10.64 51.152 0.063 6.45 2.69 10.85
4/9/2021 2:45:00 AM 10.61 51.098 0.063 6.46 1.54 10.86
4/9/2021 3:00:00 AM 10.58 51.044 0.063 6.47 1.54 10.86
4/9/2021 3:15:00 AM 10.55 50.99 0.063 6.46 1.57 10.88
4/9/2021 3:30:00 AM 10.52 50.936 0.063 6.48 1.41 10.88
4/9/2021 3:45:00 AM 10.49 50.882 0.063 6.45 2.82 10.88
4/9/2021 4:00:00 AM 10.47 50.846 0.063 6.45 1.63 10.89
4/9/2021 4:15:00 AM 10.44 50.792 0.063 6.47 1.47 10.89
4/9/2021 4:30:00 AM 10.42 50.756 0.063 6.48 1.47 10.89
4/9/2021 4:45:00 AM 10.39 50.702 0.063 6.45 2.71 10.89
4/9/2021 5:00:00 AM 10.36 50.648 0.063 6.48 1.38 10.9
4/9/2021 5:15:00 AM 10.34 50.612 0.063 6.45 1.49 10.91
4/9/2021 5:30:00 AM 10.31 50.558 0.063 6.48 1.5 10.92
4/9/2021 5:45:00 AM 10.29 50.522 0.063 6.48 1.31 10.92
4/9/2021 6:00:00 AM 10.27 50.486 0.063 6.4 1.39 10.93
4/9/2021 6:15:00 AM 10.25 50.45 0.063 6.48 1.37 10.94
4/9/2021 6:30:00 AM 10.23 50.414 0.063 6.34 2.9 10.94
4/9/2021 6:45:00 AM 10.21 50.378 0.063 6.47 1.57 10.97
4/9/2021 7:00:00 AM 10.19 50.342 0.063 6.47 1.49 10.98
4/9/2021 7:15:00 AM 10.17 50.306 0.063 6.45 2.82 10.96
4/9/2021 7:30:00 AM 10.15 50.27 0.063 6.47 1.45 10.99
4/9/2021 7:45:00 AM 10.14 50.252 0.063 6.47 1.51 10.99
4/9/2021 8:00:00 AM 10.12 50.216 0.063 6.47 2.62 11.03
4/9/2021 8:15:00 AM 10.11 50.198 0.063 6.47 1.42 11.04
4/9/2021 8:30:00 AM 10.1 50.18 0.063 6.48 2.68 11.06
4/9/2021 8:45:00 AM 10.09 50.162 0.063 6.44 2.64 11.07
4/9/2021 9:00:00 AM 10.09 50.162 0.063 6.49 1.3 11.1
4/9/2021 9:15:00 AM 10.1 50.18 0.063 6.43 1.34 11.11
4/9/2021 9:30:00 AM 10.1 50.18 0.063 6.48 1.29 11.1
4/9/2021 9:45:00 AM 10.1 50.18 0.063 6.49 1.29 11.13
4/9/2021 10:00:00 AM 10.13 50.234 0.063 6.48 2.65 11.14
4/9/2021 10:15:00 AM 10.14 50.252 0.063 6.5 1.45 11.14
4/9/2021 10:30:00 AM 10.17 50.306 0.063 6.51 2.83 11.14
4/9/2021 10:45:00 AM 10.2 50.36 0.063 6.48 2.79 11.15
4/9/2021 11:00:00 AM 10.21 50.378 0.063 6.51 1.41 11.15
4/9/2021 11:15:00 AM 10.25 50.45 0.063 6.52 1.35 11.14
4/9/2021 11:30:00 AM 10.29 50.522 0.063 6.49 2.78 11.13
4/9/2021 11:45:00 AM 10.32 50.576 0.063 6.49 2.49 11.12
4/9/2021 12:00:00 PM 10.37 50.666 0.063 6.52 1.35 11.13
4/9/2021 12:15:00 PM 10.41 50.738 0.063 6.5 1.34 11.11
4/9/2021 12:30:00 PM 10.47 50.846 0.063 6.52 2.56 11.12
4/9/2021 12:45:00 PM 10.49 50.882 0.063 6.46 2.54 11.11
4/9/2021 1:00:00 PM 10.52 50.936 0.063 6.52 1.27 11.11
4/9/2021 1:15:00 PM 10.54 50.972 0.063 6.52 1.39 11.09
4/9/2021 1:30:00 PM 10.54 50.972 0.063 6.49 1.25 11.09
4/9/2021 1:45:00 PM 10.55 50.99 0.063 6.52 1.36 11.07
4/9/2021 2:00:00 PM 10.56 51.008 0.063 6.48 2.55 11.09
4/9/2021 2:15:00 PM 10.59 51.062 0.063 6.48 2.63 11.08
4/9/2021 2:30:00 PM 10.61 51.098 0.063 6.48 1.28 11.09
4/9/2021 2:45:00 PM 10.63 51.134 0.063 6.53 1.37 11.08
4/9/2021 3:00:00 PM 10.68 51.224 0.063 6.48 2.52 11.07
4/9/2021 3:15:00 PM 10.76 51.368 0.064 6.53 1.32 11.06
4/9/2021 3:30:00 PM 10.85 51.53 0.063 6.53 1.33 11.04
4/9/2021 3:45:00 PM 10.89 51.602 0.063 6.53 1.3 11.02
4/9/2021 4:00:00 PM 10.93 51.674 0.064 6.53 1.34 11
4/9/2021 4:15:00 PM 10.98 51.764 0.063 6.48 2.55 10.99
4/9/2021 4:30:00 PM 10.99 51.782 0.064 6.53 1.31 10.97
4/9/2021 4:45:00 PM 10.98 51.764 0.064 6.53 1.29 10.96
4/9/2021 5:00:00 PM 10.99 51.782 0.064 6.47 1.37 10.96
4/9/2021 5:15:00 PM 10.98 51.764 0.064 6.52 1.32 10.95
4/9/2021 5:30:00 PM 10.97 51.746 0.064 6.52 1.26 10.94
4/9/2021 5:45:00 PM 10.96 51.728 0.064 6.52 1.28 10.93
4/9/2021 6:00:00 PM 10.96 51.728 0.064 6.49 2.61 10.93
4/9/2021 6:15:00 PM 10.95 51.71 0.064 6.52 1.58 10.93
4/9/2021 6:30:00 PM 10.93 51.674 0.064 6.35 2.6 10.92
4/9/2021 6:45:00 PM 10.89 51.602 0.064 6.51 1.33 10.9
4/9/2021 7:00:00 PM 10.86 51.548 0.064 6.5 2.48 10.88
4/9/2021 7:15:00 PM 10.82 51.476 0.064 6.46 1.36 10.87
4/9/2021 7:30:00 PM 10.78 51.404 0.064 6.47 2.59 10.87
4/9/2021 7:45:00 PM 10.74 51.332 0.064 6.49 2.68 10.87
4/9/2021 8:00:00 PM 10.7 51.26 0.064 6.44 1.25 10.86
4/9/2021 8:15:00 PM 10.67 51.206 0.064 6.48 2.63 10.88
4/9/2021 8:30:00 PM 10.64 51.152 0.064 6.43 1.34 10.87
4/9/2021 8:45:00 PM 10.62 51.116 0.064 6.47 1.38 10.87
4/9/2021 9:00:00 PM 10.59 51.062 0.064 6.49 1.44 10.89
4/9/2021 9:15:00 PM 10.55 50.99 0.064 6.49 1.35 10.89
4/9/2021 9:30:00 PM 10.52 50.936 0.064 6.46 2.92 10.88
4/9/2021 9:45:00 PM 10.5 50.9 0.064 6.49 1.36 10.9
4/9/2021 10:00:00 PM 10.48 50.864 0.064 6.46 2.7 10.91
4/9/2021 10:15:00 PM 10.45 50.81 0.064 6.43 1.42 10.91
4/9/2021 10:30:00 PM 10.43 50.774 0.064 6.44 1.38 10.91
4/9/2021 10:45:00 PM 10.41 50.738 0.064 6.47 2.73 10.91
4/9/2021 11:00:00 PM 10.39 50.702 0.064 6.44 1.43 10.9
4/9/2021 11:15:00 PM 10.36 50.648 0.064 6.47 2.65 10.91
4/9/2021 11:30:00 PM 10.34 50.612 0.064 6.46 2.67 10.91
4/9/2021 11:45:00 PM 10.32 50.576 0.064 6.42 1.39 10.92
4/10/2021 12:00:00 AM 10.3 50.54 0.064 6.47 2.89 10.93
4/10/2021 12:15:00 AM 10.28 50.504 0.064 6.49 1.34 10.93
4/10/2021 12:30:00 AM 10.27 50.486 0.064 6.32 2.69 10.93
4/10/2021 12:45:00 AM 10.24 50.432 0.064 6.48 1.34 10.95
4/10/2021 1:00:00 AM 10.23 50.414 0.064 6.48 1.36 10.96
4/10/2021 1:15:00 AM 10.21 50.378 0.064 6.48 1.32 10.96
4/10/2021 1:30:00 AM 10.19 50.342 0.064 6.47 1.29 10.97
4/10/2021 1:45:00 AM 10.17 50.306 0.064 6.4 1.41 10.98
4/10/2021 2:00:00 AM 10.15 50.27 0.064 6.46 2.65 10.97
4/10/2021 2:15:00 AM 10.13 50.234 0.064 6.48 1.33 11
4/10/2021 2:30:00 AM 10.12 50.216 0.064 6.47 1.3 10.99
4/10/2021 2:45:00 AM 10.1 50.18 0.064 6.47 1.28 11
4/10/2021 3:00:00 AM 10.08 50.144 0.064 6.47 1.33 11
4/10/2021 3:15:00 AM 10.07 50.126 0.064 6.45 2.64 11.01
4/10/2021 3:30:00 AM 10.06 50.108 0.064 6.47 1.27 11
4/10/2021 3:45:00 AM 10.04 50.072 0.064 6.48 1.38 10.96
4/10/2021 4:00:00 AM 10.04 50.072 0.064 6.48 1.35 11
4/10/2021 4:15:00 AM 10.03 50.054 0.065 6.48 1.28 11.01
4/10/2021 4:30:00 AM 10.01 50.018 0.065 6.47 1.31 10.99
4/10/2021 4:45:00 AM 10 50 0.065 6.38 1.33 11
4/10/2021 5:00:00 AM 9.99 49.982 0.065 6.48 1.36 11.02
4/10/2021 5:15:00 AM 9.99 49.982 0.065 6.4 1.39 11.01
4/10/2021 5:30:00 AM 9.97 49.946 0.065 6.46 1.45 11
4/10/2021 5:45:00 AM 9.96 49.928 0.065 6.48 1.35 10.95
4/10/2021 6:00:00 AM 9.95 49.91 0.065 6.47 1.34 11
4/10/2021 6:15:00 AM 9.93 49.874 0.065 6.47 1.27 11.03
4/10/2021 6:30:00 AM 9.91 49.838 0.065 6.44 3.09 11.01
4/10/2021 6:45:00 AM 9.9 49.82 0.065 6.47 1.34 11.02
4/10/2021 7:00:00 AM 9.9 49.82 0.064 6.41 2.57 11.03
4/10/2021 7:15:00 AM 9.9 49.82 0.065 6.46 1.32 11.03
4/10/2021 7:30:00 AM 9.9 49.82 0.065 6.48 1.33 11.06
4/10/2021 7:45:00 AM 9.91 49.838 0.064 6.41 1.3 11.07
4/10/2021 8:00:00 AM 9.93 49.874 0.064 6.48 2.53 11.11
4/10/2021 8:15:00 AM 9.95 49.91 0.064 6.48 1.34 11.12
4/10/2021 8:30:00 AM 9.97 49.946 0.064 6.51 1.46 11.14
4/10/2021 8:45:00 AM 10.01 50.018 0.064 6.47 2.55 11.13
4/10/2021 9:00:00 AM 10.05 50.09 0.064 6.53 1.25 11.17
4/10/2021 9:15:00 AM 10.09 50.162 0.064 6.5 2.55 11.17
4/10/2021 9:30:00 AM 10.15 50.27 0.064 6.52 1.28 11.15
4/10/2021 9:45:00 AM 10.22 50.396 0.064 6.52 1.19 11.14
4/10/2021 10:00:00 AM 10.32 50.576 0.064 6.51 2.49 11.12
4/10/2021 10:15:00 AM 10.41 50.738 0.064 6.53 1.26 11.11
4/10/2021 10:30:00 AM 10.59 51.062 0.064 6.55 1.58 11.14
4/10/2021 10:45:00 AM 10.82 51.476 0.064 6.53 1.24 11.09
4/10/2021 11:00:00 AM 11.02 51.836 0.064 6.55 1.19 11.03
4/10/2021 11:15:00 AM 11.2 52.16 0.064 6.47 1.55 11.01
4/10/2021 11:30:00 AM 11.38 52.484 0.064 6.55 1.21 10.98
4/10/2021 11:45:00 AM 11.56 52.808 0.064 6.53 2.34 10.92
4/10/2021 12:00:00 PM 11.75 53.15 0.064 6.52 2.43 10.89
4/10/2021 12:15:00 PM 11.96 53.528 0.065 6.55 1.19 10.85
4/10/2021 12:30:00 PM 12.17 53.906 0.064 6.52 2.43 10.78
4/10/2021 12:45:00 PM 12.34 54.212 0.065 6.55 1.12 10.75
4/10/2021 1:00:00 PM 12.52 54.536 0.065 6.53 2.64 10.7
4/10/2021 1:15:00 PM 12.7 54.86 0.065 6.52 2.34 10.64
4/10/2021 1:30:00 PM 12.83 55.094 0.065 6.55 1.15 10.59
4/10/2021 1:45:00 PM 12.93 55.274 0.065 6.56 1.12 10.59
4/10/2021 2:00:00 PM 13.03 55.454 0.065 6.56 1.22 10.55
4/10/2021 2:15:00 PM 13.15 55.67 0.065 6.5 2.68 10.52
4/10/2021 2:30:00 PM 13.26 55.868 0.065 6.54 2.11 10.47
4/10/2021 2:45:00 PM 13.31 55.958 0.065 6.53 2.3 10.46
4/10/2021 3:00:00 PM 13.37 56.066 0.065 6.53 2.42 10.44
4/10/2021 3:15:00 PM 13.42 56.156 0.065 6.53 2.21 10.42
4/10/2021 3:30:00 PM 13.47 56.246 0.065 6.38 2.38 10.39
4/10/2021 3:45:00 PM 13.53 56.354 0.065 6.54 2.25 10.38
4/10/2021 4:00:00 PM 13.55 56.39 0.065 6.49 1.09 10.37
4/10/2021 4:15:00 PM 13.55 56.39 0.065 6.54 1.15 10.32
4/10/2021 4:30:00 PM 13.54 56.372 0.065 6.56 1.09 10.31
4/10/2021 4:45:00 PM 13.52 56.336 0.065 6.53 2.51 10.32
4/10/2021 5:00:00 PM 13.49 56.282 0.065 6.52 2.31 10.3
4/10/2021 5:15:00 PM 13.47 56.246 0.065 6.53 1.56 10.3
4/10/2021 5:30:00 PM 13.44 56.192 0.065 6.53 2.34 10.28
4/10/2021 5:45:00 PM 13.4 56.12 0.065 6.55 1.11 10.27
4/10/2021 6:00:00 PM 13.34 56.012 0.065 6.52 1.63 10.28
4/10/2021 6:15:00 PM 13.28 55.904 0.065 6.52 2.38 10.29
4/10/2021 6:30:00 PM 13.21 55.778 0.065 6.52 2.4 10.29
4/10/2021 6:45:00 PM 13.12 55.616 0.065 6.54 1.12 10.28
4/10/2021 7:00:00 PM 13.03 55.454 0.065 6.52 2.33 10.28
4/10/2021 7:15:00 PM 12.93 55.274 0.065 6.37 2.38 10.29
4/10/2021 7:30:00 PM 12.83 55.094 0.065 6.51 2.38 10.26
4/10/2021 7:45:00 PM 12.73 54.914 0.065 6.52 2.49 10.27
4/10/2021 8:00:00 PM 12.63 54.734 0.065 6.49 2.95 10.25
4/10/2021 8:15:00 PM 12.54 54.572 0.065 6.48 2.84 10.26
4/10/2021 8:30:00 PM 12.45 54.41 0.065 6.51 2.71 10.3
4/10/2021 8:45:00 PM 12.37 54.266 0.065 6.47 2.74 10.29
4/10/2021 9:00:00 PM 12.3 54.14 0.066 6.36 2.67 10.3
4/10/2021 9:15:00 PM 12.25 54.05 0.065 6.49 2.73 10.32
4/10/2021 9:30:00 PM 12.19 53.942 0.066 6.47 2.72 10.33
4/10/2021 9:45:00 PM 12.13 53.834 0.066 6.47 2.75 10.33
4/10/2021 10:00:00 PM 12.08 53.744 0.065 6.48 2.81 10.35
4/10/2021 10:15:00 PM 12.04 53.672 0.065 6.44 2.67 10.35
4/10/2021 10:30:00 PM 11.99 53.582 0.065 6.46 1.56 10.38
4/10/2021 10:45:00 PM 11.96 53.528 0.065 6.48 2.72 10.42
4/10/2021 11:00:00 PM 11.92 53.456 0.065 6.51 2.92 10.41
4/10/2021 11:15:00 PM 11.87 53.366 0.065 6.52 2.6 10.41
4/10/2021 11:30:00 PM 11.84 53.312 0.065 6.44 2.66 10.43
4/10/2021 11:45:00 PM 11.81 53.258 0.065 6.48 2.68 10.43
4/11/2021 12:00:00 AM 11.78 53.204 0.065 6.48 2.79 10.44
4/11/2021 12:15:00 AM 11.75 53.15 0.065 6.42 1.68 10.44
4/11/2021 12:30:00 AM 11.72 53.096 0.065 6.48 2.74 10.46
4/11/2021 12:45:00 AM 11.68 53.024 0.065 6.49 2.58 10.45
4/11/2021 1:00:00 AM 11.66 52.988 0.065 6.51 2.79 10.45
4/11/2021 1:15:00 AM 11.63 52.934 0.065 6.37 2.83 10.44
4/11/2021 1:30:00 AM 11.61 52.898 0.065 6.5 1.73 10.45
4/11/2021 1:45:00 AM 11.59 52.862 0.065 6.48 2.7 10.44
4/11/2021 2:00:00 AM 11.57 52.826 0.065 6.5 1.48 10.41
4/11/2021 2:15:00 AM 11.55 52.79 0.065 6.45 2.71 10.45
4/11/2021 2:30:00 AM 11.53 52.754 0.065 6.49 2.65 10.46
4/11/2021 2:45:00 AM 11.51 52.718 0.065 6.5 1.37 10.46
4/11/2021 3:00:00 AM 11.48 52.664 0.065 6.5 7.76 10.45
4/11/2021 3:15:00 AM 11.46 52.628 0.065 6.46 3.52 10.47
4/11/2021 3:30:00 AM 11.44 52.592 0.065 6.47 3.19 10.47
4/11/2021 3:45:00 AM 11.41 52.538 0.065 6.5 1.81 10.47
4/11/2021 4:00:00 AM 11.38 52.484 0.065 6.36 3.27 10.49
4/11/2021 4:15:00 AM 11.36 52.448 0.065 6.47 3.73 10.5
4/11/2021 4:30:00 AM 11.34 52.412 0.065 6.47 3.2 10.5
4/11/2021 4:45:00 AM 11.32 52.376 0.065 6.46 3 10.5
4/11/2021 5:00:00 AM 11.32 52.376 0.065 6.46 3.11 10.49
4/11/2021 5:15:00 AM 11.31 52.358 0.065 6.41 2.95 10.48
4/11/2021 5:30:00 AM 11.31 52.358 0.065 6.48 3.18 10.48
4/11/2021 5:45:00 AM 11.28 52.304 0.065 6.5 2.53 10.5
4/11/2021 6:00:00 AM 11.27 52.286 0.065 6.49 3.22 10.5
4/11/2021 6:15:00 AM 11.26 52.268 0.065 6.49 1.96 10.49
4/11/2021 6:30:00 AM 11.25 52.25 0.064 6.49 2.18 10.5
4/11/2021 6:45:00 AM 11.24 52.232 0.064 6.48 1.96 10.52
4/11/2021 7:00:00 AM 11.24 52.232 0.064 6.5 3.19 10.52
4/11/2021 7:15:00 AM 11.23 52.214 0.064 6.49 1.91 10.52
4/11/2021 7:30:00 AM 11.22 52.196 0.064 6.49 2.25 10.53
4/11/2021 7:45:00 AM 11.22 52.196 0.064 6.46 2.42 10.56
4/11/2021 8:00:00 AM 11.22 52.196 0.064 6.51 3.49 10.56
4/11/2021 8:15:00 AM 11.21 52.178 0.064 6.51 2.47 10.55
4/11/2021 8:30:00 AM 11.21 52.178 0.064 6.51 2.8 10.57
4/11/2021 8:45:00 AM 11.19 52.142 0.064 6.52 3.02 10.59
4/11/2021 9:00:00 AM 11.2 52.16 0.063 6.54 4.95 10.61
4/11/2021 9:15:00 AM 11.21 52.178 0.063 6.43 3.41 10.63
4/11/2021 9:30:00 AM 11.21 52.178 0.063 6.56 3.65 10.66
4/11/2021 9:45:00 AM 11.21 52.178 0.063 6.55 4.98 10.68
4/11/2021 10:00:00 AM 11.21 52.178 0.063 6.55 3.76 10.68
4/11/2021 10:15:00 AM 11.21 52.178 0.063 6.56 5.01 10.7
4/11/2021 10:30:00 AM 11.24 52.232 0.063 6.55 4.12 10.71
4/11/2021 10:45:00 AM 11.29 52.322 0.064 6.56 4.12 10.73
4/11/2021 11:00:00 AM 11.38 52.484 0.064 6.57 4.58 10.74
4/11/2021 11:15:00 AM 11.47 52.646 0.064 6.55 6.5 10.72
4/11/2021 11:30:00 AM 11.52 52.736 0.064 6.55 7.34 10.71
4/11/2021 11:45:00 AM 11.57 52.826 0.064 6.55 7.26 10.7
4/11/2021 12:00:00 PM 11.64 52.952 0.065 6.57 7.88 10.68
4/11/2021 12:15:00 PM 11.72 53.096 0.065 6.53 7.52 10.69
4/11/2021 12:30:00 PM 11.83 53.294 0.066 6.57 6.08 10.67
4/11/2021 12:45:00 PM 11.94 53.492 0.066 6.47 7.23 10.65
4/11/2021 1:00:00 PM 12.09 53.762 0.067 6.53 9.57 10.6
4/11/2021 1:15:00 PM 12.17 53.906 0.067 6.55 5.65 10.57
4/11/2021 1:30:00 PM 12.35 54.23 0.068 6.54 8.43 10.55
4/11/2021 1:45:00 PM 12.48 54.464 0.068 6.53 5.63 10.5
4/11/2021 2:00:00 PM 12.47 54.446 0.068 6.5 6.87 10.47
4/11/2021 2:15:00 PM 12.46 54.428 0.069 6.51 6.88 10.44
4/11/2021 2:30:00 PM 12.5 54.5 0.069 6.5 4.75 10.44
4/11/2021 2:45:00 PM 12.46 54.428 0.069 6.49 5.69 10.44
4/11/2021 3:00:00 PM 12.38 54.284 0.069 6.35 5.47 10.43
4/11/2021 3:15:00 PM 12.31 54.158 0.069 6.5 5.04 10.42
4/11/2021 3:30:00 PM 12.26 54.068 0.069 6.45 5.15 10.44
4/11/2021 3:45:00 PM 12.26 54.068 0.069 6.51 4.71 10.47
4/11/2021 4:00:00 PM 12.34 54.212 0.069 6.47 4.56 10.5
4/11/2021 4:15:00 PM 12.32 54.176 0.069 6.51 4.35 10.51
4/11/2021 4:30:00 PM 12.33 54.194 0.069 6.51 4.77 10.5
4/11/2021 4:45:00 PM 12.36 54.248 0.069 6.47 4.46 10.48
4/11/2021 5:00:00 PM 12.32 54.176 0.069 6.47 4.09 10.48
4/11/2021 5:15:00 PM 12.33 54.194 0.069 6.46 50.57 10.48
4/11/2021 5:30:00 PM 12.33 54.194 0.068 6.48 4.29 10.48
4/11/2021 5:45:00 PM 12.33 54.194 0.068 6.48 3.79 10.48
4/11/2021 6:00:00 PM 12.34 54.212 0.068 6.49 3.75 10.48
4/11/2021 6:15:00 PM 12.35 54.23 0.068 6.47 3.93 10.46
4/11/2021 6:30:00 PM 12.32 54.176 0.068 6.45 3.81 10.45
4/11/2021 6:45:00 PM 12.3 54.14 0.068 6.47 3.69 10.43
4/11/2021 7:00:00 PM 12.27 54.086 0.068 6.43 3.48 10.41
4/11/2021 7:15:00 PM 12.22 53.996 0.068 6.46 2.32 10.4
4/11/2021 7:30:00 PM 12.16 53.888 0.067 6.42 3.57 10.39
4/11/2021 7:45:00 PM 12.1 53.78 0.067 6.45 2.29 10.39
4/11/2021 8:00:00 PM 12.04 53.672 0.067 6.46 4.19 10.39
4/11/2021 8:15:00 PM 11.98 53.564 0.067 6.43 4.18 10.42
4/11/2021 8:30:00 PM 11.92 53.456 0.066 6.42 4.34 10.43
4/11/2021 8:45:00 PM 11.86 53.348 0.066 6.44 2.98 10.44
4/11/2021 9:00:00 PM 11.8 53.24 0.066 6.44 2.81 10.46
4/11/2021 9:15:00 PM 11.75 53.15 0.066 6.44 3.12 10.47
4/11/2021 9:30:00 PM 11.7 53.06 0.066 6.43 4.27 10.49
4/11/2021 9:45:00 PM 11.65 52.97 0.066 6.41 6.45 10.49
4/11/2021 10:00:00 PM 11.59 52.862 0.065 6.43 5.59 10.52
4/11/2021 10:15:00 PM 11.55 52.79 0.065 6.42 6.14 10.53
4/11/2021 10:30:00 PM 11.5 52.7 0.065 6.4 7.51 10.54
4/11/2021 10:45:00 PM 11.46 52.628 0.065 6.4 9.7 10.56
4/11/2021 11:00:00 PM 11.42 52.556 0.065 6.42 11.15 10.58
4/11/2021 11:15:00 PM 11.38 52.484 0.064 6.33 9.74 10.59
4/11/2021 11:30:00 PM 11.34 52.412 0.064 6.25 8.17 10.61
4/11/2021 11:45:00 PM 11.31 52.358 0.064 6.35 9.75 10.63
4/12/2021 12:00:00 AM 11.27 52.286 0.065 6.35 12 10.64
4/12/2021 12:15:00 AM 11.24 52.232 0.065 6.34 12.59 10.65
4/12/2021 12:30:00 AM 11.2 52.16 0.066 6.35 11.74 10.66
4/12/2021 12:45:00 AM 11.16 52.088 0.066 6.38 9.81 10.67
4/12/2021 1:00:00 AM 11.13 52.034 0.066 6.35 9.32 10.69
4/12/2021 1:15:00 AM 11.09 51.962 0.066 6.36 8.48 10.69
4/12/2021 1:30:00 AM 11.05 51.89 0.066 6.39 7.7 10.69
4/12/2021 1:45:00 AM 11.02 51.836 0.066 6.36 7.02 10.68
4/12/2021 2:00:00 AM 10.97 51.746 0.066 6.37 6.74 10.69
4/12/2021 2:15:00 AM 10.92 51.656 0.066 6.36 6.57 10.71
4/12/2021 2:30:00 AM 10.88 51.584 0.067 6.39 5.18 10.72
4/12/2021 2:45:00 AM 10.84 51.512 0.067 6.39 4.84 10.73
4/12/2021 3:00:00 AM 10.79 51.422 0.067 6.36 5.93 10.74
4/12/2021 3:15:00 AM 10.75 51.35 0.067 6.34 5.33 10.76
4/12/2021 3:30:00 AM 10.69 51.242 0.066 6.38 4.57 10.77
4/12/2021 3:45:00 AM 10.64 51.152 0.066 6.38 4.03 10.79
4/12/2021 4:00:00 AM 10.59 51.062 0.066 6.38 5.42 10.81
4/12/2021 4:15:00 AM 10.53 50.954 0.066 6.38 3.59 10.81
4/12/2021 4:30:00 AM 10.48 50.864 0.066 6.38 4.7 10.82
4/12/2021 4:45:00 AM 10.45 50.81 0.066 6.38 4.76 10.82
4/12/2021 5:00:00 AM 10.42 50.756 0.066 6.27 3.34 10.83
4/12/2021 5:15:00 AM 10.39 50.702 0.065 6.37 4.62 10.83
4/12/2021 5:30:00 AM 10.36 50.648 0.065 6.38 3.08 10.84
4/12/2021 5:45:00 AM 10.32 50.576 0.065 6.39 3.17 10.85
4/12/2021 6:00:00 AM 10.28 50.504 0.065 6.2 4.07 10.86
4/12/2021 6:15:00 AM 10.24 50.432 0.065 6.38 3.05 10.88
4/12/2021 6:30:00 AM 10.19 50.342 0.065 6.38 2.87 10.9
4/12/2021 6:45:00 AM 10.16 50.288 0.065 6.37 2.93 10.92
4/12/2021 7:00:00 AM 10.13 50.234 0.065 6.39 2.86 10.93
4/12/2021 7:15:00 AM 10.1 50.18 0.065 6.38 2.77 10.95
4/12/2021 7:30:00 AM 10.08 50.144 0.064 6.39 4.15 10.96
4/12/2021 7:45:00 AM 10.05 50.09 0.064 6.39 4.53 10.99
4/12/2021 8:00:00 AM 10.03 50.054 0.064 6.39 2.55 11
4/12/2021 8:15:00 AM 10 50 0.064 6.39 5.69 11.03
4/12/2021 8:30:00 AM 9.99 49.982 0.064 6.41 2.62 11.05
4/12/2021 8:45:00 AM 9.97 49.946 0.064 6.39 2.54 11.06
4/12/2021 9:00:00 AM 9.96 49.928 0.064 6.41 2.51 11.07
4/12/2021 9:15:00 AM 9.95 49.91 0.064 6.41 2.51 11.08
4/12/2021 9:30:00 AM 9.94 49.892 0.064 6.41 2.3 11.08
4/12/2021 9:45:00 AM 9.95 49.91 0.064 6.42 2.37 11.09
4/12/2021 10:00:00 AM 9.94 49.892 0.064 6.42 3.83 11.1
4/12/2021 10:15:00 AM 9.94 49.892 0.064 6.39 3.61 11.11
4/12/2021 10:30:00 AM 9.95 49.91 0.064 6.42 2.2 11.11
4/12/2021 10:45:00 AM 9.98 49.964 0.064 6.39 2.28 11.13
4/12/2021 11:00:00 AM 10.03 50.054 0.064 6.44 2.24 11.13
4/12/2021 11:15:00 AM 10.13 50.234 0.064 6.44 2.24 11.13
4/12/2021 11:30:00 AM 10.21 50.378 0.063 6.42 3.54 11.1
4/12/2021 11:45:00 AM 10.3 50.54 0.064 6.45 2.19 11.07
4/12/2021 12:00:00 PM 10.32 50.576 0.063 6.45 2.08 11.06
4/12/2021 12:15:00 PM 10.36 50.648 0.063 6.42 3.4 11.04
4/12/2021 12:30:00 PM 10.38 50.684 0.063 6.45 1.94 11.03
4/12/2021 12:45:00 PM 10.36 50.648 0.063 6.47 3.51 11.02
4/12/2021 1:00:00 PM 10.33 50.594 0.063 6.33 2.04 11
4/12/2021 1:15:00 PM 10.3 50.54 0.063 6.46 2.07 11
4/12/2021 1:30:00 PM 10.29 50.522 0.063 6.45 1.91 11.01
4/12/2021 1:45:00 PM 10.3 50.54 0.063 6.45 2.03 11.03
4/12/2021 2:00:00 PM 10.33 50.594 0.063 6.46 3.43 11.04
4/12/2021 2:15:00 PM 10.35 50.63 0.063 6.45 2.03 11.03
4/12/2021 2:30:00 PM 10.37 50.666 0.062 6.46 2.12 11.03
4/12/2021 2:45:00 PM 10.38 50.684 0.062 6.47 7.93 11.02
4/12/2021 3:00:00 PM 10.4 50.72 0.062 6.46 2.18 11.02
4/12/2021 3:15:00 PM 10.41 50.738 0.062 6.46 3.53 11.01
4/12/2021 3:30:00 PM 10.42 50.756 0.062 6.47 2.08 11.02
4/12/2021 3:45:00 PM 10.45 50.81 0.062 6.49 3.43 11.02
4/12/2021 4:00:00 PM 10.47 50.846 0.062 6.48 2.5 11.02
4/12/2021 4:15:00 PM 10.52 50.936 0.062 6.48 3.57 11.03
4/12/2021 4:30:00 PM 10.58 51.044 0.062 6.47 2.25 11.03
4/12/2021 4:45:00 PM 10.59 51.062 0.062 6.47 2.28 11.02
4/12/2021 5:00:00 PM 10.59 51.062 0.062 6.41 2.21 10.98
4/12/2021 5:15:00 PM 10.54 50.972 0.062 6.45 4.19 10.96
4/12/2021 5:30:00 PM 10.52 50.936 0.062 6.45 3.02 10.97
4/12/2021 5:45:00 PM 10.52 50.936 0.062 6.45 2.89 10.98
4/12/2021 6:00:00 PM 10.5 50.9 0.062 6.45 3.09 10.99
4/12/2021 6:15:00 PM 10.47 50.846 0.062 6.4 2.7 10.99
4/12/2021 6:30:00 PM 10.44 50.792 0.062 6.44 2.86 10.97
4/12/2021 6:45:00 PM 10.42 50.756 0.062 6.44 2.85 10.97
4/12/2021 7:00:00 PM 10.39 50.702 0.062 6.44 3.18 10.98
4/12/2021 7:15:00 PM 10.36 50.648 0.062 6.45 3.14 10.98
4/12/2021 7:30:00 PM 10.32 50.576 0.062 6.43 4.78 10.98
4/12/2021 7:45:00 PM 10.29 50.522 0.062 6.45 3.01 10.98
4/12/2021 8:00:00 PM 10.25 50.45 0.061 6.45 3.08 10.98
4/12/2021 8:15:00 PM 10.22 50.396 0.061 6.44 3.17 10.98
4/12/2021 8:30:00 PM 10.2 50.36 0.061 6.44 3.09 10.99
4/12/2021 8:45:00 PM 10.17 50.306 0.062 6.4 4.09 11.01
4/12/2021 9:00:00 PM 10.14 50.252 0.062 6.39 3.58 11.02
4/12/2021 9:15:00 PM 10.11 50.198 0.062 6.42 3.02 11.03
4/12/2021 9:30:00 PM 10.09 50.162 0.062 6.42 2.95 11.04
4/12/2021 9:45:00 PM 10.05 50.09 0.062 6.42 3.25 11.05
4/12/2021 10:00:00 PM 10.02 50.036 0.062 6.42 4.39 11.06
4/12/2021 10:15:00 PM 10 50 0.062 6.41 3.23 11.07
4/12/2021 10:30:00 PM 9.98 49.964 0.062 6.4 2.75 11.08
4/12/2021 10:45:00 PM 9.95 49.91 0.062 6.4 2.96 11.08
4/12/2021 11:00:00 PM 9.93 49.874 0.062 6.41 4.08 11.09
4/12/2021 11:15:00 PM 9.91 49.838 0.062 6.36 4.08 11.1
4/12/2021 11:30:00 PM 9.88 49.784 0.062 6.39 2.57 11.1
4/12/2021 11:45:00 PM 9.85 49.73 0.062 6.4 2.57 11.1
4/13/2021 12:00:00 AM 9.82 49.676 0.062 6.4 2.51 11.11
4/13/2021 12:15:00 AM 9.8 49.64 0.062 6.4 13.41 11.11
4/13/2021 12:30:00 AM 9.77 49.586 0.062 6.39 2.41 11.12
4/13/2021 12:45:00 AM 9.75 49.55 0.062 6.39 2.63 11.12
4/13/2021 1:00:00 AM 9.73 49.514 0.062 6.38 2.64 11.13
4/13/2021 1:15:00 AM 9.71 49.478 0.062 6.39 2.45 11.13
4/13/2021 1:30:00 AM 9.69 49.442 0.062 6.39 2.29 11.15
4/13/2021 1:45:00 AM 9.67 49.406 0.062 6.39 2.43 11.15
4/13/2021 2:00:00 AM 9.65 49.37 0.062 6.39 2.41 11.17
4/13/2021 2:15:00 AM 9.63 49.334 0.062 6.39 2.3 11.17
4/13/2021 2:30:00 AM 9.59 49.262 0.062 6.39 2.23 11.18
4/13/2021 2:45:00 AM 9.57 49.226 0.062 6.39 2.35 11.19
4/13/2021 3:00:00 AM 9.56 49.208 0.062 6.39 2.23 11.19
4/13/2021 3:15:00 AM 9.54 49.172 0.062 6.35 3.88 11.2
4/13/2021 3:30:00 AM 9.52 49.136 0.062 6.4 2.26 11.21
4/13/2021 3:45:00 AM 9.5 49.1 0.062 6.4 2.24 11.21
4/13/2021 4:00:00 AM 9.48 49.064 0.062 6.37 4.09 11.23
4/13/2021 4:15:00 AM 9.45 49.01 0.062 6.39 2.36 11.23
4/13/2021 4:30:00 AM 9.42 48.956 0.062 6.39 2.09 11.25
4/13/2021 4:45:00 AM 9.4 48.92 0.062 6.39 2.24 11.25
4/13/2021 5:00:00 AM 9.38 48.884 0.062 6.39 3.02 11.26
4/13/2021 5:15:00 AM 9.36 48.848 0.062 6.39 2.16 11.27
4/13/2021 5:30:00 AM 9.34 48.812 0.062 6.39 2.17 11.28
4/13/2021 5:45:00 AM 9.31 48.758 0.062 6.34 2.26 11.27
4/13/2021 6:00:00 AM 9.29 48.722 0.062 6.39 2.92 11.29
4/13/2021 6:15:00 AM 9.27 48.686 0.062 6.39 2.09 11.29
4/13/2021 6:30:00 AM 9.25 48.65 0.062 6.39 2.08 11.31
4/13/2021 6:45:00 AM 9.24 48.632 0.062 6.4 3.56 11.3
4/13/2021 7:00:00 AM 9.22 48.596 0.061 6.4 2.06 11.32
4/13/2021 7:15:00 AM 9.21 48.578 0.061 6.31 2.02 11.33
4/13/2021 7:30:00 AM 9.2 48.56 0.061 6.41 2.09 11.34
4/13/2021 7:45:00 AM 9.17 48.506 0.061 6.41 2.02 11.36
4/13/2021 8:00:00 AM 9.18 48.524 0.061 6.42 1.95 11.39
4/13/2021 8:15:00 AM 9.18 48.524 0.061 6.38 2.18 11.4
4/13/2021 8:30:00 AM 9.19 48.542 0.061 6.43 1.88 11.41
4/13/2021 8:45:00 AM 9.22 48.596 0.061 6.36 1.92 11.42
4/13/2021 9:00:00 AM 9.24 48.632 0.061 6.44 2.06 11.42
4/13/2021 9:15:00 AM 9.29 48.722 0.061 6.43 2.01 11.43
4/13/2021 9:30:00 AM 9.34 48.812 0.061 6.45 1.95 11.45
4/13/2021 9:45:00 AM 9.35 48.83 0.061 6.44 2.1 11.45
4/13/2021 10:00:00 AM 9.41 48.938 0.061 6.45 1.85 11.44
4/13/2021 10:15:00 AM 9.63 49.334 0.061 6.46 1.73 11.42
4/13/2021 10:30:00 AM 9.65 49.37 0.061 6.35 1.93 11.38
4/13/2021 10:45:00 AM 9.73 49.514 0.061 6.45 1.98 11.37
4/13/2021 11:00:00 AM 9.78 49.604 0.061 6.44 3.15 11.35
4/13/2021 11:15:00 AM 9.85 49.73 0.061 6.47 1.91 11.34
4/13/2021 11:30:00 AM 9.93 49.874 0.061 6.47 1.81 11.33
4/13/2021 11:45:00 AM 10 50 0.061 6.45 1.95 11.31
4/13/2021 12:00:00 PM 10.07 50.126 0.061 6.46 1.76 11.3
4/13/2021 12:15:00 PM 10.16 50.288 0.061 6.45 3.11 11.28
4/13/2021 12:30:00 PM 10.32 50.576 0.061 6.48 2.09 11.24
4/13/2021 12:45:00 PM 10.42 50.756 0.061 6.48 1.76 11.21
4/13/2021 1:00:00 PM 10.52 50.936 0.06 6.48 3.1 11.18
4/13/2021 1:15:00 PM 10.54 50.972 0.061 6.48 1.77 11.16
4/13/2021 1:30:00 PM 10.59 51.062 0.061 6.38 1.85 11.16
4/13/2021 1:45:00 PM 10.6 51.08 0.06 6.48 1.78 11.14
4/13/2021 2:00:00 PM 10.58 51.044 0.06 6.48 1.76 11.12
4/13/2021 2:15:00 PM 10.54 50.972 0.06 6.47 1.8 11.11
4/13/2021 2:30:00 PM 10.59 51.062 0.06 6.42 3.17 11.14
4/13/2021 2:45:00 PM 10.6 51.08 0.06 6.42 1.86 11.12
4/13/2021 3:00:00 PM 10.6 51.08 0.06 6.45 3.06 11.1
4/13/2021 3:15:00 PM 10.71 51.278 0.06 6.48 1.71 11.1
4/13/2021 3:30:00 PM 10.68 51.224 0.06 6.48 3.07 11.1
4/13/2021 3:45:00 PM 10.79 51.422 0.06 6.43 1.89 11.08
4/13/2021 4:00:00 PM 10.83 51.494 0.06 6.45 3.08 11.06
4/13/2021 4:15:00 PM 10.77 51.386 0.06 6.48 1.76 11.04
4/13/2021 4:30:00 PM 10.85 51.53 0.06 6.41 1.78 11.02
4/13/2021 4:45:00 PM 10.9 51.62 0.06 6.49 1.73 11.01
4/13/2021 5:00:00 PM 10.85 51.53 0.06 6.48 1.79 11.01
4/13/2021 5:15:00 PM 10.89 51.602 0.06 6.4 3.12 10.99
4/13/2021 5:30:00 PM 10.89 51.602 0.06 6.46 1.69 10.98
4/13/2021 5:45:00 PM 10.85 51.53 0.06 6.44 1.67 10.99
4/13/2021 6:00:00 PM 10.88 51.584 0.06 6.45 3.16 10.98
4/13/2021 6:15:00 PM 10.9 51.62 0.06 6.48 1.69 10.97
4/13/2021 6:30:00 PM 10.89 51.602 0.06 6.48 1.72 10.97
4/13/2021 6:45:00 PM 10.87 51.566 0.06 6.48 1.64 10.96
4/13/2021 7:00:00 PM 10.84 51.512 0.06 6.45 1.68 10.96
4/13/2021 7:15:00 PM 10.79 51.422 0.06 6.47 1.7 10.96
4/13/2021 7:30:00 PM 10.74 51.332 0.06 6.46 1.71 10.97
4/13/2021 7:45:00 PM 10.68 51.224 0.06 6.45 1.7 10.96
4/13/2021 8:00:00 PM 10.62 51.116 0.06 6.44 1.69 10.97
4/13/2021 8:15:00 PM 10.55 50.99 0.06 6.44 2.28 10.96
4/13/2021 8:30:00 PM 10.48 50.864 0.06 6.43 2 10.96
4/13/2021 8:45:00 PM 10.42 50.756 0.059 6.39 3.81 10.97
4/13/2021 9:00:00 PM 10.37 50.666 0.059 6.43 1.78 10.98
4/13/2021 9:15:00 PM 10.31 50.558 0.059 6.45 3.82 11
4/13/2021 9:30:00 PM 10.26 50.468 0.059 6.42 1.78 11.01
4/13/2021 9:45:00 PM 10.22 50.396 0.059 6.45 3.29 11.05
4/13/2021 10:00:00 PM 10.17 50.306 0.059 6.41 1.74 11.05
4/13/2021 10:15:00 PM 10.13 50.234 0.059 6.41 1.75 11.07
4/13/2021 10:30:00 PM 10.08 50.144 0.059 6.35 3.26 11.08
4/13/2021 10:45:00 PM 10.02 50.036 0.059 6.4 1.81 11.09
4/13/2021 11:00:00 PM 9.98 49.964 0.059 6.41 1.77 11.12
4/13/2021 11:15:00 PM 9.92 49.856 0.059 6.41 1.93 11.12
4/13/2021 11:30:00 PM 9.86 49.748 0.059 6.38 3.36 11.14
4/13/2021 11:45:00 PM 9.8 49.64 0.059 6.41 2.01 11.13
4/14/2021 12:00:00 AM 9.75 49.55 0.059 6.41 1.93 11.15
4/14/2021 12:15:00 AM 9.69 49.442 0.059 6.41 1.87 11.17
4/14/2021 12:30:00 AM 9.63 49.334 0.059 6.41 1.8 11.19
4/14/2021 12:45:00 AM 9.57 49.226 0.059 6.4 1.79 11.22
4/14/2021 1:00:00 AM 9.52 49.136 0.059 6.4 1.78 11.24
4/14/2021 1:15:00 AM 9.45 49.01 0.059 6.37 1.78 11.25
4/14/2021 1:30:00 AM 9.39 48.902 0.059 6.39 1.81 11.26
4/14/2021 1:45:00 AM 9.34 48.812 0.059 6.4 1.79 11.29
4/14/2021 2:00:00 AM 9.3 48.74 0.059 6.4 2 11.3
4/14/2021 2:15:00 AM 9.26 48.668 0.059 6.4 1.84 11.3
4/14/2021 2:30:00 AM 9.21 48.578 0.059 6.4 1.8 11.31
4/14/2021 2:45:00 AM 9.17 48.506 0.059 6.4 1.72 11.32
4/14/2021 3:00:00 AM 9.12 48.416 0.059 6.4 1.74 11.33
4/14/2021 3:15:00 AM 9.08 48.344 0.059 6.4 1.71 11.35
4/14/2021 3:30:00 AM 9.04 48.272 0.059 6.37 1.82 11.36
4/14/2021 3:45:00 AM 8.99 48.182 0.059 6.4 1.92 11.38
4/14/2021 4:00:00 AM 8.94 48.092 0.058 6.4 1.75 11.38
4/14/2021 4:15:00 AM 8.9 48.02 0.058 6.39 1.78 11.4
4/14/2021 4:30:00 AM 8.85 47.93 0.059 6.39 1.96 11.41
4/14/2021 4:45:00 AM 8.81 47.858 0.058 6.37 1.89 11.43
4/14/2021 5:00:00 AM 8.78 47.804 0.058 6.4 1.84 11.43
4/14/2021 5:15:00 AM 8.73 47.714 0.058 6.39 2.01 11.45
4/14/2021 5:30:00 AM 8.69 47.642 0.058 6.38 1.89 11.46
4/14/2021 5:45:00 AM 8.66 47.588 0.058 6.3 1.87 11.46
4/14/2021 6:00:00 AM 8.63 47.534 0.058 6.36 1.84 11.47
4/14/2021 6:15:00 AM 8.59 47.462 0.058 6.27 1.92 11.48
4/14/2021 6:30:00 AM 8.56 47.408 0.058 6.35 1.88 11.48
4/14/2021 6:45:00 AM 8.53 47.354 0.058 6.33 1.79 11.49
4/14/2021 7:00:00 AM 8.5 47.3 0.059 6.34 1.88 11.52
4/14/2021 7:15:00 AM 8.47 47.246 0.059 6.36 1.85 11.54
4/14/2021 7:30:00 AM 8.45 47.21 0.058 6.27 1.78 11.57
4/14/2021 7:45:00 AM 8.45 47.21 0.058 6.37 1.67 11.6
4/14/2021 8:00:00 AM 8.44 47.192 0.058 6.39 1.84 11.62
4/14/2021 8:15:00 AM 8.45 47.21 0.058 6.39 1.78 11.62
4/14/2021 8:30:00 AM 8.46 47.228 0.058 6.36 1.77 11.64
4/14/2021 8:45:00 AM 8.49 47.282 0.058 6.41 1.65 11.64
4/14/2021 9:00:00 AM 8.51 47.318 0.058 6.42 1.62 11.64
4/14/2021 9:15:00 AM 8.57 47.426 0.058 6.42 1.71 11.64
4/14/2021 9:30:00 AM 8.63 47.534 0.058 6.43 1.76 11.64
4/14/2021 9:45:00 AM 8.68 47.624 0.058 6.42 1.69 11.63
4/14/2021 10:00:00 AM 8.77 47.786 0.058 6.44 1.61 11.63
4/14/2021 10:15:00 AM 8.86 47.948 0.058 6.44 1.64 11.62
4/14/2021 10:30:00 AM 8.93 48.074 0.058 6.45 1.89 11.59
4/14/2021 10:45:00 AM 9.02 48.236 0.058 6.45 1.69 11.55
4/14/2021 11:00:00 AM 9.13 48.434 0.058 6.45 1.63 11.53
4/14/2021 11:15:00 AM 9.33 48.794 0.058 6.38 1.67 11.51
4/14/2021 11:30:00 AM 9.57 49.226 0.058 6.47 1.61 11.47
4/14/2021 11:45:00 AM 9.81 49.658 0.058 6.42 1.58 11.4
4/14/2021 12:00:00 PM 9.91 49.838 0.058 6.48 1.61 11.36
4/14/2021 12:15:00 PM 10.02 50.036 0.058 6.49 1.61 11.33
4/14/2021 12:30:00 PM 10.27 50.486 0.058 6.45 2.85 11.28
4/14/2021 12:45:00 PM 10.42 50.756 0.058 6.49 1.56 11.22
4/14/2021 1:00:00 PM 10.6 51.08 0.058 6.48 1.54 11.19
4/14/2021 1:15:00 PM 10.69 51.242 0.058 6.5 1.67 11.13
4/14/2021 1:30:00 PM 10.84 51.512 0.058 6.51 1.77 11.08
4/14/2021 1:45:00 PM 11.03 51.854 0.058 6.51 1.56 11.03
4/14/2021 2:00:00 PM 11.24 52.232 0.058 6.47 3.12 11
4/14/2021 2:15:00 PM 11.46 52.628 0.058 6.47 3 10.95
4/14/2021 2:30:00 PM 11.63 52.934 0.058 6.54 2.89 10.88
4/14/2021 2:45:00 PM 11.68 53.024 0.058 6.52 1.59 10.85
4/14/2021 3:00:00 PM 11.77 53.186 0.058 6.51 1.59 10.84
4/14/2021 3:15:00 PM 11.71 53.078 0.058 6.49 2.97 10.81
4/14/2021 3:30:00 PM 11.69 53.042 0.058 6.52 1.61 10.82
4/14/2021 3:45:00 PM 11.68 53.024 0.058 6.53 1.59 10.81
4/14/2021 4:00:00 PM 11.73 53.114 0.058 6.53 1.63 10.79
4/14/2021 4:15:00 PM 11.79 53.222 0.058 6.53 3.17 10.78
4/14/2021 4:30:00 PM 11.72 53.096 0.058 6.53 1.56 10.78
4/14/2021 4:45:00 PM 11.67 53.006 0.058 6.52 1.66 10.76
4/14/2021 5:00:00 PM 11.63 52.934 0.058 6.52 1.68 10.75
4/14/2021 5:15:00 PM 11.63 52.934 0.058 6.53 2.84 10.76
4/14/2021 5:30:00 PM 11.55 52.79 0.058 6.51 1.62 10.78
4/14/2021 5:45:00 PM 11.48 52.664 0.058 6.4 1.68 10.78
4/14/2021 6:00:00 PM 11.42 52.556 0.058 6.48 2.89 10.79
4/14/2021 6:15:00 PM 11.34 52.412 0.058 6.46 2.79 10.81
4/14/2021 6:30:00 PM 11.28 52.304 0.058 6.51 1.67 10.82
4/14/2021 6:45:00 PM 11.21 52.178 0.058 6.51 1.67 10.83
4/14/2021 7:00:00 PM 11.13 52.034 0.058 6.5 1.68 10.81
4/14/2021 7:15:00 PM 11.04 51.872 0.058 6.49 1.74 10.81
4/14/2021 7:30:00 PM 10.95 51.71 0.058 6.49 1.78 10.83
4/14/2021 7:45:00 PM 10.85 51.53 0.058 6.47 1.8 10.84
4/14/2021 8:00:00 PM 10.75 51.35 0.058 6.43 2.94 10.86
4/14/2021 8:15:00 PM 10.66 51.188 0.058 6.42 1.73 10.87
4/14/2021 8:30:00 PM 10.57 51.026 0.058 6.45 1.78 10.89
4/14/2021 8:45:00 PM 10.48 50.864 0.058 6.45 1.74 10.89
4/14/2021 9:00:00 PM 10.39 50.702 0.058 6.46 3.09 10.91
4/14/2021 9:15:00 PM 10.31 50.558 0.058 6.45 1.7 10.92
4/14/2021 9:30:00 PM 10.22 50.396 0.058 6.45 1.8 10.96
4/14/2021 9:45:00 PM 10.14 50.252 0.058 6.44 1.73 10.99
4/14/2021 10:00:00 PM 10.06 50.108 0.058 6.44 1.8 11.01
4/14/2021 10:15:00 PM 9.97 49.946 0.058 6.41 3.5 11.04
4/14/2021 10:30:00 PM 9.9 49.82 0.058 6.45 3.14 11.05
4/14/2021 10:45:00 PM 9.83 49.694 0.058 6.44 1.81 11.06
4/14/2021 11:00:00 PM 9.78 49.604 0.058 6.4 3.1 11.07
4/14/2021 11:15:00 PM 9.74 49.532 0.058 6.44 1.73 11.08
4/14/2021 11:30:00 PM 9.69 49.442 0.058 6.44 1.65 11.09
4/14/2021 11:45:00 PM 9.64 49.352 0.058 6.43 1.67 11.11
4/15/2021 12:00:00 AM 9.6 49.28 0.058 6.43 1.79 11.12
4/15/2021 12:15:00 AM 9.56 49.208 0.058 6.43 1.68 11.14
4/15/2021 12:30:00 AM 9.52 49.136 0.058 6.39 3.04 11.16
4/15/2021 12:45:00 AM 9.49 49.082 0.058 6.43 1.61 11.16
4/15/2021 1:00:00 AM 9.45 49.01 0.058 6.43 1.81 11.17
4/15/2021 1:15:00 AM 9.41 48.938 0.058 6.43 1.8 11.19
4/15/2021 1:30:00 AM 9.37 48.866 0.058 6.42 1.69 11.2
4/15/2021 1:45:00 AM 9.33 48.794 0.058 6.42 1.69 11.2
4/15/2021 2:00:00 AM 9.3 48.74 0.058 6.42 1.73 11.21
4/15/2021 2:15:00 AM 9.25 48.65 0.058 6.41 1.63 11.2
4/15/2021 2:30:00 AM 9.2 48.56 0.058 6.42 1.76 11.21
4/15/2021 2:45:00 AM 9.16 48.488 0.058 6.36 1.68 11.22
4/15/2021 3:00:00 AM 9.12 48.416 0.058 6.41 1.61 11.23
4/15/2021 3:15:00 AM 9.08 48.344 0.058 6.42 1.69 11.24
4/15/2021 3:30:00 AM 9.05 48.29 0.058 6.42 1.9 11.25
4/15/2021 3:45:00 AM 9.01 48.218 0.058 6.42 1.76 11.27
4/15/2021 4:00:00 AM 8.98 48.164 0.058 6.42 1.6 11.28
4/15/2021 4:15:00 AM 8.94 48.092 0.058 6.41 1.69 11.29
4/15/2021 4:30:00 AM 8.91 48.038 0.058 6.42 1.84 11.3
4/15/2021 4:45:00 AM 8.88 47.984 0.058 6.42 1.64 11.31
4/15/2021 5:00:00 AM 8.85 47.93 0.058 6.42 1.67 11.32
4/15/2021 5:15:00 AM 8.8 47.84 0.058 6.42 1.64 11.33
4/15/2021 5:30:00 AM 8.77 47.786 0.058 6.42 1.62 11.34
4/15/2021 5:45:00 AM 8.74 47.732 0.058 6.42 1.6 11.34
4/15/2021 6:00:00 AM 8.72 47.696 0.058 6.43 1.61 11.35
4/15/2021 6:15:00 AM 8.7 47.66 0.058 6.42 1.53 11.34
4/15/2021 6:30:00 AM 8.67 47.606 0.058 6.42 1.58 11.35
4/15/2021 6:45:00 AM 8.65 47.57 0.058 6.42 1.63 11.36
4/15/2021 7:00:00 AM 8.63 47.534 0.058 6.42 1.56 11.37
4/15/2021 7:15:00 AM 8.6 47.48 0.058 6.42 1.58 11.38
4/15/2021 7:30:00 AM 8.57 47.426 0.058 6.43 1.6 11.39
4/15/2021 7:45:00 AM 8.55 47.39 0.058 6.43 1.51 11.41
4/15/2021 8:00:00 AM 8.53 47.354 0.058 6.34 1.58 11.42
4/15/2021 8:15:00 AM 8.51 47.318 0.058 6.44 1.5 11.43
4/15/2021 8:30:00 AM 8.5 47.3 0.058 6.45 1.57 11.46
4/15/2021 8:45:00 AM 8.48 47.264 0.058 6.46 1.55 11.49
4/15/2021 9:00:00 AM 8.46 47.228 0.058 6.46 1.51 11.48
4/15/2021 9:15:00 AM 8.45 47.21 0.058 6.47 1.47 11.51
4/15/2021 9:30:00 AM 8.42 47.156 0.058 6.48 1.51 11.52
4/15/2021 9:45:00 AM 8.42 47.156 0.058 6.47 1.48 11.53
4/15/2021 10:00:00 AM 8.47 47.246 0.058 6.48 1.6 11.55
4/15/2021 10:15:00 AM 8.51 47.318 0.058 6.49 1.54 11.55
4/15/2021 10:30:00 AM 8.54 47.372 0.058 6.49 1.52 11.55
4/15/2021 10:45:00 AM 8.64 47.552 0.058 6.49 1.49 11.56
4/15/2021 11:00:00 AM 8.72 47.696 0.058 6.49 1.45 11.56
4/15/2021 11:15:00 AM 8.82 47.876 0.058 6.49 1.45 11.55
4/15/2021 11:30:00 AM 8.82 47.876 0.058 6.49 1.39 11.51
4/15/2021 11:45:00 AM 8.83 47.894 0.058 6.49 1.44 11.5
4/15/2021 12:00:00 PM 9.65 49.37 0.054 8.12 22.48 11.31
4/15/2021 12:15:00 PM 8.76 47.768 0.059 6.7 1.74 11.87
4/15/2021 12:30:00 PM 8.77 47.786 0.059 6.53 1.69 11.88
4/15/2021 12:45:00 PM 8.76 47.768 0.059 6.49 1.69 11.89
4/15/2021 1:00:00 PM 8.72 47.696 0.059 6.47 1.81 11.9
4/15/2021 1:15:00 PM 8.75 47.75 0.059 6.46 1.68 11.89
4/15/2021 1:30:00 PM 8.75 47.75 0.059 6.45 1.97 11.9
4/15/2021 1:45:00 PM 8.7 47.66 0.059 6.44 1.63 11.88
4/15/2021 2:00:00 PM 8.66 47.588 0.059 6.44 1.7 11.88
4/15/2021 2:15:00 PM 8.63 47.534 0.059 6.44 1.78 11.9
4/15/2021 2:30:00 PM 8.61 47.498 0.059 6.44 1.74 11.91
4/15/2021 2:45:00 PM 8.56 47.408 0.059 6.43 1.79 11.92
4/15/2021 3:00:00 PM 8.52 47.336 0.059 6.43 1.76 11.93
4/15/2021 3:15:00 PM 8.53 47.354 0.059 6.44 1.67 11.95
4/15/2021 3:30:00 PM 8.57 47.426 0.059 6.46 1.73 11.97
4/15/2021 3:45:00 PM 8.59 47.462 0.059 6.46 1.66 11.97
4/15/2021 4:00:00 PM 8.62 47.516 0.059 6.47 1.75 11.96
4/15/2021 4:15:00 PM 8.67 47.606 0.059 6.47 1.71 11.96
4/15/2021 4:30:00 PM 8.7 47.66 0.059 6.48 1.69 11.95
4/15/2021 4:45:00 PM 8.69 47.642 0.059 6.46 1.65 11.93
4/15/2021 5:00:00 PM 8.7 47.66 0.059 6.46 1.66 11.92
4/15/2021 5:15:00 PM 8.7 47.66 0.059 6.46 1.8 11.91
4/15/2021 5:30:00 PM 8.67 47.606 0.059 6.45 1.69 11.91
4/15/2021 5:45:00 PM 8.64 47.552 0.059 6.45 1.72 11.9
4/15/2021 6:00:00 PM 8.64 47.552 0.059 6.44 1.74 11.89
4/15/2021 6:15:00 PM 8.62 47.516 0.059 6.44 1.65 11.9
4/15/2021 6:30:00 PM 8.57 47.426 0.059 6.43 1.66 11.9
4/15/2021 6:45:00 PM 8.52 47.336 0.059 6.43 1.7 11.9
4/15/2021 7:00:00 PM 8.47 47.246 0.059 6.43 1.64 11.91
4/15/2021 7:15:00 PM 8.39 47.102 0.059 6.42 1.82 11.91
4/15/2021 7:30:00 PM 8.31 46.958 0.059 6.41 1.65 11.92
4/15/2021 7:45:00 PM 8.24 46.832 0.059 6.41 1.68 11.92
4/15/2021 8:00:00 PM 8.17 46.706 0.059 6.4 1.69 11.93
4/15/2021 8:15:00 PM 8.11 46.598 0.059 6.39 1.87 11.94
4/15/2021 8:30:00 PM 8.06 46.508 0.059 6.4 1.83 11.95
4/15/2021 8:45:00 PM 8.01 46.418 0.059 6.39 1.85 11.97
4/15/2021 9:00:00 PM 7.97 46.346 0.06 6.4 1.81 11.97
4/15/2021 9:15:00 PM 7.92 46.256 0.06 6.39 2.02 11.99
4/15/2021 9:30:00 PM 7.88 46.184 0.06 6.39 1.78 12.01
4/15/2021 9:45:00 PM 7.84 46.112 0.06 6.4 1.67 12.01
4/15/2021 10:00:00 PM 7.81 46.058 0.06 6.4 1.78 12.01
4/15/2021 10:15:00 PM 7.78 46.004 0.06 6.4 1.74 12.03
4/15/2021 10:30:00 PM 7.75 45.95 0.06 6.4 1.74 12.05
4/15/2021 10:45:00 PM 7.72 45.896 0.06 6.4 1.82 12.06
4/15/2021 11:00:00 PM 7.69 45.842 0.06 6.4 1.77 12.07
4/15/2021 11:15:00 PM 7.66 45.788 0.06 6.4 1.73 12.06
4/15/2021 11:30:00 PM 7.63 45.734 0.06 6.4 1.74 12.08
4/15/2021 11:45:00 PM 7.6 45.68 0.06 6.41 1.72 12.08
4/16/2021 12:00:00 AM 7.58 45.644 0.06 6.41 1.7 12.08
4/16/2021 12:15:00 AM 7.55 45.59 0.06 6.41 1.83 12.09
4/16/2021 12:30:00 AM 7.53 45.554 0.06 6.41 1.7 12.11
4/16/2021 12:45:00 AM 7.5 45.5 0.06 6.4 1.66 12.11
4/16/2021 1:00:00 AM 7.48 45.464 0.06 6.4 1.75 12.13
4/16/2021 1:15:00 AM 7.46 45.428 0.06 6.4 1.69 12.13
4/16/2021 1:30:00 AM 7.43 45.374 0.06 6.4 1.78 12.14
4/16/2021 1:45:00 AM 7.41 45.338 0.06 6.4 1.71 12.14
4/16/2021 2:00:00 AM 7.38 45.284 0.06 6.41 1.72 12.15
4/16/2021 2:15:00 AM 7.35 45.23 0.06 6.4 1.81 12.15
4/16/2021 2:30:00 AM 7.31 45.158 0.06 6.4 1.73 12.16
4/16/2021 2:45:00 AM 7.28 45.104 0.06 6.4 1.62 12.17
4/16/2021 3:00:00 AM 7.26 45.068 0.06 6.4 1.65 12.18
4/16/2021 3:15:00 AM 7.22 44.996 0.06 6.39 1.73 12.19
4/16/2021 3:30:00 AM 7.19 44.942 0.06 6.4 1.69 12.2
4/16/2021 3:45:00 AM 7.17 44.906 0.06 6.4 1.68 12.21
4/16/2021 4:00:00 AM 7.13 44.834 0.06 6.4 1.71 12.21
4/16/2021 4:15:00 AM 7.12 44.816 0.06 6.4 1.71 12.22
4/16/2021 4:30:00 AM 7.1 44.78 0.06 6.4 6.93 12.23
4/16/2021 4:45:00 AM 7.07 44.726 0.06 6.4 1.76 12.23
4/16/2021 5:00:00 AM 7.05 44.69 0.06 6.4 1.82 12.25
4/16/2021 5:15:00 AM 7.03 44.654 0.06 6.4 1.64 12.25
4/16/2021 5:30:00 AM 7.02 44.636 0.06 6.4 1.69 12.25
4/16/2021 5:45:00 AM 7 44.6 0.06 6.41 1.69 12.26
4/16/2021 6:00:00 AM 6.99 44.582 0.06 6.41 1.73 12.26
4/16/2021 6:15:00 AM 6.98 44.564 0.06 6.41 1.69 12.26
4/16/2021 6:30:00 AM 6.97 44.546 0.06 6.41 1.66 12.27
4/16/2021 6:45:00 AM 6.96 44.528 0.06 6.41 1.72 12.27
4/16/2021 7:00:00 AM 6.96 44.528 0.06 6.41 1.79 12.28
4/16/2021 7:15:00 AM 6.96 44.528 0.06 6.42 1.62 12.3
4/16/2021 7:30:00 AM 6.96 44.528 0.06 6.42 1.64 12.31
4/16/2021 7:45:00 AM 6.97 44.546 0.06 6.43 1.64 12.32
4/16/2021 8:00:00 AM 6.98 44.564 0.06 6.44 1.64 12.34
4/16/2021 8:15:00 AM 6.99 44.582 0.06 6.44 1.62 12.34
4/16/2021 8:30:00 AM 7 44.6 0.06 6.44 1.6 12.34
4/16/2021 8:45:00 AM 7 44.6 0.06 6.45 1.63 12.34
4/16/2021 9:00:00 AM 7.03 44.654 0.06 6.46 1.62 12.36
4/16/2021 9:15:00 AM 7.07 44.726 0.06 6.47 1.68 12.37
4/16/2021 9:30:00 AM 7.1 44.78 0.06 6.47 1.6 12.37
4/16/2021 9:45:00 AM 7.14 44.852 0.06 6.47 1.64 12.38
4/16/2021 10:00:00 AM 7.21 44.978 0.06 6.49 1.56 12.37
4/16/2021 10:15:00 AM 7.25 45.05 0.06 6.48 1.61 12.36
4/16/2021 10:30:00 AM 7.31 45.158 0.06 6.49 1.67 12.35
4/16/2021 10:45:00 AM 7.48